<?xml version="1.0" encoding="UTF-8" standalone="no" ?>
<gpx xmlns="http://www.topografix.com/GPX/1/1" xmlns:xsi="http://www.w3.org/2001/XMLSchema-instance" xsi:schemaLocation="http://www.topografix.com/GPX/1/1 http://www.topografix.com/GPX/1/1/gpx.xsd" version="1.1" creator="VisuGPX - https://www.visugpx.com">
  <metadata>
    <name>Rando Brissac</name>
    <desc><![CDATA[Rando sur Brissac]]></desc>
  </metadata>
  <trk>
    <name><![CDATA[2011-09-04T07:18:56Z]]></name>
    <trkseg>
      <trkpt lat="47.34678" lon="-0.48925">
        <ele>64.5456543</ele>
        <time>2011-09-04T07:18:56Z</time>
      </trkpt>
      <trkpt lat="47.34676" lon="-0.48929">
        <ele>64.5456543</ele>
        <time>2011-09-04T07:18:58Z</time>
      </trkpt>
      <trkpt lat="47.34673" lon="-0.48933">
        <ele>64.5456543</ele>
        <time>2011-09-04T07:19:01Z</time>
      </trkpt>
      <trkpt lat="47.34666" lon="-0.48937">
        <ele>64.5456543</ele>
        <time>2011-09-04T07:19:07Z</time>
      </trkpt>
      <trkpt lat="47.34664" lon="-0.48937">
        <ele>64.0650635</ele>
        <time>2011-09-04T07:19:08Z</time>
      </trkpt>
      <trkpt lat="47.34659" lon="-0.48937">
        <ele>64.5456543</ele>
        <time>2011-09-04T07:19:13Z</time>
      </trkpt>
      <trkpt lat="47.34654" lon="-0.48934">
        <ele>64.0650635</ele>
        <time>2011-09-04T07:19:18Z</time>
      </trkpt>
      <trkpt lat="47.34648" lon="-0.48925">
        <ele>65.5070801</ele>
        <time>2011-09-04T07:19:24Z</time>
      </trkpt>
      <trkpt lat="47.34648" lon="-0.48922">
        <ele>65.5070801</ele>
        <time>2011-09-04T07:19:25Z</time>
      </trkpt>
      <trkpt lat="47.34646" lon="-0.48898">
        <ele>66.9489746</ele>
        <time>2011-09-04T07:19:32Z</time>
      </trkpt>
      <trkpt lat="47.34646" lon="-0.48878">
        <ele>67.9102783</ele>
        <time>2011-09-04T07:19:38Z</time>
      </trkpt>
      <trkpt lat="47.34646" lon="-0.48854">
        <ele>68.3908691</ele>
        <time>2011-09-04T07:19:45Z</time>
      </trkpt>
      <trkpt lat="47.34649" lon="-0.48822">
        <ele>69.3522949</ele>
        <time>2011-09-04T07:19:53Z</time>
      </trkpt>
      <trkpt lat="47.34652" lon="-0.48794">
        <ele>69.8328857</ele>
        <time>2011-09-04T07:20:00Z</time>
      </trkpt>
      <trkpt lat="47.34657" lon="-0.48762">
        <ele>69.3522949</ele>
        <time>2011-09-04T07:20:08Z</time>
      </trkpt>
      <trkpt lat="47.34663" lon="-0.48723">
        <ele>69.8328857</ele>
        <time>2011-09-04T07:20:17Z</time>
      </trkpt>
      <trkpt lat="47.34663" lon="-0.48719">
        <ele>70.3134766</ele>
        <time>2011-09-04T07:20:18Z</time>
      </trkpt>
      <trkpt lat="47.34651" lon="-0.48706">
        <ele>68.871582</ele>
        <time>2011-09-04T07:20:23Z</time>
      </trkpt>
      <trkpt lat="47.34623" lon="-0.48697">
        <ele>68.871582</ele>
        <time>2011-09-04T07:20:32Z</time>
      </trkpt>
      <trkpt lat="47.34589" lon="-0.4869">
        <ele>70.7941895</ele>
        <time>2011-09-04T07:20:42Z</time>
      </trkpt>
      <trkpt lat="47.34555" lon="-0.48685">
        <ele>72.2362061</ele>
        <time>2011-09-04T07:20:52Z</time>
      </trkpt>
      <trkpt lat="47.34516" lon="-0.48679">
        <ele>72.2362061</ele>
        <time>2011-09-04T07:21:03Z</time>
      </trkpt>
      <trkpt lat="47.34486" lon="-0.48681">
        <ele>71.7554932</ele>
        <time>2011-09-04T07:21:11Z</time>
      </trkpt>
      <trkpt lat="47.34448" lon="-0.48688">
        <ele>71.2749023</ele>
        <time>2011-09-04T07:21:21Z</time>
      </trkpt>
      <trkpt lat="47.34415" lon="-0.48694">
        <ele>71.2749023</ele>
        <time>2011-09-04T07:21:30Z</time>
      </trkpt>
      <trkpt lat="47.34381" lon="-0.48707">
        <ele>70.7941895</ele>
        <time>2011-09-04T07:21:39Z</time>
      </trkpt>
      <trkpt lat="47.34374" lon="-0.48708">
        <ele>70.7941895</ele>
        <time>2011-09-04T07:21:41Z</time>
      </trkpt>
      <trkpt lat="47.34367" lon="-0.48696">
        <ele>71.2749023</ele>
        <time>2011-09-04T07:21:45Z</time>
      </trkpt>
      <trkpt lat="47.34367" lon="-0.4869">
        <ele>71.2749023</ele>
        <time>2011-09-04T07:21:46Z</time>
      </trkpt>
      <trkpt lat="47.34371" lon="-0.48645">
        <ele>72.2362061</ele>
        <time>2011-09-04T07:21:54Z</time>
      </trkpt>
      <trkpt lat="47.34375" lon="-0.48599">
        <ele>72.2362061</ele>
        <time>2011-09-04T07:22:02Z</time>
      </trkpt>
      <trkpt lat="47.34379" lon="-0.48534">
        <ele>72.2362061</ele>
        <time>2011-09-04T07:22:13Z</time>
      </trkpt>
      <trkpt lat="47.3438" lon="-0.48521">
        <ele>71.7554932</ele>
        <time>2011-09-04T07:22:15Z</time>
      </trkpt>
      <trkpt lat="47.34384" lon="-0.4847">
        <ele>72.2362061</ele>
        <time>2011-09-04T07:22:23Z</time>
      </trkpt>
      <trkpt lat="47.34396" lon="-0.48407">
        <ele>72.2362061</ele>
        <time>2011-09-04T07:22:33Z</time>
      </trkpt>
      <trkpt lat="47.34406" lon="-0.48378">
        <ele>72.2362061</ele>
        <time>2011-09-04T07:22:39Z</time>
      </trkpt>
      <trkpt lat="47.34407" lon="-0.48373">
        <ele>71.7554932</ele>
        <time>2011-09-04T07:22:40Z</time>
      </trkpt>
      <trkpt lat="47.34398" lon="-0.48348">
        <ele>71.7554932</ele>
        <time>2011-09-04T07:22:45Z</time>
      </trkpt>
      <trkpt lat="47.34377" lon="-0.48312">
        <ele>72.7169189</ele>
        <time>2011-09-04T07:22:53Z</time>
      </trkpt>
      <trkpt lat="47.34352" lon="-0.48272">
        <ele>74.1588135</ele>
        <time>2011-09-04T07:23:02Z</time>
      </trkpt>
      <trkpt lat="47.34323" lon="-0.48226">
        <ele>73.6782227</ele>
        <time>2011-09-04T07:23:12Z</time>
      </trkpt>
      <trkpt lat="47.34306" lon="-0.48196">
        <ele>73.1976318</ele>
        <time>2011-09-04T07:23:18Z</time>
      </trkpt>
      <trkpt lat="47.34292" lon="-0.48164">
        <ele>73.1976318</ele>
        <time>2011-09-04T07:23:24Z</time>
      </trkpt>
      <trkpt lat="47.3428" lon="-0.4813">
        <ele>72.7169189</ele>
        <time>2011-09-04T07:23:31Z</time>
      </trkpt>
      <trkpt lat="47.34263" lon="-0.48077">
        <ele>72.2362061</ele>
        <time>2011-09-04T07:23:40Z</time>
      </trkpt>
      <trkpt lat="47.34246" lon="-0.48023">
        <ele>71.7554932</ele>
        <time>2011-09-04T07:23:49Z</time>
      </trkpt>
      <trkpt lat="47.34233" lon="-0.47969">
        <ele>71.2749023</ele>
        <time>2011-09-04T07:23:58Z</time>
      </trkpt>
      <trkpt lat="47.34227" lon="-0.47922">
        <ele>71.2749023</ele>
        <time>2011-09-04T07:24:06Z</time>
      </trkpt>
      <trkpt lat="47.3422" lon="-0.4791">
        <ele>70.3134766</ele>
        <time>2011-09-04T07:24:10Z</time>
      </trkpt>
      <trkpt lat="47.34213" lon="-0.4792">
        <ele>68.871582</ele>
        <time>2011-09-04T07:24:13Z</time>
      </trkpt>
      <trkpt lat="47.34199" lon="-0.47949">
        <ele>65.5070801</ele>
        <time>2011-09-04T07:24:20Z</time>
      </trkpt>
      <trkpt lat="47.34183" lon="-0.47979">
        <ele>65.0263672</ele>
        <time>2011-09-04T07:24:27Z</time>
      </trkpt>
      <trkpt lat="47.34162" lon="-0.48017">
        <ele>65.0263672</ele>
        <time>2011-09-04T07:24:36Z</time>
      </trkpt>
      <trkpt lat="47.34145" lon="-0.48046">
        <ele>65.5070801</ele>
        <time>2011-09-04T07:24:43Z</time>
      </trkpt>
      <trkpt lat="47.34129" lon="-0.48068">
        <ele>65.0263672</ele>
        <time>2011-09-04T07:24:49Z</time>
      </trkpt>
      <trkpt lat="47.34109" lon="-0.481">
        <ele>64.5456543</ele>
        <time>2011-09-04T07:24:57Z</time>
      </trkpt>
      <trkpt lat="47.34092" lon="-0.48128">
        <ele>65.0263672</ele>
        <time>2011-09-04T07:25:04Z</time>
      </trkpt>
      <trkpt lat="47.34066" lon="-0.4817">
        <ele>65.0263672</ele>
        <time>2011-09-04T07:25:14Z</time>
      </trkpt>
      <trkpt lat="47.34046" lon="-0.48193">
        <ele>65.5070801</ele>
        <time>2011-09-04T07:25:21Z</time>
      </trkpt>
      <trkpt lat="47.34018" lon="-0.48222">
        <ele>65.9876709</ele>
        <time>2011-09-04T07:25:30Z</time>
      </trkpt>
      <trkpt lat="47.33985" lon="-0.48254">
        <ele>67.4296875</ele>
        <time>2011-09-04T07:25:41Z</time>
      </trkpt>
      <trkpt lat="47.33964" lon="-0.48272">
        <ele>68.3908691</ele>
        <time>2011-09-04T07:25:48Z</time>
      </trkpt>
      <trkpt lat="47.33946" lon="-0.48289">
        <ele>69.8328857</ele>
        <time>2011-09-04T07:25:55Z</time>
      </trkpt>
      <trkpt lat="47.33942" lon="-0.48291">
        <ele>70.3134766</ele>
        <time>2011-09-04T07:25:58Z</time>
      </trkpt>
      <trkpt lat="47.33932" lon="-0.48298">
        <ele>70.3134766</ele>
        <time>2011-09-04T07:26:03Z</time>
      </trkpt>
      <trkpt lat="47.33915" lon="-0.4831">
        <ele>70.7941895</ele>
        <time>2011-09-04T07:26:10Z</time>
      </trkpt>
      <trkpt lat="47.33892" lon="-0.48324">
        <ele>71.2749023</ele>
        <time>2011-09-04T07:26:18Z</time>
      </trkpt>
      <trkpt lat="47.33861" lon="-0.48349">
        <ele>72.2362061</ele>
        <time>2011-09-04T07:26:29Z</time>
      </trkpt>
      <trkpt lat="47.33828" lon="-0.48382">
        <ele>72.7169189</ele>
        <time>2011-09-04T07:26:40Z</time>
      </trkpt>
      <trkpt lat="47.33809" lon="-0.48393">
        <ele>73.1976318</ele>
        <time>2011-09-04T07:26:46Z</time>
      </trkpt>
      <trkpt lat="47.33796" lon="-0.48387">
        <ele>73.1976318</ele>
        <time>2011-09-04T07:26:50Z</time>
      </trkpt>
      <trkpt lat="47.33783" lon="-0.48362">
        <ele>73.1976318</ele>
        <time>2011-09-04T07:26:56Z</time>
      </trkpt>
      <trkpt lat="47.33768" lon="-0.48331">
        <ele>73.6782227</ele>
        <time>2011-09-04T07:27:04Z</time>
      </trkpt>
      <trkpt lat="47.33764" lon="-0.48295">
        <ele>74.1588135</ele>
        <time>2011-09-04T07:27:12Z</time>
      </trkpt>
      <trkpt lat="47.33764" lon="-0.48253">
        <ele>74.1588135</ele>
        <time>2011-09-04T07:27:21Z</time>
      </trkpt>
      <trkpt lat="47.3376" lon="-0.48211">
        <ele>74.6395264</ele>
        <time>2011-09-04T07:27:29Z</time>
      </trkpt>
      <trkpt lat="47.33752" lon="-0.48157">
        <ele>74.6395264</ele>
        <time>2011-09-04T07:27:39Z</time>
      </trkpt>
      <trkpt lat="47.33755" lon="-0.48111">
        <ele>74.1588135</ele>
        <time>2011-09-04T07:27:47Z</time>
      </trkpt>
      <trkpt lat="47.33752" lon="-0.48069">
        <ele>74.1588135</ele>
        <time>2011-09-04T07:27:54Z</time>
      </trkpt>
      <trkpt lat="47.33736" lon="-0.48016">
        <ele>74.1588135</ele>
        <time>2011-09-04T07:28:04Z</time>
      </trkpt>
      <trkpt lat="47.33716" lon="-0.47986">
        <ele>73.1976318</ele>
        <time>2011-09-04T07:28:11Z</time>
      </trkpt>
      <trkpt lat="47.33707" lon="-0.47972">
        <ele>72.2362061</ele>
        <time>2011-09-04T07:28:14Z</time>
      </trkpt>
      <trkpt lat="47.33687" lon="-0.47927">
        <ele>72.2362061</ele>
        <time>2011-09-04T07:28:23Z</time>
      </trkpt>
      <trkpt lat="47.3367" lon="-0.47876">
        <ele>72.2362061</ele>
        <time>2011-09-04T07:28:33Z</time>
      </trkpt>
      <trkpt lat="47.33661" lon="-0.47837">
        <ele>71.7554932</ele>
        <time>2011-09-04T07:28:41Z</time>
      </trkpt>
      <trkpt lat="47.33659" lon="-0.47811">
        <ele>73.1976318</ele>
        <time>2011-09-04T07:28:48Z</time>
      </trkpt>
      <trkpt lat="47.33665" lon="-0.47788">
        <ele>73.6782227</ele>
        <time>2011-09-04T07:28:53Z</time>
      </trkpt>
      <trkpt lat="47.33674" lon="-0.4775">
        <ele>72.7169189</ele>
        <time>2011-09-04T07:29:00Z</time>
      </trkpt>
      <trkpt lat="47.33674" lon="-0.47703">
        <ele>72.2362061</ele>
        <time>2011-09-04T07:29:08Z</time>
      </trkpt>
      <trkpt lat="47.3367" lon="-0.47662">
        <ele>71.7554932</ele>
        <time>2011-09-04T07:29:15Z</time>
      </trkpt>
      <trkpt lat="47.33669" lon="-0.47656">
        <ele>71.7554932</ele>
        <time>2011-09-04T07:29:16Z</time>
      </trkpt>
      <trkpt lat="47.33653" lon="-0.47617">
        <ele>70.7941895</ele>
        <time>2011-09-04T07:29:23Z</time>
      </trkpt>
      <trkpt lat="47.33631" lon="-0.47576">
        <ele>70.3134766</ele>
        <time>2011-09-04T07:29:31Z</time>
      </trkpt>
      <trkpt lat="47.33616" lon="-0.47543">
        <ele>69.8328857</ele>
        <time>2011-09-04T07:29:38Z</time>
      </trkpt>
      <trkpt lat="47.33601" lon="-0.47493">
        <ele>69.8328857</ele>
        <time>2011-09-04T07:29:48Z</time>
      </trkpt>
      <trkpt lat="47.33594" lon="-0.47462">
        <ele>70.3134766</ele>
        <time>2011-09-04T07:29:54Z</time>
      </trkpt>
      <trkpt lat="47.33603" lon="-0.47435">
        <ele>69.3522949</ele>
        <time>2011-09-04T07:29:59Z</time>
      </trkpt>
      <trkpt lat="47.33625" lon="-0.47401">
        <ele>67.9102783</ele>
        <time>2011-09-04T07:30:06Z</time>
      </trkpt>
      <trkpt lat="47.33641" lon="-0.47378">
        <ele>65.9876709</ele>
        <time>2011-09-04T07:30:11Z</time>
      </trkpt>
      <trkpt lat="47.33645" lon="-0.4736">
        <ele>65.0263672</ele>
        <time>2011-09-04T07:30:15Z</time>
      </trkpt>
      <trkpt lat="47.33636" lon="-0.47329">
        <ele>61.1810303</ele>
        <time>2011-09-04T07:30:20Z</time>
      </trkpt>
      <trkpt lat="47.33629" lon="-0.47313">
        <ele>61.1810303</ele>
        <time>2011-09-04T07:30:22Z</time>
      </trkpt>
      <trkpt lat="47.33622" lon="-0.47298">
        <ele>60.7003174</ele>
        <time>2011-09-04T07:30:24Z</time>
      </trkpt>
      <trkpt lat="47.33602" lon="-0.47268">
        <ele>60.2197266</ele>
        <time>2011-09-04T07:30:29Z</time>
      </trkpt>
      <trkpt lat="47.33586" lon="-0.47246">
        <ele>60.2197266</ele>
        <time>2011-09-04T07:30:34Z</time>
      </trkpt>
      <trkpt lat="47.33584" lon="-0.47236">
        <ele>60.2197266</ele>
        <time>2011-09-04T07:30:38Z</time>
      </trkpt>
      <trkpt lat="47.33596" lon="-0.47212">
        <ele>60.2197266</ele>
        <time>2011-09-04T07:30:45Z</time>
      </trkpt>
      <trkpt lat="47.33615" lon="-0.47181">
        <ele>60.2197266</ele>
        <time>2011-09-04T07:30:52Z</time>
      </trkpt>
      <trkpt lat="47.33641" lon="-0.47143">
        <ele>59.7391357</ele>
        <time>2011-09-04T07:31:01Z</time>
      </trkpt>
      <trkpt lat="47.33666" lon="-0.47104">
        <ele>60.2197266</ele>
        <time>2011-09-04T07:31:09Z</time>
      </trkpt>
      <trkpt lat="47.33672" lon="-0.47094">
        <ele>59.7391357</ele>
        <time>2011-09-04T07:31:11Z</time>
      </trkpt>
      <trkpt lat="47.33677" lon="-0.47087">
        <ele>59.7391357</ele>
        <time>2011-09-04T07:31:13Z</time>
      </trkpt>
      <trkpt lat="47.33681" lon="-0.47077">
        <ele>58.77771</ele>
        <time>2011-09-04T07:31:16Z</time>
      </trkpt>
      <trkpt lat="47.33698" lon="-0.47048">
        <ele>57.8165283</ele>
        <time>2011-09-04T07:31:22Z</time>
      </trkpt>
      <trkpt lat="47.33707" lon="-0.47033">
        <ele>57.3358154</ele>
        <time>2011-09-04T07:31:25Z</time>
      </trkpt>
      <trkpt lat="47.33724" lon="-0.47013">
        <ele>56.8551025</ele>
        <time>2011-09-04T07:31:30Z</time>
      </trkpt>
      <trkpt lat="47.33759" lon="-0.46963">
        <ele>55.4130859</ele>
        <time>2011-09-04T07:31:40Z</time>
      </trkpt>
      <trkpt lat="47.33793" lon="-0.46913">
        <ele>54.4517822</ele>
        <time>2011-09-04T07:31:49Z</time>
      </trkpt>
      <trkpt lat="47.33826" lon="-0.46865">
        <ele>53.9711914</ele>
        <time>2011-09-04T07:31:58Z</time>
      </trkpt>
      <trkpt lat="47.33845" lon="-0.46837">
        <ele>53.4904785</ele>
        <time>2011-09-04T07:32:04Z</time>
      </trkpt>
      <trkpt lat="47.33883" lon="-0.46785">
        <ele>53.9711914</ele>
        <time>2011-09-04T07:32:14Z</time>
      </trkpt>
      <trkpt lat="47.33923" lon="-0.46735">
        <ele>55.4130859</ele>
        <time>2011-09-04T07:32:24Z</time>
      </trkpt>
      <trkpt lat="47.3396" lon="-0.4669">
        <ele>55.8937988</ele>
        <time>2011-09-04T07:32:33Z</time>
      </trkpt>
      <trkpt lat="47.34001" lon="-0.46641">
        <ele>55.8937988</ele>
        <time>2011-09-04T07:32:43Z</time>
      </trkpt>
      <trkpt lat="47.34018" lon="-0.4662">
        <ele>56.8551025</ele>
        <time>2011-09-04T07:32:48Z</time>
      </trkpt>
      <trkpt lat="47.34033" lon="-0.46596">
        <ele>56.8551025</ele>
        <time>2011-09-04T07:32:53Z</time>
      </trkpt>
      <trkpt lat="47.3407" lon="-0.46565">
        <ele>57.3358154</ele>
        <time>2011-09-04T07:33:02Z</time>
      </trkpt>
      <trkpt lat="47.3408" lon="-0.46558">
        <ele>57.3358154</ele>
        <time>2011-09-04T07:33:04Z</time>
      </trkpt>
      <trkpt lat="47.34107" lon="-0.46538">
        <ele>57.3358154</ele>
        <time>2011-09-04T07:33:10Z</time>
      </trkpt>
      <trkpt lat="47.34147" lon="-0.46507">
        <ele>57.3358154</ele>
        <time>2011-09-04T07:33:20Z</time>
      </trkpt>
      <trkpt lat="47.34181" lon="-0.46468">
        <ele>56.8551025</ele>
        <time>2011-09-04T07:33:29Z</time>
      </trkpt>
      <trkpt lat="47.34202" lon="-0.46434">
        <ele>56.3745117</ele>
        <time>2011-09-04T07:33:35Z</time>
      </trkpt>
      <trkpt lat="47.34228" lon="-0.46376">
        <ele>54.4517822</ele>
        <time>2011-09-04T07:33:44Z</time>
      </trkpt>
      <trkpt lat="47.34237" lon="-0.46356">
        <ele>53.4904785</ele>
        <time>2011-09-04T07:33:47Z</time>
      </trkpt>
      <trkpt lat="47.34269" lon="-0.46287">
        <ele>51.0871582</ele>
        <time>2011-09-04T07:33:57Z</time>
      </trkpt>
      <trkpt lat="47.34282" lon="-0.46259">
        <ele>50.1259766</ele>
        <time>2011-09-04T07:34:01Z</time>
      </trkpt>
      <trkpt lat="47.34285" lon="-0.46253">
        <ele>49.6452637</ele>
        <time>2011-09-04T07:34:02Z</time>
      </trkpt>
      <trkpt lat="47.34288" lon="-0.46246">
        <ele>49.6452637</ele>
        <time>2011-09-04T07:34:03Z</time>
      </trkpt>
      <trkpt lat="47.34296" lon="-0.46231">
        <ele>48.68396</ele>
        <time>2011-09-04T07:34:06Z</time>
      </trkpt>
      <trkpt lat="47.34289" lon="-0.46216">
        <ele>47.2418213</ele>
        <time>2011-09-04T07:34:10Z</time>
      </trkpt>
      <trkpt lat="47.34265" lon="-0.46188">
        <ele>45.3192139</ele>
        <time>2011-09-04T07:34:16Z</time>
      </trkpt>
      <trkpt lat="47.34257" lon="-0.46177">
        <ele>45.3192139</ele>
        <time>2011-09-04T07:34:18Z</time>
      </trkpt>
      <trkpt lat="47.34222" lon="-0.46133">
        <ele>42.9160156</ele>
        <time>2011-09-04T07:34:26Z</time>
      </trkpt>
      <trkpt lat="47.34202" lon="-0.46107">
        <ele>40.9934082</ele>
        <time>2011-09-04T07:34:31Z</time>
      </trkpt>
      <trkpt lat="47.34186" lon="-0.46089">
        <ele>40.9934082</ele>
        <time>2011-09-04T07:34:35Z</time>
      </trkpt>
      <trkpt lat="47.3416" lon="-0.46058">
        <ele>41.473999</ele>
        <time>2011-09-04T07:34:42Z</time>
      </trkpt>
      <trkpt lat="47.34146" lon="-0.46041">
        <ele>41.9547119</ele>
        <time>2011-09-04T07:34:46Z</time>
      </trkpt>
      <trkpt lat="47.34136" lon="-0.46029">
        <ele>41.9547119</ele>
        <time>2011-09-04T07:34:49Z</time>
      </trkpt>
      <trkpt lat="47.34123" lon="-0.46015">
        <ele>43.3966064</ele>
        <time>2011-09-04T07:34:53Z</time>
      </trkpt>
      <trkpt lat="47.34112" lon="-0.46003">
        <ele>43.8773193</ele>
        <time>2011-09-04T07:34:56Z</time>
      </trkpt>
      <trkpt lat="47.34083" lon="-0.45967">
        <ele>46.2806396</ele>
        <time>2011-09-04T07:35:05Z</time>
      </trkpt>
      <trkpt lat="47.34056" lon="-0.45932">
        <ele>48.68396</ele>
        <time>2011-09-04T07:35:15Z</time>
      </trkpt>
      <trkpt lat="47.34034" lon="-0.45904">
        <ele>51.5678711</ele>
        <time>2011-09-04T07:35:23Z</time>
      </trkpt>
      <trkpt lat="47.34015" lon="-0.45881">
        <ele>55.4130859</ele>
        <time>2011-09-04T07:35:30Z</time>
      </trkpt>
      <trkpt lat="47.3399" lon="-0.45848">
        <ele>57.8165283</ele>
        <time>2011-09-04T07:35:40Z</time>
      </trkpt>
      <trkpt lat="47.33964" lon="-0.45815">
        <ele>58.77771</ele>
        <time>2011-09-04T07:35:50Z</time>
      </trkpt>
      <trkpt lat="47.33943" lon="-0.4579">
        <ele>59.2584229</ele>
        <time>2011-09-04T07:35:58Z</time>
      </trkpt>
      <trkpt lat="47.33924" lon="-0.45767">
        <ele>57.8165283</ele>
        <time>2011-09-04T07:36:05Z</time>
      </trkpt>
      <trkpt lat="47.33895" lon="-0.45731">
        <ele>56.8551025</ele>
        <time>2011-09-04T07:36:15Z</time>
      </trkpt>
      <trkpt lat="47.33872" lon="-0.45703">
        <ele>56.8551025</ele>
        <time>2011-09-04T07:36:23Z</time>
      </trkpt>
      <trkpt lat="47.33841" lon="-0.45666">
        <ele>57.3358154</ele>
        <time>2011-09-04T07:36:33Z</time>
      </trkpt>
      <trkpt lat="47.33809" lon="-0.45627">
        <ele>57.3358154</ele>
        <time>2011-09-04T07:36:43Z</time>
      </trkpt>
      <trkpt lat="47.3378" lon="-0.45593">
        <ele>57.3358154</ele>
        <time>2011-09-04T07:36:52Z</time>
      </trkpt>
      <trkpt lat="47.33761" lon="-0.45568">
        <ele>57.8165283</ele>
        <time>2011-09-04T07:36:59Z</time>
      </trkpt>
      <trkpt lat="47.33765" lon="-0.45552">
        <ele>56.8551025</ele>
        <time>2011-09-04T07:37:03Z</time>
      </trkpt>
      <trkpt lat="47.33768" lon="-0.4555">
        <ele>56.8551025</ele>
        <time>2011-09-04T07:37:04Z</time>
      </trkpt>
      <trkpt lat="47.33791" lon="-0.4553">
        <ele>55.8937988</ele>
        <time>2011-09-04T07:37:11Z</time>
      </trkpt>
      <trkpt lat="47.33816" lon="-0.45508">
        <ele>55.4130859</ele>
        <time>2011-09-04T07:37:18Z</time>
      </trkpt>
      <trkpt lat="47.33832" lon="-0.45493">
        <ele>54.932373</ele>
        <time>2011-09-04T07:37:22Z</time>
      </trkpt>
      <trkpt lat="47.33868" lon="-0.4546">
        <ele>52.5291748</ele>
        <time>2011-09-04T07:37:31Z</time>
      </trkpt>
      <trkpt lat="47.33892" lon="-0.45437">
        <ele>51.5678711</ele>
        <time>2011-09-04T07:37:37Z</time>
      </trkpt>
      <trkpt lat="47.33922" lon="-0.4541">
        <ele>49.6452637</ele>
        <time>2011-09-04T07:37:44Z</time>
      </trkpt>
      <trkpt lat="47.33926" lon="-0.45406">
        <ele>49.6452637</ele>
        <time>2011-09-04T07:37:45Z</time>
      </trkpt>
      <trkpt lat="47.33942" lon="-0.45391">
        <ele>49.6452637</ele>
        <time>2011-09-04T07:37:50Z</time>
      </trkpt>
      <trkpt lat="47.33944" lon="-0.45376">
        <ele>49.1645508</ele>
        <time>2011-09-04T07:37:54Z</time>
      </trkpt>
      <trkpt lat="47.33943" lon="-0.45372">
        <ele>49.1645508</ele>
        <time>2011-09-04T07:37:55Z</time>
      </trkpt>
      <trkpt lat="47.33937" lon="-0.45355">
        <ele>49.1645508</ele>
        <time>2011-09-04T07:38:00Z</time>
      </trkpt>
      <trkpt lat="47.33931" lon="-0.45333">
        <ele>49.6452637</ele>
        <time>2011-09-04T07:38:06Z</time>
      </trkpt>
      <trkpt lat="47.33928" lon="-0.45316">
        <ele>50.6065674</ele>
        <time>2011-09-04T07:38:10Z</time>
      </trkpt>
      <trkpt lat="47.33929" lon="-0.45303">
        <ele>51.0871582</ele>
        <time>2011-09-04T07:38:13Z</time>
      </trkpt>
      <trkpt lat="47.33944" lon="-0.4529">
        <ele>50.1259766</ele>
        <time>2011-09-04T07:38:20Z</time>
      </trkpt>
      <trkpt lat="47.33952" lon="-0.45283">
        <ele>49.6452637</ele>
        <time>2011-09-04T07:38:24Z</time>
      </trkpt>
      <trkpt lat="47.33966" lon="-0.45272">
        <ele>48.68396</ele>
        <time>2011-09-04T07:38:30Z</time>
      </trkpt>
      <trkpt lat="47.33973" lon="-0.45271">
        <ele>48.2033691</ele>
        <time>2011-09-04T07:38:33Z</time>
      </trkpt>
      <trkpt lat="47.33977" lon="-0.45282">
        <ele>48.2033691</ele>
        <time>2011-09-04T07:38:37Z</time>
      </trkpt>
      <trkpt lat="47.33974" lon="-0.45289">
        <ele>48.68396</ele>
        <time>2011-09-04T07:38:40Z</time>
      </trkpt>
      <trkpt lat="47.33972" lon="-0.45291">
        <ele>48.2033691</ele>
        <time>2011-09-04T07:38:48Z</time>
      </trkpt>
      <trkpt lat="47.33972" lon="-0.45291">
        <ele>48.2033691</ele>
        <time>2011-09-04T07:38:57Z</time>
      </trkpt>
      <trkpt lat="47.33967" lon="-0.45297">
        <ele>46.7612305</ele>
        <time>2011-09-04T07:39:02Z</time>
      </trkpt>
      <trkpt lat="47.33955" lon="-0.45311">
        <ele>43.8773193</ele>
        <time>2011-09-04T07:39:09Z</time>
      </trkpt>
      <trkpt lat="47.33951" lon="-0.45316">
        <ele>42.9160156</ele>
        <time>2011-09-04T07:39:13Z</time>
      </trkpt>
      <trkpt lat="47.3395" lon="-0.45322">
        <ele>44.3580322</ele>
        <time>2011-09-04T07:39:21Z</time>
      </trkpt>
      <trkpt lat="47.33952" lon="-0.45327">
        <ele>47.2418213</ele>
        <time>2011-09-04T07:39:27Z</time>
      </trkpt>
      <trkpt lat="47.33952" lon="-0.45327">
        <ele>55.4130859</ele>
        <time>2011-09-04T07:39:38Z</time>
      </trkpt>
      <trkpt lat="47.33954" lon="-0.45327">
        <ele>58.77771</ele>
        <time>2011-09-04T07:39:44Z</time>
      </trkpt>
      <trkpt lat="47.3395" lon="-0.45327">
        <ele>63.1036377</ele>
        <time>2011-09-04T07:40:11Z</time>
      </trkpt>
      <trkpt lat="47.3395" lon="-0.45323">
        <ele>58.2971191</ele>
        <time>2011-09-04T07:40:19Z</time>
      </trkpt>
      <trkpt lat="47.33945" lon="-0.4532">
        <ele>49.6452637</ele>
        <time>2011-09-04T07:40:31Z</time>
      </trkpt>
      <trkpt lat="47.33949" lon="-0.45325">
        <ele>56.8551025</ele>
        <time>2011-09-04T07:40:44Z</time>
      </trkpt>
      <trkpt lat="47.33949" lon="-0.45326">
        <ele>57.3358154</ele>
        <time>2011-09-04T07:40:46Z</time>
      </trkpt>
      <trkpt lat="47.33945" lon="-0.45323">
        <ele>55.4130859</ele>
        <time>2011-09-04T07:40:52Z</time>
      </trkpt>
      <trkpt lat="47.33945" lon="-0.45323">
        <ele>53.4904785</ele>
        <time>2011-09-04T07:40:55Z</time>
      </trkpt>
      <trkpt lat="47.33944" lon="-0.45325">
        <ele>49.1645508</ele>
        <time>2011-09-04T07:41:10Z</time>
      </trkpt>
      <trkpt lat="47.33943" lon="-0.45328">
        <ele>43.8773193</ele>
        <time>2011-09-04T07:41:33Z</time>
      </trkpt>
      <trkpt lat="47.33944" lon="-0.45328">
        <ele>46.2806396</ele>
        <time>2011-09-04T07:41:53Z</time>
      </trkpt>
      <trkpt lat="47.33948" lon="-0.45324">
        <ele>43.8773193</ele>
        <time>2011-09-04T07:42:01Z</time>
      </trkpt>
      <trkpt lat="47.3396" lon="-0.45309">
        <ele>44.3580322</ele>
        <time>2011-09-04T07:42:07Z</time>
      </trkpt>
      <trkpt lat="47.33974" lon="-0.45294">
        <ele>44.3580322</ele>
        <time>2011-09-04T07:42:14Z</time>
      </trkpt>
      <trkpt lat="47.33978" lon="-0.45276">
        <ele>44.3580322</ele>
        <time>2011-09-04T07:42:19Z</time>
      </trkpt>
      <trkpt lat="47.33974" lon="-0.45258">
        <ele>44.3580322</ele>
        <time>2011-09-04T07:42:24Z</time>
      </trkpt>
      <trkpt lat="47.3397" lon="-0.45229">
        <ele>44.838623</ele>
        <time>2011-09-04T07:42:30Z</time>
      </trkpt>
      <trkpt lat="47.33964" lon="-0.45197">
        <ele>44.3580322</ele>
        <time>2011-09-04T07:42:36Z</time>
      </trkpt>
      <trkpt lat="47.33958" lon="-0.45155">
        <ele>43.8773193</ele>
        <time>2011-09-04T07:42:43Z</time>
      </trkpt>
      <trkpt lat="47.33947" lon="-0.45085">
        <ele>42.9160156</ele>
        <time>2011-09-04T07:42:54Z</time>
      </trkpt>
      <trkpt lat="47.33937" lon="-0.45023">
        <ele>41.9547119</ele>
        <time>2011-09-04T07:43:03Z</time>
      </trkpt>
      <trkpt lat="47.3393" lon="-0.44979">
        <ele>40.9934082</ele>
        <time>2011-09-04T07:43:09Z</time>
      </trkpt>
      <trkpt lat="47.33917" lon="-0.44908">
        <ele>39.5512695</ele>
        <time>2011-09-04T07:43:18Z</time>
      </trkpt>
      <trkpt lat="47.33909" lon="-0.44852">
        <ele>38.109375</ele>
        <time>2011-09-04T07:43:25Z</time>
      </trkpt>
      <trkpt lat="47.33899" lon="-0.44786">
        <ele>35.7060547</ele>
        <time>2011-09-04T07:43:34Z</time>
      </trkpt>
      <trkpt lat="47.33897" lon="-0.44771">
        <ele>35.7060547</ele>
        <time>2011-09-04T07:43:36Z</time>
      </trkpt>
      <trkpt lat="47.33894" lon="-0.44758">
        <ele>36.1867676</ele>
        <time>2011-09-04T07:43:38Z</time>
      </trkpt>
      <trkpt lat="47.33877" lon="-0.44729">
        <ele>37.1480713</ele>
        <time>2011-09-04T07:43:44Z</time>
      </trkpt>
      <trkpt lat="47.33869" lon="-0.44715">
        <ele>37.6286621</ele>
        <time>2011-09-04T07:43:47Z</time>
      </trkpt>
      <trkpt lat="47.33858" lon="-0.4469">
        <ele>38.109375</ele>
        <time>2011-09-04T07:43:52Z</time>
      </trkpt>
      <trkpt lat="47.33853" lon="-0.44679">
        <ele>38.5900879</ele>
        <time>2011-09-04T07:43:54Z</time>
      </trkpt>
      <trkpt lat="47.33833" lon="-0.44617">
        <ele>39.5512695</ele>
        <time>2011-09-04T07:44:06Z</time>
      </trkpt>
      <trkpt lat="47.33823" lon="-0.44581">
        <ele>40.9934082</ele>
        <time>2011-09-04T07:44:13Z</time>
      </trkpt>
      <trkpt lat="47.33815" lon="-0.44549">
        <ele>41.9547119</ele>
        <time>2011-09-04T07:44:20Z</time>
      </trkpt>
      <trkpt lat="47.33814" lon="-0.4453">
        <ele>41.473999</ele>
        <time>2011-09-04T07:44:25Z</time>
      </trkpt>
      <trkpt lat="47.33812" lon="-0.44512">
        <ele>41.9547119</ele>
        <time>2011-09-04T07:44:30Z</time>
      </trkpt>
      <trkpt lat="47.3381" lon="-0.44496">
        <ele>41.473999</ele>
        <time>2011-09-04T07:44:34Z</time>
      </trkpt>
      <trkpt lat="47.3381" lon="-0.44467">
        <ele>43.8773193</ele>
        <time>2011-09-04T07:44:41Z</time>
      </trkpt>
      <trkpt lat="47.3381" lon="-0.44448">
        <ele>44.3580322</ele>
        <time>2011-09-04T07:44:46Z</time>
      </trkpt>
      <trkpt lat="47.33808" lon="-0.44413">
        <ele>44.3580322</ele>
        <time>2011-09-04T07:44:55Z</time>
      </trkpt>
      <trkpt lat="47.33806" lon="-0.44379">
        <ele>44.838623</ele>
        <time>2011-09-04T07:45:04Z</time>
      </trkpt>
      <trkpt lat="47.33806" lon="-0.44342">
        <ele>46.2806396</ele>
        <time>2011-09-04T07:45:14Z</time>
      </trkpt>
      <trkpt lat="47.33811" lon="-0.44333">
        <ele>47.2418213</ele>
        <time>2011-09-04T07:45:19Z</time>
      </trkpt>
      <trkpt lat="47.33824" lon="-0.44327">
        <ele>47.7225342</ele>
        <time>2011-09-04T07:45:25Z</time>
      </trkpt>
      <trkpt lat="47.33848" lon="-0.4432">
        <ele>48.2033691</ele>
        <time>2011-09-04T07:45:33Z</time>
      </trkpt>
      <trkpt lat="47.33878" lon="-0.44312">
        <ele>48.68396</ele>
        <time>2011-09-04T07:45:43Z</time>
      </trkpt>
      <trkpt lat="47.33906" lon="-0.44305">
        <ele>48.68396</ele>
        <time>2011-09-04T07:45:52Z</time>
      </trkpt>
      <trkpt lat="47.33927" lon="-0.44302">
        <ele>49.6452637</ele>
        <time>2011-09-04T07:45:59Z</time>
      </trkpt>
      <trkpt lat="47.33952" lon="-0.44301">
        <ele>50.1259766</ele>
        <time>2011-09-04T07:46:08Z</time>
      </trkpt>
      <trkpt lat="47.33971" lon="-0.44299">
        <ele>53.0097656</ele>
        <time>2011-09-04T07:46:15Z</time>
      </trkpt>
      <trkpt lat="47.33991" lon="-0.44298">
        <ele>54.4517822</ele>
        <time>2011-09-04T07:46:23Z</time>
      </trkpt>
      <trkpt lat="47.34013" lon="-0.44297">
        <ele>57.3358154</ele>
        <time>2011-09-04T07:46:30Z</time>
      </trkpt>
      <trkpt lat="47.34027" lon="-0.44297">
        <ele>58.2971191</ele>
        <time>2011-09-04T07:46:35Z</time>
      </trkpt>
      <trkpt lat="47.34048" lon="-0.44298">
        <ele>58.77771</ele>
        <time>2011-09-04T07:46:42Z</time>
      </trkpt>
      <trkpt lat="47.34072" lon="-0.443">
        <ele>59.7391357</ele>
        <time>2011-09-04T07:46:49Z</time>
      </trkpt>
      <trkpt lat="47.34103" lon="-0.44304">
        <ele>58.2971191</ele>
        <time>2011-09-04T07:46:58Z</time>
      </trkpt>
      <trkpt lat="47.34119" lon="-0.44295">
        <ele>58.77771</ele>
        <time>2011-09-04T07:47:03Z</time>
      </trkpt>
      <trkpt lat="47.3413" lon="-0.44285">
        <ele>59.2584229</ele>
        <time>2011-09-04T07:47:08Z</time>
      </trkpt>
      <trkpt lat="47.34143" lon="-0.44286">
        <ele>59.2584229</ele>
        <time>2011-09-04T07:47:13Z</time>
      </trkpt>
      <trkpt lat="47.34157" lon="-0.44292">
        <ele>58.77771</ele>
        <time>2011-09-04T07:47:18Z</time>
      </trkpt>
      <trkpt lat="47.34178" lon="-0.443">
        <ele>58.2971191</ele>
        <time>2011-09-04T07:47:25Z</time>
      </trkpt>
      <trkpt lat="47.34207" lon="-0.44312">
        <ele>57.3358154</ele>
        <time>2011-09-04T07:47:33Z</time>
      </trkpt>
      <trkpt lat="47.34233" lon="-0.44321">
        <ele>57.8165283</ele>
        <time>2011-09-04T07:47:40Z</time>
      </trkpt>
      <trkpt lat="47.34255" lon="-0.44326">
        <ele>57.3358154</ele>
        <time>2011-09-04T07:47:46Z</time>
      </trkpt>
      <trkpt lat="47.34286" lon="-0.44331">
        <ele>56.3745117</ele>
        <time>2011-09-04T07:47:54Z</time>
      </trkpt>
      <trkpt lat="47.34327" lon="-0.44335">
        <ele>55.8937988</ele>
        <time>2011-09-04T07:48:03Z</time>
      </trkpt>
      <trkpt lat="47.3436" lon="-0.44338">
        <ele>56.8551025</ele>
        <time>2011-09-04T07:48:10Z</time>
      </trkpt>
      <trkpt lat="47.34396" lon="-0.44341">
        <ele>56.3745117</ele>
        <time>2011-09-04T07:48:18Z</time>
      </trkpt>
      <trkpt lat="47.3443" lon="-0.44344">
        <ele>56.3745117</ele>
        <time>2011-09-04T07:48:25Z</time>
      </trkpt>
      <trkpt lat="47.34467" lon="-0.44346">
        <ele>57.3358154</ele>
        <time>2011-09-04T07:48:33Z</time>
      </trkpt>
      <trkpt lat="47.34506" lon="-0.4435">
        <ele>57.3358154</ele>
        <time>2011-09-04T07:48:41Z</time>
      </trkpt>
      <trkpt lat="47.34556" lon="-0.44357">
        <ele>58.77771</ele>
        <time>2011-09-04T07:48:51Z</time>
      </trkpt>
      <trkpt lat="47.34616" lon="-0.44363">
        <ele>58.77771</ele>
        <time>2011-09-04T07:49:03Z</time>
      </trkpt>
      <trkpt lat="47.34666" lon="-0.4437">
        <ele>58.77771</ele>
        <time>2011-09-04T07:49:13Z</time>
      </trkpt>
      <trkpt lat="47.3472" lon="-0.44376">
        <ele>58.77771</ele>
        <time>2011-09-04T07:49:24Z</time>
      </trkpt>
      <trkpt lat="47.34741" lon="-0.44379">
        <ele>58.2971191</ele>
        <time>2011-09-04T07:49:29Z</time>
      </trkpt>
      <trkpt lat="47.3477" lon="-0.44382">
        <ele>58.2971191</ele>
        <time>2011-09-04T07:49:36Z</time>
      </trkpt>
      <trkpt lat="47.34797" lon="-0.44379">
        <ele>58.77771</ele>
        <time>2011-09-04T07:49:42Z</time>
      </trkpt>
      <trkpt lat="47.34831" lon="-0.44368">
        <ele>57.8165283</ele>
        <time>2011-09-04T07:49:49Z</time>
      </trkpt>
      <trkpt lat="47.34877" lon="-0.44352">
        <ele>56.8551025</ele>
        <time>2011-09-04T07:49:58Z</time>
      </trkpt>
      <trkpt lat="47.34911" lon="-0.44338">
        <ele>57.3358154</ele>
        <time>2011-09-04T07:50:05Z</time>
      </trkpt>
      <trkpt lat="47.34918" lon="-0.44335">
        <ele>57.3358154</ele>
        <time>2011-09-04T07:50:07Z</time>
      </trkpt>
      <trkpt lat="47.34925" lon="-0.44327">
        <ele>56.8551025</ele>
        <time>2011-09-04T07:50:11Z</time>
      </trkpt>
      <trkpt lat="47.34926" lon="-0.44324">
        <ele>57.8165283</ele>
        <time>2011-09-04T07:50:20Z</time>
      </trkpt>
      <trkpt lat="47.34939" lon="-0.44318">
        <ele>58.2971191</ele>
        <time>2011-09-04T07:50:25Z</time>
      </trkpt>
      <trkpt lat="47.34962" lon="-0.44303">
        <ele>57.8165283</ele>
        <time>2011-09-04T07:50:32Z</time>
      </trkpt>
      <trkpt lat="47.34987" lon="-0.44285">
        <ele>57.3358154</ele>
        <time>2011-09-04T07:50:39Z</time>
      </trkpt>
      <trkpt lat="47.35018" lon="-0.44262">
        <ele>55.8937988</ele>
        <time>2011-09-04T07:50:46Z</time>
      </trkpt>
      <trkpt lat="47.35062" lon="-0.44224">
        <ele>54.4517822</ele>
        <time>2011-09-04T07:50:54Z</time>
      </trkpt>
      <trkpt lat="47.35094" lon="-0.44183">
        <ele>53.4904785</ele>
        <time>2011-09-04T07:51:01Z</time>
      </trkpt>
      <trkpt lat="47.35105" lon="-0.44162">
        <ele>53.4904785</ele>
        <time>2011-09-04T07:51:04Z</time>
      </trkpt>
      <trkpt lat="47.3512" lon="-0.4411">
        <ele>52.5291748</ele>
        <time>2011-09-04T07:51:11Z</time>
      </trkpt>
      <trkpt lat="47.35123" lon="-0.44102">
        <ele>52.5291748</ele>
        <time>2011-09-04T07:51:13Z</time>
      </trkpt>
      <trkpt lat="47.35125" lon="-0.44097">
        <ele>51.0871582</ele>
        <time>2011-09-04T07:51:18Z</time>
      </trkpt>
      <trkpt lat="47.35125" lon="-0.44097">
        <ele>51.0871582</ele>
        <time>2011-09-04T07:51:19Z</time>
      </trkpt>
      <trkpt lat="47.35127" lon="-0.44098">
        <ele>50.6065674</ele>
        <time>2011-09-04T07:51:20Z</time>
      </trkpt>
      <trkpt lat="47.35137" lon="-0.44124">
        <ele>49.6452637</ele>
        <time>2011-09-04T07:51:27Z</time>
      </trkpt>
      <trkpt lat="47.35143" lon="-0.4414">
        <ele>49.6452637</ele>
        <time>2011-09-04T07:51:30Z</time>
      </trkpt>
      <trkpt lat="47.35161" lon="-0.44183">
        <ele>47.7225342</ele>
        <time>2011-09-04T07:51:37Z</time>
      </trkpt>
      <trkpt lat="47.35176" lon="-0.44223">
        <ele>45.3192139</ele>
        <time>2011-09-04T07:51:42Z</time>
      </trkpt>
      <trkpt lat="47.35195" lon="-0.44274">
        <ele>43.3966064</ele>
        <time>2011-09-04T07:51:48Z</time>
      </trkpt>
      <trkpt lat="47.35201" lon="-0.4429">
        <ele>42.4354248</ele>
        <time>2011-09-04T07:51:50Z</time>
      </trkpt>
      <trkpt lat="47.35205" lon="-0.44327">
        <ele>41.473999</ele>
        <time>2011-09-04T07:51:54Z</time>
      </trkpt>
      <trkpt lat="47.35202" lon="-0.44345">
        <ele>41.473999</ele>
        <time>2011-09-04T07:51:56Z</time>
      </trkpt>
      <trkpt lat="47.35196" lon="-0.44366">
        <ele>41.473999</ele>
        <time>2011-09-04T07:51:59Z</time>
      </trkpt>
      <trkpt lat="47.35203" lon="-0.44383">
        <ele>40.5128174</ele>
        <time>2011-09-04T07:52:03Z</time>
      </trkpt>
      <trkpt lat="47.3521" lon="-0.44379">
        <ele>40.5128174</ele>
        <time>2011-09-04T07:52:05Z</time>
      </trkpt>
      <trkpt lat="47.35216" lon="-0.44374">
        <ele>40.0321045</ele>
        <time>2011-09-04T07:52:07Z</time>
      </trkpt>
      <trkpt lat="47.35226" lon="-0.4437">
        <ele>39.0706787</ele>
        <time>2011-09-04T07:52:10Z</time>
      </trkpt>
      <trkpt lat="47.35239" lon="-0.4438">
        <ele>38.5900879</ele>
        <time>2011-09-04T07:52:15Z</time>
      </trkpt>
      <trkpt lat="47.35257" lon="-0.44395">
        <ele>38.109375</ele>
        <time>2011-09-04T07:52:21Z</time>
      </trkpt>
      <trkpt lat="47.35271" lon="-0.44406">
        <ele>38.5900879</ele>
        <time>2011-09-04T07:52:26Z</time>
      </trkpt>
      <trkpt lat="47.35284" lon="-0.44418">
        <ele>38.5900879</ele>
        <time>2011-09-04T07:52:31Z</time>
      </trkpt>
      <trkpt lat="47.35284" lon="-0.44433">
        <ele>38.109375</ele>
        <time>2011-09-04T07:52:35Z</time>
      </trkpt>
      <trkpt lat="47.35275" lon="-0.44454">
        <ele>38.5900879</ele>
        <time>2011-09-04T07:52:41Z</time>
      </trkpt>
      <trkpt lat="47.35282" lon="-0.4447">
        <ele>39.0706787</ele>
        <time>2011-09-04T07:52:45Z</time>
      </trkpt>
      <trkpt lat="47.35294" lon="-0.44482">
        <ele>40.0321045</ele>
        <time>2011-09-04T07:52:49Z</time>
      </trkpt>
      <trkpt lat="47.35316" lon="-0.44505">
        <ele>40.5128174</ele>
        <time>2011-09-04T07:52:56Z</time>
      </trkpt>
      <trkpt lat="47.35326" lon="-0.44515">
        <ele>40.0321045</ele>
        <time>2011-09-04T07:53:00Z</time>
      </trkpt>
      <trkpt lat="47.35343" lon="-0.44532">
        <ele>40.0321045</ele>
        <time>2011-09-04T07:53:06Z</time>
      </trkpt>
      <trkpt lat="47.35346" lon="-0.44534">
        <ele>40.0321045</ele>
        <time>2011-09-04T07:53:07Z</time>
      </trkpt>
      <trkpt lat="47.3535" lon="-0.4455">
        <ele>41.9547119</ele>
        <time>2011-09-04T07:53:11Z</time>
      </trkpt>
      <trkpt lat="47.35347" lon="-0.44576">
        <ele>43.8773193</ele>
        <time>2011-09-04T07:53:16Z</time>
      </trkpt>
      <trkpt lat="47.35362" lon="-0.44596">
        <ele>44.838623</ele>
        <time>2011-09-04T07:53:22Z</time>
      </trkpt>
      <trkpt lat="47.3538" lon="-0.44614">
        <ele>44.838623</ele>
        <time>2011-09-04T07:53:28Z</time>
      </trkpt>
      <trkpt lat="47.35392" lon="-0.44605">
        <ele>45.7999268</ele>
        <time>2011-09-04T07:53:32Z</time>
      </trkpt>
      <trkpt lat="47.3541" lon="-0.44567">
        <ele>45.3192139</ele>
        <time>2011-09-04T07:53:40Z</time>
      </trkpt>
      <trkpt lat="47.35417" lon="-0.4455">
        <ele>44.3580322</ele>
        <time>2011-09-04T07:53:45Z</time>
      </trkpt>
      <trkpt lat="47.35428" lon="-0.44533">
        <ele>42.4354248</ele>
        <time>2011-09-04T07:53:51Z</time>
      </trkpt>
      <trkpt lat="47.35434" lon="-0.44521">
        <ele>41.473999</ele>
        <time>2011-09-04T07:53:54Z</time>
      </trkpt>
      <trkpt lat="47.35451" lon="-0.44485">
        <ele>40.0321045</ele>
        <time>2011-09-04T07:54:01Z</time>
      </trkpt>
      <trkpt lat="47.35464" lon="-0.44461">
        <ele>37.6286621</ele>
        <time>2011-09-04T07:54:05Z</time>
      </trkpt>
      <trkpt lat="47.35473" lon="-0.44446">
        <ele>36.1867676</ele>
        <time>2011-09-04T07:54:07Z</time>
      </trkpt>
      <trkpt lat="47.35481" lon="-0.44428">
        <ele>35.2254639</ele>
        <time>2011-09-04T07:54:10Z</time>
      </trkpt>
      <trkpt lat="47.35491" lon="-0.44429">
        <ele>34.2641602</ele>
        <time>2011-09-04T07:54:14Z</time>
      </trkpt>
      <trkpt lat="47.35494" lon="-0.44432">
        <ele>33.3028564</ele>
        <time>2011-09-04T07:54:15Z</time>
      </trkpt>
      <trkpt lat="47.35505" lon="-0.44446">
        <ele>32.3415527</ele>
        <time>2011-09-04T07:54:18Z</time>
      </trkpt>
      <trkpt lat="47.35517" lon="-0.44451">
        <ele>31.8607178</ele>
        <time>2011-09-04T07:54:21Z</time>
      </trkpt>
      <trkpt lat="47.35521" lon="-0.44447">
        <ele>31.8607178</ele>
        <time>2011-09-04T07:54:22Z</time>
      </trkpt>
      <trkpt lat="47.35534" lon="-0.44423">
        <ele>30.8995361</ele>
        <time>2011-09-04T07:54:27Z</time>
      </trkpt>
      <trkpt lat="47.35545" lon="-0.44403">
        <ele>31.380127</ele>
        <time>2011-09-04T07:54:31Z</time>
      </trkpt>
      <trkpt lat="47.35551" lon="-0.44393">
        <ele>31.380127</ele>
        <time>2011-09-04T07:54:33Z</time>
      </trkpt>
      <trkpt lat="47.3556" lon="-0.44373">
        <ele>30.4188232</ele>
        <time>2011-09-04T07:54:37Z</time>
      </trkpt>
      <trkpt lat="47.35576" lon="-0.44336">
        <ele>28.9769287</ele>
        <time>2011-09-04T07:54:44Z</time>
      </trkpt>
      <trkpt lat="47.35597" lon="-0.44288">
        <ele>27.5349121</ele>
        <time>2011-09-04T07:54:53Z</time>
      </trkpt>
      <trkpt lat="47.35599" lon="-0.44282">
        <ele>27.5349121</ele>
        <time>2011-09-04T07:54:54Z</time>
      </trkpt>
      <trkpt lat="47.35616" lon="-0.44252">
        <ele>26.5736084</ele>
        <time>2011-09-04T07:55:00Z</time>
      </trkpt>
      <trkpt lat="47.35634" lon="-0.44214">
        <ele>26.0928955</ele>
        <time>2011-09-04T07:55:07Z</time>
      </trkpt>
      <trkpt lat="47.35636" lon="-0.44209">
        <ele>26.0928955</ele>
        <time>2011-09-04T07:55:08Z</time>
      </trkpt>
      <trkpt lat="47.35644" lon="-0.44197">
        <ele>26.5736084</ele>
        <time>2011-09-04T07:55:11Z</time>
      </trkpt>
      <trkpt lat="47.35652" lon="-0.44186">
        <ele>27.0543213</ele>
        <time>2011-09-04T07:55:16Z</time>
      </trkpt>
      <trkpt lat="47.35653" lon="-0.44183">
        <ele>28.0155029</ele>
        <time>2011-09-04T07:55:18Z</time>
      </trkpt>
      <trkpt lat="47.35655" lon="-0.44183">
        <ele>29.4575195</ele>
        <time>2011-09-04T07:55:25Z</time>
      </trkpt>
      <trkpt lat="47.35659" lon="-0.44184">
        <ele>30.4188232</ele>
        <time>2011-09-04T07:55:32Z</time>
      </trkpt>
      <trkpt lat="47.35666" lon="-0.4417">
        <ele>33.7834473</ele>
        <time>2011-09-04T07:55:38Z</time>
      </trkpt>
      <trkpt lat="47.35668" lon="-0.44162">
        <ele>32.8222656</ele>
        <time>2011-09-04T07:55:41Z</time>
      </trkpt>
      <trkpt lat="47.35678" lon="-0.44161">
        <ele>32.8222656</ele>
        <time>2011-09-04T07:55:45Z</time>
      </trkpt>
      <trkpt lat="47.35675" lon="-0.44154">
        <ele>30.4188232</ele>
        <time>2011-09-04T07:55:48Z</time>
      </trkpt>
      <trkpt lat="47.35672" lon="-0.44145">
        <ele>33.3028564</ele>
        <time>2011-09-04T07:55:52Z</time>
      </trkpt>
      <trkpt lat="47.35679" lon="-0.44125">
        <ele>32.3415527</ele>
        <time>2011-09-04T07:55:56Z</time>
      </trkpt>
      <trkpt lat="47.35687" lon="-0.44107">
        <ele>31.8607178</ele>
        <time>2011-09-04T07:56:01Z</time>
      </trkpt>
      <trkpt lat="47.35691" lon="-0.44097">
        <ele>30.8995361</ele>
        <time>2011-09-04T07:56:04Z</time>
      </trkpt>
      <trkpt lat="47.35703" lon="-0.44074">
        <ele>30.4188232</ele>
        <time>2011-09-04T07:56:10Z</time>
      </trkpt>
      <trkpt lat="47.35717" lon="-0.44039">
        <ele>31.380127</ele>
        <time>2011-09-04T07:56:17Z</time>
      </trkpt>
      <trkpt lat="47.35722" lon="-0.44019">
        <ele>31.380127</ele>
        <time>2011-09-04T07:56:21Z</time>
      </trkpt>
      <trkpt lat="47.35739" lon="-0.43995">
        <ele>31.380127</ele>
        <time>2011-09-04T07:56:27Z</time>
      </trkpt>
      <trkpt lat="47.3575" lon="-0.43974">
        <ele>30.4188232</ele>
        <time>2011-09-04T07:56:33Z</time>
      </trkpt>
      <trkpt lat="47.35758" lon="-0.4396">
        <ele>29.4575195</ele>
        <time>2011-09-04T07:56:39Z</time>
      </trkpt>
      <trkpt lat="47.35769" lon="-0.43934">
        <ele>29.9381104</ele>
        <time>2011-09-04T07:56:45Z</time>
      </trkpt>
      <trkpt lat="47.35778" lon="-0.43909">
        <ele>31.380127</ele>
        <time>2011-09-04T07:56:50Z</time>
      </trkpt>
      <trkpt lat="47.3579" lon="-0.43884">
        <ele>30.4188232</ele>
        <time>2011-09-04T07:56:55Z</time>
      </trkpt>
      <trkpt lat="47.35795" lon="-0.43873">
        <ele>30.4188232</ele>
        <time>2011-09-04T07:56:57Z</time>
      </trkpt>
      <trkpt lat="47.35807" lon="-0.43848">
        <ele>30.4188232</ele>
        <time>2011-09-04T07:57:03Z</time>
      </trkpt>
      <trkpt lat="47.35803" lon="-0.43832">
        <ele>31.8607178</ele>
        <time>2011-09-04T07:57:06Z</time>
      </trkpt>
      <trkpt lat="47.35799" lon="-0.43828">
        <ele>32.3415527</ele>
        <time>2011-09-04T07:57:07Z</time>
      </trkpt>
      <trkpt lat="47.3578" lon="-0.43803">
        <ele>33.3028564</ele>
        <time>2011-09-04T07:57:14Z</time>
      </trkpt>
      <trkpt lat="47.35761" lon="-0.43783">
        <ele>32.8222656</ele>
        <time>2011-09-04T07:57:21Z</time>
      </trkpt>
      <trkpt lat="47.3574" lon="-0.4376">
        <ele>31.8607178</ele>
        <time>2011-09-04T07:57:29Z</time>
      </trkpt>
      <trkpt lat="47.35719" lon="-0.43736">
        <ele>31.380127</ele>
        <time>2011-09-04T07:57:37Z</time>
      </trkpt>
      <trkpt lat="47.35696" lon="-0.43712">
        <ele>34.2641602</ele>
        <time>2011-09-04T07:57:46Z</time>
      </trkpt>
      <trkpt lat="47.35674" lon="-0.43687">
        <ele>35.7060547</ele>
        <time>2011-09-04T07:57:55Z</time>
      </trkpt>
      <trkpt lat="47.35665" lon="-0.43666">
        <ele>37.6286621</ele>
        <time>2011-09-04T07:58:02Z</time>
      </trkpt>
      <trkpt lat="47.3567" lon="-0.43654">
        <ele>36.6674805</ele>
        <time>2011-09-04T07:58:06Z</time>
      </trkpt>
      <trkpt lat="47.35674" lon="-0.43636">
        <ele>35.7060547</ele>
        <time>2011-09-04T07:58:11Z</time>
      </trkpt>
      <trkpt lat="47.35678" lon="-0.43613">
        <ele>34.744873</ele>
        <time>2011-09-04T07:58:17Z</time>
      </trkpt>
      <trkpt lat="47.35683" lon="-0.43596">
        <ele>34.2641602</ele>
        <time>2011-09-04T07:58:21Z</time>
      </trkpt>
      <trkpt lat="47.35689" lon="-0.43563">
        <ele>34.2641602</ele>
        <time>2011-09-04T07:58:28Z</time>
      </trkpt>
      <trkpt lat="47.35695" lon="-0.43536">
        <ele>34.744873</ele>
        <time>2011-09-04T07:58:34Z</time>
      </trkpt>
      <trkpt lat="47.35706" lon="-0.43503">
        <ele>35.2254639</ele>
        <time>2011-09-04T07:58:41Z</time>
      </trkpt>
      <trkpt lat="47.35725" lon="-0.43479">
        <ele>33.3028564</ele>
        <time>2011-09-04T07:58:48Z</time>
      </trkpt>
      <trkpt lat="47.3574" lon="-0.43456">
        <ele>33.7834473</ele>
        <time>2011-09-04T07:58:53Z</time>
      </trkpt>
      <trkpt lat="47.35752" lon="-0.4344">
        <ele>32.8222656</ele>
        <time>2011-09-04T07:58:57Z</time>
      </trkpt>
      <trkpt lat="47.35768" lon="-0.43423">
        <ele>33.7834473</ele>
        <time>2011-09-04T07:59:02Z</time>
      </trkpt>
      <trkpt lat="47.35784" lon="-0.43404">
        <ele>34.744873</ele>
        <time>2011-09-04T07:59:08Z</time>
      </trkpt>
      <trkpt lat="47.35796" lon="-0.43398">
        <ele>34.744873</ele>
        <time>2011-09-04T07:59:11Z</time>
      </trkpt>
      <trkpt lat="47.35816" lon="-0.43401">
        <ele>34.2641602</ele>
        <time>2011-09-04T07:59:16Z</time>
      </trkpt>
      <trkpt lat="47.3584" lon="-0.4341">
        <ele>32.8222656</ele>
        <time>2011-09-04T07:59:22Z</time>
      </trkpt>
      <trkpt lat="47.35873" lon="-0.43427">
        <ele>32.3415527</ele>
        <time>2011-09-04T07:59:29Z</time>
      </trkpt>
      <trkpt lat="47.35901" lon="-0.43438">
        <ele>30.4188232</ele>
        <time>2011-09-04T07:59:35Z</time>
      </trkpt>
      <trkpt lat="47.35906" lon="-0.4344">
        <ele>30.4188232</ele>
        <time>2011-09-04T07:59:36Z</time>
      </trkpt>
      <trkpt lat="47.35928" lon="-0.43437">
        <ele>30.4188232</ele>
        <time>2011-09-04T07:59:41Z</time>
      </trkpt>
      <trkpt lat="47.35952" lon="-0.43441">
        <ele>30.4188232</ele>
        <time>2011-09-04T07:59:46Z</time>
      </trkpt>
      <trkpt lat="47.35961" lon="-0.43445">
        <ele>30.4188232</ele>
        <time>2011-09-04T07:59:48Z</time>
      </trkpt>
      <trkpt lat="47.3597" lon="-0.43447">
        <ele>30.4188232</ele>
        <time>2011-09-04T07:59:50Z</time>
      </trkpt>
      <trkpt lat="47.35979" lon="-0.43449">
        <ele>30.4188232</ele>
        <time>2011-09-04T07:59:52Z</time>
      </trkpt>
      <trkpt lat="47.36016" lon="-0.43464">
        <ele>30.8995361</ele>
        <time>2011-09-04T08:00:01Z</time>
      </trkpt>
      <trkpt lat="47.36039" lon="-0.43482">
        <ele>31.380127</ele>
        <time>2011-09-04T08:00:07Z</time>
      </trkpt>
      <trkpt lat="47.36057" lon="-0.43504">
        <ele>32.8222656</ele>
        <time>2011-09-04T08:00:13Z</time>
      </trkpt>
      <trkpt lat="47.36078" lon="-0.43522">
        <ele>30.8995361</ele>
        <time>2011-09-04T08:00:20Z</time>
      </trkpt>
      <trkpt lat="47.36112" lon="-0.43532">
        <ele>28.4962158</ele>
        <time>2011-09-04T08:00:29Z</time>
      </trkpt>
      <trkpt lat="47.36135" lon="-0.43542">
        <ele>27.0543213</ele>
        <time>2011-09-04T08:00:35Z</time>
      </trkpt>
      <trkpt lat="47.36168" lon="-0.43557">
        <ele>29.9381104</ele>
        <time>2011-09-04T08:00:42Z</time>
      </trkpt>
      <trkpt lat="47.3621" lon="-0.43577">
        <ele>33.3028564</ele>
        <time>2011-09-04T08:00:51Z</time>
      </trkpt>
      <trkpt lat="47.36256" lon="-0.43599">
        <ele>34.744873</ele>
        <time>2011-09-04T08:01:01Z</time>
      </trkpt>
      <trkpt lat="47.36293" lon="-0.43616">
        <ele>35.7060547</ele>
        <time>2011-09-04T08:01:09Z</time>
      </trkpt>
      <trkpt lat="47.3633" lon="-0.43633">
        <ele>36.1867676</ele>
        <time>2011-09-04T08:01:17Z</time>
      </trkpt>
      <trkpt lat="47.36356" lon="-0.43645">
        <ele>37.1480713</ele>
        <time>2011-09-04T08:01:24Z</time>
      </trkpt>
      <trkpt lat="47.36396" lon="-0.43663">
        <ele>37.6286621</ele>
        <time>2011-09-04T08:01:34Z</time>
      </trkpt>
      <trkpt lat="47.36427" lon="-0.43676">
        <ele>38.5900879</ele>
        <time>2011-09-04T08:01:43Z</time>
      </trkpt>
      <trkpt lat="47.36432" lon="-0.43678">
        <ele>39.0706787</ele>
        <time>2011-09-04T08:01:47Z</time>
      </trkpt>
      <trkpt lat="47.36442" lon="-0.43684">
        <ele>39.0706787</ele>
        <time>2011-09-04T08:01:51Z</time>
      </trkpt>
      <trkpt lat="47.36467" lon="-0.43695">
        <ele>39.5512695</ele>
        <time>2011-09-04T08:01:58Z</time>
      </trkpt>
      <trkpt lat="47.36487" lon="-0.43704">
        <ele>40.0321045</ele>
        <time>2011-09-04T08:02:03Z</time>
      </trkpt>
      <trkpt lat="47.36495" lon="-0.43709">
        <ele>40.0321045</ele>
        <time>2011-09-04T08:02:05Z</time>
      </trkpt>
      <trkpt lat="47.36507" lon="-0.43715">
        <ele>40.5128174</ele>
        <time>2011-09-04T08:02:08Z</time>
      </trkpt>
      <trkpt lat="47.36522" lon="-0.43719">
        <ele>40.9934082</ele>
        <time>2011-09-04T08:02:12Z</time>
      </trkpt>
      <trkpt lat="47.36544" lon="-0.43733">
        <ele>42.4354248</ele>
        <time>2011-09-04T08:02:19Z</time>
      </trkpt>
      <trkpt lat="47.36555" lon="-0.43739">
        <ele>42.4354248</ele>
        <time>2011-09-04T08:02:24Z</time>
      </trkpt>
      <trkpt lat="47.36575" lon="-0.43748">
        <ele>42.9160156</ele>
        <time>2011-09-04T08:02:30Z</time>
      </trkpt>
      <trkpt lat="47.36604" lon="-0.43759">
        <ele>43.3966064</ele>
        <time>2011-09-04T08:02:37Z</time>
      </trkpt>
      <trkpt lat="47.3664" lon="-0.43775">
        <ele>43.8773193</ele>
        <time>2011-09-04T08:02:46Z</time>
      </trkpt>
      <trkpt lat="47.36655" lon="-0.43782">
        <ele>44.3580322</ele>
        <time>2011-09-04T08:02:50Z</time>
      </trkpt>
      <trkpt lat="47.36679" lon="-0.43773">
        <ele>45.3192139</ele>
        <time>2011-09-04T08:02:57Z</time>
      </trkpt>
      <trkpt lat="47.36713" lon="-0.43749">
        <ele>46.2806396</ele>
        <time>2011-09-04T08:03:07Z</time>
      </trkpt>
      <trkpt lat="47.36746" lon="-0.43726">
        <ele>46.7612305</ele>
        <time>2011-09-04T08:03:16Z</time>
      </trkpt>
      <trkpt lat="47.36783" lon="-0.43701">
        <ele>47.2418213</ele>
        <time>2011-09-04T08:03:26Z</time>
      </trkpt>
      <trkpt lat="47.36795" lon="-0.43693">
        <ele>47.2418213</ele>
        <time>2011-09-04T08:03:29Z</time>
      </trkpt>
      <trkpt lat="47.36838" lon="-0.43664">
        <ele>47.2418213</ele>
        <time>2011-09-04T08:03:39Z</time>
      </trkpt>
      <trkpt lat="47.3687" lon="-0.4365">
        <ele>46.7612305</ele>
        <time>2011-09-04T08:03:46Z</time>
      </trkpt>
      <trkpt lat="47.36915" lon="-0.43646">
        <ele>46.2806396</ele>
        <time>2011-09-04T08:03:56Z</time>
      </trkpt>
      <trkpt lat="47.36948" lon="-0.43639">
        <ele>44.3580322</ele>
        <time>2011-09-04T08:04:04Z</time>
      </trkpt>
      <trkpt lat="47.36979" lon="-0.43616">
        <ele>44.3580322</ele>
        <time>2011-09-04T08:04:12Z</time>
      </trkpt>
      <trkpt lat="47.3701" lon="-0.43591">
        <ele>44.838623</ele>
        <time>2011-09-04T08:04:20Z</time>
      </trkpt>
      <trkpt lat="47.37057" lon="-0.43552">
        <ele>43.3966064</ele>
        <time>2011-09-04T08:04:32Z</time>
      </trkpt>
      <trkpt lat="47.37086" lon="-0.43532">
        <ele>42.9160156</ele>
        <time>2011-09-04T08:04:39Z</time>
      </trkpt>
      <trkpt lat="47.37114" lon="-0.43496">
        <ele>41.9547119</ele>
        <time>2011-09-04T08:04:47Z</time>
      </trkpt>
      <trkpt lat="47.37139" lon="-0.43459">
        <ele>41.473999</ele>
        <time>2011-09-04T08:04:55Z</time>
      </trkpt>
      <trkpt lat="47.37162" lon="-0.43424">
        <ele>40.9934082</ele>
        <time>2011-09-04T08:05:02Z</time>
      </trkpt>
      <trkpt lat="47.37175" lon="-0.43402">
        <ele>39.5512695</ele>
        <time>2011-09-04T08:05:07Z</time>
      </trkpt>
      <trkpt lat="47.37197" lon="-0.43372">
        <ele>40.0321045</ele>
        <time>2011-09-04T08:05:14Z</time>
      </trkpt>
      <trkpt lat="47.3722" lon="-0.43347">
        <ele>40.5128174</ele>
        <time>2011-09-04T08:05:21Z</time>
      </trkpt>
      <trkpt lat="47.37223" lon="-0.43343">
        <ele>40.5128174</ele>
        <time>2011-09-04T08:05:22Z</time>
      </trkpt>
      <trkpt lat="47.37234" lon="-0.43334">
        <ele>40.9934082</ele>
        <time>2011-09-04T08:05:25Z</time>
      </trkpt>
      <trkpt lat="47.37254" lon="-0.43308">
        <ele>40.0321045</ele>
        <time>2011-09-04T08:05:32Z</time>
      </trkpt>
      <trkpt lat="47.37269" lon="-0.43293">
        <ele>39.5512695</ele>
        <time>2011-09-04T08:05:37Z</time>
      </trkpt>
      <trkpt lat="47.37287" lon="-0.43276">
        <ele>35.7060547</ele>
        <time>2011-09-04T08:05:42Z</time>
      </trkpt>
      <trkpt lat="47.37306" lon="-0.43257">
        <ele>30.8995361</ele>
        <time>2011-09-04T08:05:47Z</time>
      </trkpt>
      <trkpt lat="47.37321" lon="-0.4324">
        <ele>29.9381104</ele>
        <time>2011-09-04T08:05:51Z</time>
      </trkpt>
      <trkpt lat="47.37327" lon="-0.43231">
        <ele>30.8995361</ele>
        <time>2011-09-04T08:05:53Z</time>
      </trkpt>
      <trkpt lat="47.37358" lon="-0.43207">
        <ele>29.9381104</ele>
        <time>2011-09-04T08:06:00Z</time>
      </trkpt>
      <trkpt lat="47.37383" lon="-0.43186">
        <ele>32.8222656</ele>
        <time>2011-09-04T08:06:06Z</time>
      </trkpt>
      <trkpt lat="47.37408" lon="-0.43165">
        <ele>36.6674805</ele>
        <time>2011-09-04T08:06:13Z</time>
      </trkpt>
      <trkpt lat="47.37448" lon="-0.43134">
        <ele>38.5900879</ele>
        <time>2011-09-04T08:06:22Z</time>
      </trkpt>
      <trkpt lat="47.37452" lon="-0.43131">
        <ele>39.0706787</ele>
        <time>2011-09-04T08:06:23Z</time>
      </trkpt>
      <trkpt lat="47.37461" lon="-0.43125">
        <ele>40.0321045</ele>
        <time>2011-09-04T08:06:25Z</time>
      </trkpt>
      <trkpt lat="47.37469" lon="-0.43118">
        <ele>40.5128174</ele>
        <time>2011-09-04T08:06:27Z</time>
      </trkpt>
      <trkpt lat="47.37482" lon="-0.43108">
        <ele>40.5128174</ele>
        <time>2011-09-04T08:06:30Z</time>
      </trkpt>
      <trkpt lat="47.37497" lon="-0.43094">
        <ele>40.5128174</ele>
        <time>2011-09-04T08:06:34Z</time>
      </trkpt>
      <trkpt lat="47.37525" lon="-0.43069">
        <ele>40.9934082</ele>
        <time>2011-09-04T08:06:40Z</time>
      </trkpt>
      <trkpt lat="47.37531" lon="-0.43065">
        <ele>40.0321045</ele>
        <time>2011-09-04T08:06:41Z</time>
      </trkpt>
      <trkpt lat="47.37546" lon="-0.43055">
        <ele>40.0321045</ele>
        <time>2011-09-04T08:06:44Z</time>
      </trkpt>
      <trkpt lat="47.37563" lon="-0.43047">
        <ele>40.5128174</ele>
        <time>2011-09-04T08:06:47Z</time>
      </trkpt>
      <trkpt lat="47.37583" lon="-0.43037">
        <ele>39.0706787</ele>
        <time>2011-09-04T08:06:51Z</time>
      </trkpt>
      <trkpt lat="47.37613" lon="-0.43028">
        <ele>39.5512695</ele>
        <time>2011-09-04T08:06:57Z</time>
      </trkpt>
      <trkpt lat="47.37639" lon="-0.43021">
        <ele>38.109375</ele>
        <time>2011-09-04T08:07:02Z</time>
      </trkpt>
      <trkpt lat="47.37683" lon="-0.43007">
        <ele>39.0706787</ele>
        <time>2011-09-04T08:07:10Z</time>
      </trkpt>
      <trkpt lat="47.37726" lon="-0.42992">
        <ele>40.9934082</ele>
        <time>2011-09-04T08:07:18Z</time>
      </trkpt>
      <trkpt lat="47.37767" lon="-0.42977">
        <ele>41.473999</ele>
        <time>2011-09-04T08:07:26Z</time>
      </trkpt>
      <trkpt lat="47.37817" lon="-0.42958">
        <ele>41.9547119</ele>
        <time>2011-09-04T08:07:36Z</time>
      </trkpt>
      <trkpt lat="47.37869" lon="-0.42933">
        <ele>42.9160156</ele>
        <time>2011-09-04T08:07:47Z</time>
      </trkpt>
      <trkpt lat="47.37902" lon="-0.42916">
        <ele>44.3580322</ele>
        <time>2011-09-04T08:07:54Z</time>
      </trkpt>
      <trkpt lat="47.3795" lon="-0.42887">
        <ele>45.7999268</ele>
        <time>2011-09-04T08:08:04Z</time>
      </trkpt>
      <trkpt lat="47.38011" lon="-0.42849">
        <ele>47.7225342</ele>
        <time>2011-09-04T08:08:17Z</time>
      </trkpt>
      <trkpt lat="47.38067" lon="-0.42819">
        <ele>49.6452637</ele>
        <time>2011-09-04T08:08:29Z</time>
      </trkpt>
      <trkpt lat="47.38108" lon="-0.428">
        <ele>50.6065674</ele>
        <time>2011-09-04T08:08:38Z</time>
      </trkpt>
      <trkpt lat="47.38137" lon="-0.42787">
        <ele>52.048584</ele>
        <time>2011-09-04T08:08:45Z</time>
      </trkpt>
      <trkpt lat="47.38162" lon="-0.42775">
        <ele>53.4904785</ele>
        <time>2011-09-04T08:08:51Z</time>
      </trkpt>
      <trkpt lat="47.38195" lon="-0.42761">
        <ele>54.932373</ele>
        <time>2011-09-04T08:08:59Z</time>
      </trkpt>
      <trkpt lat="47.38234" lon="-0.42746">
        <ele>56.8551025</ele>
        <time>2011-09-04T08:09:09Z</time>
      </trkpt>
      <trkpt lat="47.38268" lon="-0.42734">
        <ele>58.77771</ele>
        <time>2011-09-04T08:09:18Z</time>
      </trkpt>
      <trkpt lat="47.38298" lon="-0.42727">
        <ele>59.2584229</ele>
        <time>2011-09-04T08:09:26Z</time>
      </trkpt>
      <trkpt lat="47.38334" lon="-0.42723">
        <ele>59.2584229</ele>
        <time>2011-09-04T08:09:35Z</time>
      </trkpt>
      <trkpt lat="47.38358" lon="-0.42721">
        <ele>55.8937988</ele>
        <time>2011-09-04T08:09:42Z</time>
      </trkpt>
      <trkpt lat="47.38374" lon="-0.42715">
        <ele>55.4130859</ele>
        <time>2011-09-04T08:09:46Z</time>
      </trkpt>
      <trkpt lat="47.38379" lon="-0.4271">
        <ele>54.932373</ele>
        <time>2011-09-04T08:09:50Z</time>
      </trkpt>
      <trkpt lat="47.38378" lon="-0.42711">
        <ele>55.4130859</ele>
        <time>2011-09-04T08:09:55Z</time>
      </trkpt>
      <trkpt lat="47.38378" lon="-0.42712">
        <ele>58.2971191</ele>
        <time>2011-09-04T08:10:05Z</time>
      </trkpt>
      <trkpt lat="47.38374" lon="-0.42708">
        <ele>58.77771</ele>
        <time>2011-09-04T08:10:12Z</time>
      </trkpt>
      <trkpt lat="47.38375" lon="-0.42709">
        <ele>59.7391357</ele>
        <time>2011-09-04T08:10:19Z</time>
      </trkpt>
      <trkpt lat="47.38375" lon="-0.42709">
        <ele>62.142334</ele>
        <time>2011-09-04T08:10:30Z</time>
      </trkpt>
      <trkpt lat="47.38375" lon="-0.42709">
        <ele>62.142334</ele>
        <time>2011-09-04T08:10:34Z</time>
      </trkpt>
      <trkpt lat="47.38373" lon="-0.42707">
        <ele>61.6617432</ele>
        <time>2011-09-04T08:10:41Z</time>
      </trkpt>
      <trkpt lat="47.38373" lon="-0.42707">
        <ele>61.6617432</ele>
        <time>2011-09-04T08:10:47Z</time>
      </trkpt>
      <trkpt lat="47.38373" lon="-0.42709">
        <ele>61.6617432</ele>
        <time>2011-09-04T08:10:51Z</time>
      </trkpt>
      <trkpt lat="47.38373" lon="-0.42708">
        <ele>61.1810303</ele>
        <time>2011-09-04T08:10:56Z</time>
      </trkpt>
      <trkpt lat="47.38373" lon="-0.42708">
        <ele>60.2197266</ele>
        <time>2011-09-04T08:10:59Z</time>
      </trkpt>
      <trkpt lat="47.38373" lon="-0.42707">
        <ele>59.7391357</ele>
        <time>2011-09-04T08:11:01Z</time>
      </trkpt>
      <trkpt lat="47.38374" lon="-0.42707">
        <ele>59.2584229</ele>
        <time>2011-09-04T08:11:09Z</time>
      </trkpt>
      <trkpt lat="47.38373" lon="-0.42708">
        <ele>60.7003174</ele>
        <time>2011-09-04T08:11:25Z</time>
      </trkpt>
      <trkpt lat="47.38374" lon="-0.42707">
        <ele>60.2197266</ele>
        <time>2011-09-04T08:11:30Z</time>
      </trkpt>
      <trkpt lat="47.38375" lon="-0.42706">
        <ele>60.7003174</ele>
        <time>2011-09-04T08:11:40Z</time>
      </trkpt>
      <trkpt lat="47.38375" lon="-0.42706">
        <ele>60.7003174</ele>
        <time>2011-09-04T08:11:41Z</time>
      </trkpt>
      <trkpt lat="47.38374" lon="-0.42706">
        <ele>61.1810303</ele>
        <time>2011-09-04T08:11:57Z</time>
      </trkpt>
      <trkpt lat="47.38373" lon="-0.42706">
        <ele>61.1810303</ele>
        <time>2011-09-04T08:12:13Z</time>
      </trkpt>
      <trkpt lat="47.38374" lon="-0.42706">
        <ele>60.7003174</ele>
        <time>2011-09-04T08:12:19Z</time>
      </trkpt>
      <trkpt lat="47.38373" lon="-0.42708">
        <ele>60.7003174</ele>
        <time>2011-09-04T08:12:39Z</time>
      </trkpt>
      <trkpt lat="47.38374" lon="-0.42709">
        <ele>60.2197266</ele>
        <time>2011-09-04T08:12:57Z</time>
      </trkpt>
      <trkpt lat="47.38375" lon="-0.42708">
        <ele>60.2197266</ele>
        <time>2011-09-04T08:13:07Z</time>
      </trkpt>
      <trkpt lat="47.38374" lon="-0.42708">
        <ele>61.6617432</ele>
        <time>2011-09-04T08:13:19Z</time>
      </trkpt>
      <trkpt lat="47.38374" lon="-0.42708">
        <ele>62.142334</ele>
        <time>2011-09-04T08:13:27Z</time>
      </trkpt>
      <trkpt lat="47.38372" lon="-0.42706">
        <ele>64.5456543</ele>
        <time>2011-09-04T08:14:25Z</time>
      </trkpt>
      <trkpt lat="47.38372" lon="-0.42706">
        <ele>64.5456543</ele>
        <time>2011-09-04T08:14:26Z</time>
      </trkpt>
      <trkpt lat="47.38372" lon="-0.42706">
        <ele>65.0263672</ele>
        <time>2011-09-04T08:14:36Z</time>
      </trkpt>
      <trkpt lat="47.38372" lon="-0.42706">
        <ele>65.0263672</ele>
        <time>2011-09-04T08:14:37Z</time>
      </trkpt>
      <trkpt lat="47.38373" lon="-0.42706">
        <ele>65.0263672</ele>
        <time>2011-09-04T08:14:59Z</time>
      </trkpt>
      <trkpt lat="47.38373" lon="-0.42705">
        <ele>63.5843506</ele>
        <time>2011-09-04T08:15:10Z</time>
      </trkpt>
      <trkpt lat="47.38372" lon="-0.42704">
        <ele>62.6229248</ele>
        <time>2011-09-04T08:15:27Z</time>
      </trkpt>
      <trkpt lat="47.38372" lon="-0.42702">
        <ele>62.6229248</ele>
        <time>2011-09-04T08:15:28Z</time>
      </trkpt>
      <trkpt lat="47.38362" lon="-0.42688">
        <ele>62.6229248</ele>
        <time>2011-09-04T08:15:34Z</time>
      </trkpt>
      <trkpt lat="47.38356" lon="-0.42678">
        <ele>62.6229248</ele>
        <time>2011-09-04T08:15:37Z</time>
      </trkpt>
      <trkpt lat="47.38349" lon="-0.42667">
        <ele>62.6229248</ele>
        <time>2011-09-04T08:15:40Z</time>
      </trkpt>
      <trkpt lat="47.38347" lon="-0.42663">
        <ele>62.6229248</ele>
        <time>2011-09-04T08:15:41Z</time>
      </trkpt>
      <trkpt lat="47.38327" lon="-0.42634">
        <ele>62.6229248</ele>
        <time>2011-09-04T08:15:49Z</time>
      </trkpt>
      <trkpt lat="47.38306" lon="-0.42602">
        <ele>62.6229248</ele>
        <time>2011-09-04T08:15:57Z</time>
      </trkpt>
      <trkpt lat="47.38282" lon="-0.42573">
        <ele>61.6617432</ele>
        <time>2011-09-04T08:16:04Z</time>
      </trkpt>
      <trkpt lat="47.38252" lon="-0.42539">
        <ele>60.7003174</ele>
        <time>2011-09-04T08:16:12Z</time>
      </trkpt>
      <trkpt lat="47.38234" lon="-0.42529">
        <ele>59.7391357</ele>
        <time>2011-09-04T08:16:16Z</time>
      </trkpt>
      <trkpt lat="47.38196" lon="-0.42525">
        <ele>56.8551025</ele>
        <time>2011-09-04T08:16:23Z</time>
      </trkpt>
      <trkpt lat="47.38182" lon="-0.42514">
        <ele>55.8937988</ele>
        <time>2011-09-04T08:16:26Z</time>
      </trkpt>
      <trkpt lat="47.38147" lon="-0.42472">
        <ele>53.4904785</ele>
        <time>2011-09-04T08:16:33Z</time>
      </trkpt>
      <trkpt lat="47.38099" lon="-0.42408">
        <ele>50.1259766</ele>
        <time>2011-09-04T08:16:42Z</time>
      </trkpt>
      <trkpt lat="47.38059" lon="-0.42365">
        <ele>49.1645508</ele>
        <time>2011-09-04T08:16:49Z</time>
      </trkpt>
      <trkpt lat="47.38021" lon="-0.42333">
        <ele>49.6452637</ele>
        <time>2011-09-04T08:16:56Z</time>
      </trkpt>
      <trkpt lat="47.38002" lon="-0.42308">
        <ele>50.1259766</ele>
        <time>2011-09-04T08:17:01Z</time>
      </trkpt>
      <trkpt lat="47.37993" lon="-0.42293">
        <ele>50.6065674</ele>
        <time>2011-09-04T08:17:04Z</time>
      </trkpt>
      <trkpt lat="47.37972" lon="-0.42248">
        <ele>51.0871582</ele>
        <time>2011-09-04T08:17:12Z</time>
      </trkpt>
      <trkpt lat="47.37956" lon="-0.42195">
        <ele>52.5291748</ele>
        <time>2011-09-04T08:17:21Z</time>
      </trkpt>
      <trkpt lat="47.37948" lon="-0.42149">
        <ele>53.9711914</ele>
        <time>2011-09-04T08:17:29Z</time>
      </trkpt>
      <trkpt lat="47.37934" lon="-0.42085">
        <ele>54.932373</ele>
        <time>2011-09-04T08:17:41Z</time>
      </trkpt>
      <trkpt lat="47.37923" lon="-0.4204">
        <ele>55.4130859</ele>
        <time>2011-09-04T08:17:50Z</time>
      </trkpt>
      <trkpt lat="47.37909" lon="-0.41989">
        <ele>55.4130859</ele>
        <time>2011-09-04T08:18:01Z</time>
      </trkpt>
      <trkpt lat="47.37894" lon="-0.41936">
        <ele>55.4130859</ele>
        <time>2011-09-04T08:18:12Z</time>
      </trkpt>
      <trkpt lat="47.37883" lon="-0.41897">
        <ele>55.8937988</ele>
        <time>2011-09-04T08:18:20Z</time>
      </trkpt>
      <trkpt lat="47.37876" lon="-0.41873">
        <ele>57.3358154</ele>
        <time>2011-09-04T08:18:27Z</time>
      </trkpt>
      <trkpt lat="47.3787" lon="-0.41855">
        <ele>57.3358154</ele>
        <time>2011-09-04T08:18:33Z</time>
      </trkpt>
      <trkpt lat="47.37862" lon="-0.41822">
        <ele>57.8165283</ele>
        <time>2011-09-04T08:18:41Z</time>
      </trkpt>
      <trkpt lat="47.37853" lon="-0.41788">
        <ele>60.2197266</ele>
        <time>2011-09-04T08:18:49Z</time>
      </trkpt>
      <trkpt lat="47.37848" lon="-0.41764">
        <ele>61.1810303</ele>
        <time>2011-09-04T08:18:55Z</time>
      </trkpt>
      <trkpt lat="47.37839" lon="-0.41721">
        <ele>63.1036377</ele>
        <time>2011-09-04T08:19:05Z</time>
      </trkpt>
      <trkpt lat="47.3783" lon="-0.41686">
        <ele>64.5456543</ele>
        <time>2011-09-04T08:19:13Z</time>
      </trkpt>
      <trkpt lat="47.37823" lon="-0.41641">
        <ele>65.5070801</ele>
        <time>2011-09-04T08:19:23Z</time>
      </trkpt>
      <trkpt lat="47.37816" lon="-0.41609">
        <ele>66.4682617</ele>
        <time>2011-09-04T08:19:31Z</time>
      </trkpt>
      <trkpt lat="47.37803" lon="-0.41592">
        <ele>65.9876709</ele>
        <time>2011-09-04T08:19:37Z</time>
      </trkpt>
      <trkpt lat="47.37784" lon="-0.41572">
        <ele>65.5070801</ele>
        <time>2011-09-04T08:19:44Z</time>
      </trkpt>
      <trkpt lat="47.37772" lon="-0.41558">
        <ele>65.5070801</ele>
        <time>2011-09-04T08:19:49Z</time>
      </trkpt>
      <trkpt lat="47.37757" lon="-0.41543">
        <ele>65.0263672</ele>
        <time>2011-09-04T08:19:54Z</time>
      </trkpt>
      <trkpt lat="47.37733" lon="-0.41519">
        <ele>64.0650635</ele>
        <time>2011-09-04T08:20:02Z</time>
      </trkpt>
      <trkpt lat="47.37711" lon="-0.41494">
        <ele>64.5456543</ele>
        <time>2011-09-04T08:20:10Z</time>
      </trkpt>
      <trkpt lat="47.37694" lon="-0.41471">
        <ele>65.0263672</ele>
        <time>2011-09-04T08:20:17Z</time>
      </trkpt>
      <trkpt lat="47.37669" lon="-0.41431">
        <ele>64.0650635</ele>
        <time>2011-09-04T08:20:27Z</time>
      </trkpt>
      <trkpt lat="47.37655" lon="-0.41403">
        <ele>64.5456543</ele>
        <time>2011-09-04T08:20:34Z</time>
      </trkpt>
      <trkpt lat="47.37661" lon="-0.41388">
        <ele>64.5456543</ele>
        <time>2011-09-04T08:20:38Z</time>
      </trkpt>
      <trkpt lat="47.37691" lon="-0.4138">
        <ele>64.0650635</ele>
        <time>2011-09-04T08:20:46Z</time>
      </trkpt>
      <trkpt lat="47.37725" lon="-0.41382">
        <ele>64.5456543</ele>
        <time>2011-09-04T08:20:55Z</time>
      </trkpt>
      <trkpt lat="47.37757" lon="-0.41393">
        <ele>65.0263672</ele>
        <time>2011-09-04T08:21:03Z</time>
      </trkpt>
      <trkpt lat="47.37788" lon="-0.41404">
        <ele>65.0263672</ele>
        <time>2011-09-04T08:21:11Z</time>
      </trkpt>
      <trkpt lat="47.37814" lon="-0.41396">
        <ele>65.9876709</ele>
        <time>2011-09-04T08:21:18Z</time>
      </trkpt>
      <trkpt lat="47.37835" lon="-0.41377">
        <ele>64.5456543</ele>
        <time>2011-09-04T08:21:24Z</time>
      </trkpt>
      <trkpt lat="47.37845" lon="-0.41368">
        <ele>64.5456543</ele>
        <time>2011-09-04T08:21:27Z</time>
      </trkpt>
      <trkpt lat="47.3788" lon="-0.41349">
        <ele>65.9876709</ele>
        <time>2011-09-04T08:21:36Z</time>
      </trkpt>
      <trkpt lat="47.3792" lon="-0.4133">
        <ele>68.3908691</ele>
        <time>2011-09-04T08:21:46Z</time>
      </trkpt>
      <trkpt lat="47.37967" lon="-0.41308">
        <ele>70.3134766</ele>
        <time>2011-09-04T08:21:57Z</time>
      </trkpt>
      <trkpt lat="47.38003" lon="-0.41285">
        <ele>71.2749023</ele>
        <time>2011-09-04T08:22:06Z</time>
      </trkpt>
      <trkpt lat="47.38033" lon="-0.41264">
        <ele>71.2749023</ele>
        <time>2011-09-04T08:22:13Z</time>
      </trkpt>
      <trkpt lat="47.38056" lon="-0.41261">
        <ele>70.7941895</ele>
        <time>2011-09-04T08:22:18Z</time>
      </trkpt>
      <trkpt lat="47.38065" lon="-0.41262">
        <ele>70.7941895</ele>
        <time>2011-09-04T08:22:20Z</time>
      </trkpt>
      <trkpt lat="47.38076" lon="-0.41259">
        <ele>70.3134766</ele>
        <time>2011-09-04T08:22:25Z</time>
      </trkpt>
      <trkpt lat="47.38076" lon="-0.41242">
        <ele>69.8328857</ele>
        <time>2011-09-04T08:22:29Z</time>
      </trkpt>
      <trkpt lat="47.38071" lon="-0.41194">
        <ele>70.3134766</ele>
        <time>2011-09-04T08:22:37Z</time>
      </trkpt>
      <trkpt lat="47.38067" lon="-0.41153">
        <ele>70.3134766</ele>
        <time>2011-09-04T08:22:43Z</time>
      </trkpt>
      <trkpt lat="47.38065" lon="-0.41111">
        <ele>70.3134766</ele>
        <time>2011-09-04T08:22:50Z</time>
      </trkpt>
      <trkpt lat="47.38061" lon="-0.41064">
        <ele>70.3134766</ele>
        <time>2011-09-04T08:22:58Z</time>
      </trkpt>
      <trkpt lat="47.38059" lon="-0.4105">
        <ele>70.3134766</ele>
        <time>2011-09-04T08:23:02Z</time>
      </trkpt>
      <trkpt lat="47.38065" lon="-0.4104">
        <ele>69.8328857</ele>
        <time>2011-09-04T08:23:07Z</time>
      </trkpt>
      <trkpt lat="47.38077" lon="-0.41033">
        <ele>69.8328857</ele>
        <time>2011-09-04T08:23:12Z</time>
      </trkpt>
      <trkpt lat="47.38093" lon="-0.41028">
        <ele>69.3522949</ele>
        <time>2011-09-04T08:23:17Z</time>
      </trkpt>
      <trkpt lat="47.38108" lon="-0.41023">
        <ele>69.8328857</ele>
        <time>2011-09-04T08:23:21Z</time>
      </trkpt>
      <trkpt lat="47.3813" lon="-0.41015">
        <ele>69.3522949</ele>
        <time>2011-09-04T08:23:27Z</time>
      </trkpt>
      <trkpt lat="47.38151" lon="-0.41001">
        <ele>68.871582</ele>
        <time>2011-09-04T08:23:33Z</time>
      </trkpt>
      <trkpt lat="47.38154" lon="-0.40982">
        <ele>68.871582</ele>
        <time>2011-09-04T08:23:36Z</time>
      </trkpt>
      <trkpt lat="47.38145" lon="-0.40938">
        <ele>68.871582</ele>
        <time>2011-09-04T08:23:43Z</time>
      </trkpt>
      <trkpt lat="47.38135" lon="-0.40896">
        <ele>69.3522949</ele>
        <time>2011-09-04T08:23:50Z</time>
      </trkpt>
      <trkpt lat="47.38132" lon="-0.40882">
        <ele>69.3522949</ele>
        <time>2011-09-04T08:23:55Z</time>
      </trkpt>
      <trkpt lat="47.38129" lon="-0.40855">
        <ele>69.3522949</ele>
        <time>2011-09-04T08:24:00Z</time>
      </trkpt>
      <trkpt lat="47.38125" lon="-0.40826">
        <ele>68.3908691</ele>
        <time>2011-09-04T08:24:05Z</time>
      </trkpt>
      <trkpt lat="47.38122" lon="-0.40782">
        <ele>66.9489746</ele>
        <time>2011-09-04T08:24:12Z</time>
      </trkpt>
      <trkpt lat="47.38122" lon="-0.40776">
        <ele>66.9489746</ele>
        <time>2011-09-04T08:24:13Z</time>
      </trkpt>
      <trkpt lat="47.38129" lon="-0.40752">
        <ele>65.9876709</ele>
        <time>2011-09-04T08:24:17Z</time>
      </trkpt>
      <trkpt lat="47.38138" lon="-0.40745">
        <ele>65.9876709</ele>
        <time>2011-09-04T08:24:19Z</time>
      </trkpt>
      <trkpt lat="47.3818" lon="-0.40726">
        <ele>66.9489746</ele>
        <time>2011-09-04T08:24:27Z</time>
      </trkpt>
      <trkpt lat="47.38227" lon="-0.40706">
        <ele>66.4682617</ele>
        <time>2011-09-04T08:24:35Z</time>
      </trkpt>
      <trkpt lat="47.38245" lon="-0.40685">
        <ele>65.9876709</ele>
        <time>2011-09-04T08:24:39Z</time>
      </trkpt>
      <trkpt lat="47.38246" lon="-0.40662">
        <ele>65.9876709</ele>
        <time>2011-09-04T08:24:42Z</time>
      </trkpt>
      <trkpt lat="47.3825" lon="-0.40624">
        <ele>65.9876709</ele>
        <time>2011-09-04T08:24:47Z</time>
      </trkpt>
      <trkpt lat="47.38265" lon="-0.40566">
        <ele>65.9876709</ele>
        <time>2011-09-04T08:24:55Z</time>
      </trkpt>
      <trkpt lat="47.38266" lon="-0.40552">
        <ele>65.9876709</ele>
        <time>2011-09-04T08:24:57Z</time>
      </trkpt>
      <trkpt lat="47.38277" lon="-0.40541">
        <ele>65.9876709</ele>
        <time>2011-09-04T08:25:01Z</time>
      </trkpt>
      <trkpt lat="47.38285" lon="-0.40545">
        <ele>65.9876709</ele>
        <time>2011-09-04T08:25:03Z</time>
      </trkpt>
      <trkpt lat="47.38297" lon="-0.40555">
        <ele>66.9489746</ele>
        <time>2011-09-04T08:25:06Z</time>
      </trkpt>
      <trkpt lat="47.38308" lon="-0.40567">
        <ele>67.4296875</ele>
        <time>2011-09-04T08:25:09Z</time>
      </trkpt>
      <trkpt lat="47.38324" lon="-0.40576">
        <ele>68.3908691</ele>
        <time>2011-09-04T08:25:13Z</time>
      </trkpt>
      <trkpt lat="47.38358" lon="-0.4057">
        <ele>70.3134766</ele>
        <time>2011-09-04T08:25:21Z</time>
      </trkpt>
      <trkpt lat="47.38377" lon="-0.40564">
        <ele>69.8328857</ele>
        <time>2011-09-04T08:25:27Z</time>
      </trkpt>
      <trkpt lat="47.38393" lon="-0.40559">
        <ele>70.3134766</ele>
        <time>2011-09-04T08:25:33Z</time>
      </trkpt>
      <trkpt lat="47.38402" lon="-0.40569">
        <ele>71.2749023</ele>
        <time>2011-09-04T08:25:37Z</time>
      </trkpt>
      <trkpt lat="47.38422" lon="-0.40608">
        <ele>71.2749023</ele>
        <time>2011-09-04T08:25:46Z</time>
      </trkpt>
      <trkpt lat="47.3844" lon="-0.40647">
        <ele>70.3134766</ele>
        <time>2011-09-04T08:25:54Z</time>
      </trkpt>
      <trkpt lat="47.38449" lon="-0.40687">
        <ele>70.3134766</ele>
        <time>2011-09-04T08:26:01Z</time>
      </trkpt>
      <trkpt lat="47.38462" lon="-0.40755">
        <ele>70.7941895</ele>
        <time>2011-09-04T08:26:13Z</time>
      </trkpt>
      <trkpt lat="47.38472" lon="-0.4081">
        <ele>72.7169189</ele>
        <time>2011-09-04T08:26:22Z</time>
      </trkpt>
      <trkpt lat="47.38481" lon="-0.40856">
        <ele>73.1976318</ele>
        <time>2011-09-04T08:26:29Z</time>
      </trkpt>
      <trkpt lat="47.38494" lon="-0.40878">
        <ele>73.6782227</ele>
        <time>2011-09-04T08:26:33Z</time>
      </trkpt>
      <trkpt lat="47.38504" lon="-0.40878">
        <ele>73.6782227</ele>
        <time>2011-09-04T08:26:35Z</time>
      </trkpt>
      <trkpt lat="47.38519" lon="-0.40875">
        <ele>73.6782227</ele>
        <time>2011-09-04T08:26:38Z</time>
      </trkpt>
      <trkpt lat="47.38535" lon="-0.40882">
        <ele>73.6782227</ele>
        <time>2011-09-04T08:26:42Z</time>
      </trkpt>
      <trkpt lat="47.38539" lon="-0.40894">
        <ele>73.6782227</ele>
        <time>2011-09-04T08:26:44Z</time>
      </trkpt>
      <trkpt lat="47.38553" lon="-0.40973">
        <ele>73.6782227</ele>
        <time>2011-09-04T08:26:55Z</time>
      </trkpt>
      <trkpt lat="47.38567" lon="-0.41046">
        <ele>73.1976318</ele>
        <time>2011-09-04T08:27:05Z</time>
      </trkpt>
      <trkpt lat="47.3858" lon="-0.4112">
        <ele>74.1588135</ele>
        <time>2011-09-04T08:27:16Z</time>
      </trkpt>
      <trkpt lat="47.38591" lon="-0.41182">
        <ele>74.1588135</ele>
        <time>2011-09-04T08:27:25Z</time>
      </trkpt>
      <trkpt lat="47.38603" lon="-0.4124">
        <ele>75.1202393</ele>
        <time>2011-09-04T08:27:34Z</time>
      </trkpt>
      <trkpt lat="47.38612" lon="-0.41289">
        <ele>75.6008301</ele>
        <time>2011-09-04T08:27:42Z</time>
      </trkpt>
      <trkpt lat="47.38623" lon="-0.41347">
        <ele>75.6008301</ele>
        <time>2011-09-04T08:27:52Z</time>
      </trkpt>
      <trkpt lat="47.38623" lon="-0.41365">
        <ele>76.0814209</ele>
        <time>2011-09-04T08:27:57Z</time>
      </trkpt>
      <trkpt lat="47.38617" lon="-0.4137">
        <ele>76.0814209</ele>
        <time>2011-09-04T08:28:00Z</time>
      </trkpt>
      <trkpt lat="47.38592" lon="-0.41379">
        <ele>76.0814209</ele>
        <time>2011-09-04T08:28:07Z</time>
      </trkpt>
      <trkpt lat="47.38551" lon="-0.41394">
        <ele>75.6008301</ele>
        <time>2011-09-04T08:28:17Z</time>
      </trkpt>
      <trkpt lat="47.3853" lon="-0.41402">
        <ele>75.1202393</ele>
        <time>2011-09-04T08:28:22Z</time>
      </trkpt>
      <trkpt lat="47.38522" lon="-0.41406">
        <ele>75.1202393</ele>
        <time>2011-09-04T08:28:24Z</time>
      </trkpt>
      <trkpt lat="47.38518" lon="-0.41425">
        <ele>74.6395264</ele>
        <time>2011-09-04T08:28:28Z</time>
      </trkpt>
      <trkpt lat="47.38532" lon="-0.41492">
        <ele>73.1976318</ele>
        <time>2011-09-04T08:28:39Z</time>
      </trkpt>
      <trkpt lat="47.38541" lon="-0.41542">
        <ele>73.1976318</ele>
        <time>2011-09-04T08:28:47Z</time>
      </trkpt>
      <trkpt lat="47.38557" lon="-0.41626">
        <ele>73.6782227</ele>
        <time>2011-09-04T08:28:59Z</time>
      </trkpt>
      <trkpt lat="47.38569" lon="-0.41686">
        <ele>73.6782227</ele>
        <time>2011-09-04T08:29:07Z</time>
      </trkpt>
      <trkpt lat="47.38585" lon="-0.41773">
        <ele>73.6782227</ele>
        <time>2011-09-04T08:29:19Z</time>
      </trkpt>
      <trkpt lat="47.38602" lon="-0.41858">
        <ele>74.1588135</ele>
        <time>2011-09-04T08:29:31Z</time>
      </trkpt>
      <trkpt lat="47.38614" lon="-0.4192">
        <ele>73.6782227</ele>
        <time>2011-09-04T08:29:40Z</time>
      </trkpt>
      <trkpt lat="47.38618" lon="-0.41937">
        <ele>73.6782227</ele>
        <time>2011-09-04T08:29:43Z</time>
      </trkpt>
      <trkpt lat="47.38613" lon="-0.41955">
        <ele>73.6782227</ele>
        <time>2011-09-04T08:29:47Z</time>
      </trkpt>
      <trkpt lat="47.38602" lon="-0.41962">
        <ele>74.1588135</ele>
        <time>2011-09-04T08:29:50Z</time>
      </trkpt>
      <trkpt lat="47.38575" lon="-0.4197">
        <ele>74.6395264</ele>
        <time>2011-09-04T08:29:56Z</time>
      </trkpt>
      <trkpt lat="47.38561" lon="-0.41974">
        <ele>75.1202393</ele>
        <time>2011-09-04T08:29:59Z</time>
      </trkpt>
      <trkpt lat="47.38557" lon="-0.41975">
        <ele>75.1202393</ele>
        <time>2011-09-04T08:30:00Z</time>
      </trkpt>
      <trkpt lat="47.38544" lon="-0.41978">
        <ele>76.0814209</ele>
        <time>2011-09-04T08:30:03Z</time>
      </trkpt>
      <trkpt lat="47.38531" lon="-0.41981">
        <ele>76.0814209</ele>
        <time>2011-09-04T08:30:06Z</time>
      </trkpt>
      <trkpt lat="47.38503" lon="-0.41987">
        <ele>74.6395264</ele>
        <time>2011-09-04T08:30:14Z</time>
      </trkpt>
      <trkpt lat="47.38493" lon="-0.4199">
        <ele>74.1588135</ele>
        <time>2011-09-04T08:30:18Z</time>
      </trkpt>
      <trkpt lat="47.38486" lon="-0.41993">
        <ele>73.6782227</ele>
        <time>2011-09-04T08:30:20Z</time>
      </trkpt>
      <trkpt lat="47.38478" lon="-0.42013">
        <ele>72.7169189</ele>
        <time>2011-09-04T08:30:24Z</time>
      </trkpt>
      <trkpt lat="47.38477" lon="-0.42027">
        <ele>72.2362061</ele>
        <time>2011-09-04T08:30:26Z</time>
      </trkpt>
      <trkpt lat="47.38478" lon="-0.42084">
        <ele>68.3908691</ele>
        <time>2011-09-04T08:30:34Z</time>
      </trkpt>
      <trkpt lat="47.38479" lon="-0.4209">
        <ele>67.9102783</ele>
        <time>2011-09-04T08:30:35Z</time>
      </trkpt>
      <trkpt lat="47.38473" lon="-0.42121">
        <ele>66.4682617</ele>
        <time>2011-09-04T08:30:40Z</time>
      </trkpt>
      <trkpt lat="47.38457" lon="-0.42176">
        <ele>65.0263672</ele>
        <time>2011-09-04T08:30:49Z</time>
      </trkpt>
      <trkpt lat="47.38447" lon="-0.42222">
        <ele>65.9876709</ele>
        <time>2011-09-04T08:30:57Z</time>
      </trkpt>
      <trkpt lat="47.38446" lon="-0.42241">
        <ele>66.9489746</ele>
        <time>2011-09-04T08:31:02Z</time>
      </trkpt>
      <trkpt lat="47.38443" lon="-0.4226">
        <ele>67.4296875</ele>
        <time>2011-09-04T08:31:08Z</time>
      </trkpt>
      <trkpt lat="47.3844" lon="-0.42278">
        <ele>68.3908691</ele>
        <time>2011-09-04T08:31:14Z</time>
      </trkpt>
      <trkpt lat="47.38437" lon="-0.423">
        <ele>70.3134766</ele>
        <time>2011-09-04T08:31:20Z</time>
      </trkpt>
      <trkpt lat="47.38428" lon="-0.42321">
        <ele>78.4847412</ele>
        <time>2011-09-04T08:31:27Z</time>
      </trkpt>
      <trkpt lat="47.38427" lon="-0.42335">
        <ele>81.3687744</ele>
        <time>2011-09-04T08:31:31Z</time>
      </trkpt>
      <trkpt lat="47.38427" lon="-0.42347">
        <ele>82.3300781</ele>
        <time>2011-09-04T08:31:34Z</time>
      </trkpt>
      <trkpt lat="47.38428" lon="-0.42351">
        <ele>82.3300781</ele>
        <time>2011-09-04T08:31:36Z</time>
      </trkpt>
      <trkpt lat="47.38429" lon="-0.42352">
        <ele>82.3300781</ele>
        <time>2011-09-04T08:31:37Z</time>
      </trkpt>
      <trkpt lat="47.38434" lon="-0.4236">
        <ele>78.9654541</ele>
        <time>2011-09-04T08:31:42Z</time>
      </trkpt>
      <trkpt lat="47.38439" lon="-0.42363">
        <ele>77.5234375</ele>
        <time>2011-09-04T08:31:45Z</time>
      </trkpt>
      <trkpt lat="47.38448" lon="-0.42373">
        <ele>76.5621338</ele>
        <time>2011-09-04T08:31:49Z</time>
      </trkpt>
      <trkpt lat="47.3845" lon="-0.42381">
        <ele>76.0814209</ele>
        <time>2011-09-04T08:31:52Z</time>
      </trkpt>
      <trkpt lat="47.38454" lon="-0.4238">
        <ele>75.6008301</ele>
        <time>2011-09-04T08:31:56Z</time>
      </trkpt>
      <trkpt lat="47.38452" lon="-0.42379">
        <ele>74.1588135</ele>
        <time>2011-09-04T08:32:00Z</time>
      </trkpt>
      <trkpt lat="47.38454" lon="-0.42384">
        <ele>74.6395264</ele>
        <time>2011-09-04T08:32:06Z</time>
      </trkpt>
      <trkpt lat="47.38452" lon="-0.42381">
        <ele>74.1588135</ele>
        <time>2011-09-04T08:32:10Z</time>
      </trkpt>
      <trkpt lat="47.38452" lon="-0.42386">
        <ele>73.1976318</ele>
        <time>2011-09-04T08:32:15Z</time>
      </trkpt>
      <trkpt lat="47.38452" lon="-0.42388">
        <ele>73.1976318</ele>
        <time>2011-09-04T08:32:21Z</time>
      </trkpt>
      <trkpt lat="47.38452" lon="-0.42389">
        <ele>74.6395264</ele>
        <time>2011-09-04T08:32:28Z</time>
      </trkpt>
      <trkpt lat="47.38452" lon="-0.42389">
        <ele>74.1588135</ele>
        <time>2011-09-04T08:32:32Z</time>
      </trkpt>
      <trkpt lat="47.38451" lon="-0.42389">
        <ele>74.6395264</ele>
        <time>2011-09-04T08:32:35Z</time>
      </trkpt>
      <trkpt lat="47.3845" lon="-0.42388">
        <ele>75.1202393</ele>
        <time>2011-09-04T08:32:42Z</time>
      </trkpt>
      <trkpt lat="47.38452" lon="-0.42391">
        <ele>76.5621338</ele>
        <time>2011-09-04T08:32:47Z</time>
      </trkpt>
      <trkpt lat="47.38453" lon="-0.42391">
        <ele>75.6008301</ele>
        <time>2011-09-04T08:32:55Z</time>
      </trkpt>
      <trkpt lat="47.38453" lon="-0.42391">
        <ele>76.0814209</ele>
        <time>2011-09-04T08:32:59Z</time>
      </trkpt>
      <trkpt lat="47.38451" lon="-0.42391">
        <ele>76.0814209</ele>
        <time>2011-09-04T08:33:07Z</time>
      </trkpt>
      <trkpt lat="47.38448" lon="-0.42391">
        <ele>76.0814209</ele>
        <time>2011-09-04T08:33:10Z</time>
      </trkpt>
      <trkpt lat="47.38437" lon="-0.42393">
        <ele>75.6008301</ele>
        <time>2011-09-04T08:33:14Z</time>
      </trkpt>
      <trkpt lat="47.38436" lon="-0.42407">
        <ele>73.6782227</ele>
        <time>2011-09-04T08:33:18Z</time>
      </trkpt>
      <trkpt lat="47.38436" lon="-0.4241">
        <ele>73.1976318</ele>
        <time>2011-09-04T08:33:19Z</time>
      </trkpt>
      <trkpt lat="47.38436" lon="-0.42415">
        <ele>73.1976318</ele>
        <time>2011-09-04T08:33:21Z</time>
      </trkpt>
      <trkpt lat="47.38435" lon="-0.42432">
        <ele>73.1976318</ele>
        <time>2011-09-04T08:33:25Z</time>
      </trkpt>
      <trkpt lat="47.3844" lon="-0.42464">
        <ele>70.7941895</ele>
        <time>2011-09-04T08:33:30Z</time>
      </trkpt>
      <trkpt lat="47.38441" lon="-0.42474">
        <ele>70.3134766</ele>
        <time>2011-09-04T08:33:31Z</time>
      </trkpt>
      <trkpt lat="47.38439" lon="-0.42518">
        <ele>66.4682617</ele>
        <time>2011-09-04T08:33:34Z</time>
      </trkpt>
      <trkpt lat="47.38438" lon="-0.42548">
        <ele>64.5456543</ele>
        <time>2011-09-04T08:33:36Z</time>
      </trkpt>
      <trkpt lat="47.38439" lon="-0.42573">
        <ele>63.1036377</ele>
        <time>2011-09-04T08:33:38Z</time>
      </trkpt>
      <trkpt lat="47.38439" lon="-0.42584">
        <ele>62.142334</ele>
        <time>2011-09-04T08:33:39Z</time>
      </trkpt>
      <trkpt lat="47.38442" lon="-0.42618">
        <ele>61.1810303</ele>
        <time>2011-09-04T08:33:42Z</time>
      </trkpt>
      <trkpt lat="47.38446" lon="-0.42669">
        <ele>58.77771</ele>
        <time>2011-09-04T08:33:47Z</time>
      </trkpt>
      <trkpt lat="47.38449" lon="-0.42704">
        <ele>57.3358154</ele>
        <time>2011-09-04T08:33:52Z</time>
      </trkpt>
      <trkpt lat="47.38451" lon="-0.42713">
        <ele>57.3358154</ele>
        <time>2011-09-04T08:33:56Z</time>
      </trkpt>
      <trkpt lat="47.38454" lon="-0.42722">
        <ele>57.3358154</ele>
        <time>2011-09-04T08:34:00Z</time>
      </trkpt>
      <trkpt lat="47.38456" lon="-0.42734">
        <ele>58.2971191</ele>
        <time>2011-09-04T08:34:04Z</time>
      </trkpt>
      <trkpt lat="47.3846" lon="-0.42755">
        <ele>58.2971191</ele>
        <time>2011-09-04T08:34:09Z</time>
      </trkpt>
      <trkpt lat="47.38468" lon="-0.42804">
        <ele>58.2971191</ele>
        <time>2011-09-04T08:34:17Z</time>
      </trkpt>
      <trkpt lat="47.38471" lon="-0.42824">
        <ele>57.8165283</ele>
        <time>2011-09-04T08:34:20Z</time>
      </trkpt>
      <trkpt lat="47.38486" lon="-0.42855">
        <ele>57.8165283</ele>
        <time>2011-09-04T08:34:25Z</time>
      </trkpt>
      <trkpt lat="47.38508" lon="-0.42884">
        <ele>57.8165283</ele>
        <time>2011-09-04T08:34:31Z</time>
      </trkpt>
      <trkpt lat="47.3853" lon="-0.42916">
        <ele>57.8165283</ele>
        <time>2011-09-04T08:34:37Z</time>
      </trkpt>
      <trkpt lat="47.38547" lon="-0.42953">
        <ele>58.2971191</ele>
        <time>2011-09-04T08:34:43Z</time>
      </trkpt>
      <trkpt lat="47.38561" lon="-0.43008">
        <ele>58.2971191</ele>
        <time>2011-09-04T08:34:51Z</time>
      </trkpt>
      <trkpt lat="47.38574" lon="-0.43092">
        <ele>57.8165283</ele>
        <time>2011-09-04T08:35:02Z</time>
      </trkpt>
      <trkpt lat="47.38589" lon="-0.43162">
        <ele>57.3358154</ele>
        <time>2011-09-04T08:35:11Z</time>
      </trkpt>
      <trkpt lat="47.38602" lon="-0.43207">
        <ele>56.8551025</ele>
        <time>2011-09-04T08:35:17Z</time>
      </trkpt>
      <trkpt lat="47.38623" lon="-0.43283">
        <ele>56.8551025</ele>
        <time>2011-09-04T08:35:27Z</time>
      </trkpt>
      <trkpt lat="47.38638" lon="-0.43339">
        <ele>57.8165283</ele>
        <time>2011-09-04T08:35:34Z</time>
      </trkpt>
      <trkpt lat="47.38656" lon="-0.43401">
        <ele>57.8165283</ele>
        <time>2011-09-04T08:35:42Z</time>
      </trkpt>
      <trkpt lat="47.38679" lon="-0.43464">
        <ele>56.8551025</ele>
        <time>2011-09-04T08:35:50Z</time>
      </trkpt>
      <trkpt lat="47.387" lon="-0.43509">
        <ele>56.3745117</ele>
        <time>2011-09-04T08:35:56Z</time>
      </trkpt>
      <trkpt lat="47.3872" lon="-0.43555">
        <ele>55.4130859</ele>
        <time>2011-09-04T08:36:02Z</time>
      </trkpt>
      <trkpt lat="47.38731" lon="-0.43615">
        <ele>54.4517822</ele>
        <time>2011-09-04T08:36:09Z</time>
      </trkpt>
      <trkpt lat="47.38741" lon="-0.43684">
        <ele>53.0097656</ele>
        <time>2011-09-04T08:36:17Z</time>
      </trkpt>
      <trkpt lat="47.38753" lon="-0.43732">
        <ele>50.1259766</ele>
        <time>2011-09-04T08:36:22Z</time>
      </trkpt>
      <trkpt lat="47.38766" lon="-0.43764">
        <ele>48.2033691</ele>
        <time>2011-09-04T08:36:26Z</time>
      </trkpt>
      <trkpt lat="47.38768" lon="-0.4377">
        <ele>47.7225342</ele>
        <time>2011-09-04T08:36:27Z</time>
      </trkpt>
      <trkpt lat="47.38788" lon="-0.43782">
        <ele>45.7999268</ele>
        <time>2011-09-04T08:36:31Z</time>
      </trkpt>
      <trkpt lat="47.3881" lon="-0.43802">
        <ele>44.3580322</ele>
        <time>2011-09-04T08:36:36Z</time>
      </trkpt>
      <trkpt lat="47.38811" lon="-0.4381">
        <ele>44.3580322</ele>
        <time>2011-09-04T08:36:37Z</time>
      </trkpt>
      <trkpt lat="47.38816" lon="-0.4387">
        <ele>43.8773193</ele>
        <time>2011-09-04T08:36:44Z</time>
      </trkpt>
      <trkpt lat="47.3882" lon="-0.43934">
        <ele>43.3966064</ele>
        <time>2011-09-04T08:36:51Z</time>
      </trkpt>
      <trkpt lat="47.38822" lon="-0.43981">
        <ele>42.4354248</ele>
        <time>2011-09-04T08:36:56Z</time>
      </trkpt>
      <trkpt lat="47.38826" lon="-0.44079">
        <ele>39.0706787</ele>
        <time>2011-09-04T08:37:06Z</time>
      </trkpt>
      <trkpt lat="47.38829" lon="-0.44141">
        <ele>37.6286621</ele>
        <time>2011-09-04T08:37:13Z</time>
      </trkpt>
      <trkpt lat="47.38829" lon="-0.44148">
        <ele>37.1480713</ele>
        <time>2011-09-04T08:37:14Z</time>
      </trkpt>
      <trkpt lat="47.38829" lon="-0.4416">
        <ele>36.6674805</ele>
        <time>2011-09-04T08:37:16Z</time>
      </trkpt>
      <trkpt lat="47.38818" lon="-0.44167">
        <ele>37.1480713</ele>
        <time>2011-09-04T08:37:20Z</time>
      </trkpt>
      <trkpt lat="47.38814" lon="-0.44166">
        <ele>37.6286621</ele>
        <time>2011-09-04T08:37:21Z</time>
      </trkpt>
      <trkpt lat="47.38804" lon="-0.44164">
        <ele>37.6286621</ele>
        <time>2011-09-04T08:37:23Z</time>
      </trkpt>
      <trkpt lat="47.38765" lon="-0.44165">
        <ele>38.5900879</ele>
        <time>2011-09-04T08:37:31Z</time>
      </trkpt>
      <trkpt lat="47.38736" lon="-0.44172">
        <ele>40.5128174</ele>
        <time>2011-09-04T08:37:37Z</time>
      </trkpt>
      <trkpt lat="47.38707" lon="-0.44182">
        <ele>40.5128174</ele>
        <time>2011-09-04T08:37:43Z</time>
      </trkpt>
      <trkpt lat="47.3866" lon="-0.44198">
        <ele>38.5900879</ele>
        <time>2011-09-04T08:37:52Z</time>
      </trkpt>
      <trkpt lat="47.38622" lon="-0.44211">
        <ele>38.109375</ele>
        <time>2011-09-04T08:37:59Z</time>
      </trkpt>
      <trkpt lat="47.38612" lon="-0.44223">
        <ele>38.109375</ele>
        <time>2011-09-04T08:38:02Z</time>
      </trkpt>
      <trkpt lat="47.38614" lon="-0.44236">
        <ele>37.6286621</ele>
        <time>2011-09-04T08:38:04Z</time>
      </trkpt>
      <trkpt lat="47.38635" lon="-0.44299">
        <ele>37.1480713</ele>
        <time>2011-09-04T08:38:14Z</time>
      </trkpt>
      <trkpt lat="47.38649" lon="-0.44344">
        <ele>36.1867676</ele>
        <time>2011-09-04T08:38:21Z</time>
      </trkpt>
      <trkpt lat="47.38655" lon="-0.44363">
        <ele>36.1867676</ele>
        <time>2011-09-04T08:38:24Z</time>
      </trkpt>
      <trkpt lat="47.38671" lon="-0.44416">
        <ele>35.2254639</ele>
        <time>2011-09-04T08:38:32Z</time>
      </trkpt>
      <trkpt lat="47.3869" lon="-0.44468">
        <ele>34.744873</ele>
        <time>2011-09-04T08:38:40Z</time>
      </trkpt>
      <trkpt lat="47.38699" lon="-0.44516">
        <ele>34.2641602</ele>
        <time>2011-09-04T08:38:47Z</time>
      </trkpt>
      <trkpt lat="47.38708" lon="-0.44577">
        <ele>32.8222656</ele>
        <time>2011-09-04T08:38:56Z</time>
      </trkpt>
      <trkpt lat="47.38716" lon="-0.44621">
        <ele>32.8222656</ele>
        <time>2011-09-04T08:39:03Z</time>
      </trkpt>
      <trkpt lat="47.38723" lon="-0.44671">
        <ele>33.3028564</ele>
        <time>2011-09-04T08:39:11Z</time>
      </trkpt>
      <trkpt lat="47.38732" lon="-0.4473">
        <ele>32.3415527</ele>
        <time>2011-09-04T08:39:20Z</time>
      </trkpt>
      <trkpt lat="47.3874" lon="-0.44764">
        <ele>32.8222656</ele>
        <time>2011-09-04T08:39:25Z</time>
      </trkpt>
      <trkpt lat="47.38755" lon="-0.44804">
        <ele>33.7834473</ele>
        <time>2011-09-04T08:39:32Z</time>
      </trkpt>
      <trkpt lat="47.38758" lon="-0.44809">
        <ele>33.7834473</ele>
        <time>2011-09-04T08:39:33Z</time>
      </trkpt>
      <trkpt lat="47.38756" lon="-0.44828">
        <ele>33.7834473</ele>
        <time>2011-09-04T08:39:37Z</time>
      </trkpt>
      <trkpt lat="47.38751" lon="-0.44835">
        <ele>33.7834473</ele>
        <time>2011-09-04T08:39:39Z</time>
      </trkpt>
      <trkpt lat="47.38728" lon="-0.4487">
        <ele>35.2254639</ele>
        <time>2011-09-04T08:39:48Z</time>
      </trkpt>
      <trkpt lat="47.38716" lon="-0.44891">
        <ele>36.1867676</ele>
        <time>2011-09-04T08:39:53Z</time>
      </trkpt>
      <trkpt lat="47.38721" lon="-0.44922">
        <ele>37.6286621</ele>
        <time>2011-09-04T08:39:59Z</time>
      </trkpt>
      <trkpt lat="47.3873" lon="-0.44956">
        <ele>39.5512695</ele>
        <time>2011-09-04T08:40:06Z</time>
      </trkpt>
      <trkpt lat="47.3874" lon="-0.44995">
        <ele>41.473999</ele>
        <time>2011-09-04T08:40:14Z</time>
      </trkpt>
      <trkpt lat="47.38746" lon="-0.45022">
        <ele>41.9547119</ele>
        <time>2011-09-04T08:40:19Z</time>
      </trkpt>
      <trkpt lat="47.3876" lon="-0.45081">
        <ele>41.473999</ele>
        <time>2011-09-04T08:40:29Z</time>
      </trkpt>
      <trkpt lat="47.38772" lon="-0.45131">
        <ele>40.9934082</ele>
        <time>2011-09-04T08:40:37Z</time>
      </trkpt>
      <trkpt lat="47.38785" lon="-0.45187">
        <ele>40.5128174</ele>
        <time>2011-09-04T08:40:46Z</time>
      </trkpt>
      <trkpt lat="47.38803" lon="-0.45262">
        <ele>40.5128174</ele>
        <time>2011-09-04T08:40:58Z</time>
      </trkpt>
      <trkpt lat="47.38817" lon="-0.45317">
        <ele>40.9934082</ele>
        <time>2011-09-04T08:41:07Z</time>
      </trkpt>
      <trkpt lat="47.38824" lon="-0.45353">
        <ele>40.9934082</ele>
        <time>2011-09-04T08:41:14Z</time>
      </trkpt>
      <trkpt lat="47.3883" lon="-0.45367">
        <ele>40.9934082</ele>
        <time>2011-09-04T08:41:19Z</time>
      </trkpt>
      <trkpt lat="47.38833" lon="-0.45369">
        <ele>40.5128174</ele>
        <time>2011-09-04T08:41:21Z</time>
      </trkpt>
      <trkpt lat="47.38845" lon="-0.45368">
        <ele>39.5512695</ele>
        <time>2011-09-04T08:41:26Z</time>
      </trkpt>
      <trkpt lat="47.38855" lon="-0.45377">
        <ele>39.5512695</ele>
        <time>2011-09-04T08:41:30Z</time>
      </trkpt>
      <trkpt lat="47.38862" lon="-0.45405">
        <ele>39.0706787</ele>
        <time>2011-09-04T08:41:35Z</time>
      </trkpt>
      <trkpt lat="47.3887" lon="-0.45449">
        <ele>40.0321045</ele>
        <time>2011-09-04T08:41:42Z</time>
      </trkpt>
      <trkpt lat="47.38874" lon="-0.45504">
        <ele>39.5512695</ele>
        <time>2011-09-04T08:41:50Z</time>
      </trkpt>
      <trkpt lat="47.38879" lon="-0.45573">
        <ele>39.0706787</ele>
        <time>2011-09-04T08:41:59Z</time>
      </trkpt>
      <trkpt lat="47.38888" lon="-0.45634">
        <ele>39.5512695</ele>
        <time>2011-09-04T08:42:07Z</time>
      </trkpt>
      <trkpt lat="47.38903" lon="-0.45677">
        <ele>40.0321045</ele>
        <time>2011-09-04T08:42:14Z</time>
      </trkpt>
      <trkpt lat="47.38913" lon="-0.45706">
        <ele>40.0321045</ele>
        <time>2011-09-04T08:42:19Z</time>
      </trkpt>
      <trkpt lat="47.38918" lon="-0.45721">
        <ele>40.5128174</ele>
        <time>2011-09-04T08:42:22Z</time>
      </trkpt>
      <trkpt lat="47.38924" lon="-0.45737">
        <ele>40.0321045</ele>
        <time>2011-09-04T08:42:27Z</time>
      </trkpt>
      <trkpt lat="47.38925" lon="-0.45741">
        <ele>40.0321045</ele>
        <time>2011-09-04T08:42:28Z</time>
      </trkpt>
      <trkpt lat="47.38918" lon="-0.45763">
        <ele>40.0321045</ele>
        <time>2011-09-04T08:42:32Z</time>
      </trkpt>
      <trkpt lat="47.38914" lon="-0.45767">
        <ele>40.0321045</ele>
        <time>2011-09-04T08:42:33Z</time>
      </trkpt>
      <trkpt lat="47.38897" lon="-0.45784">
        <ele>40.5128174</ele>
        <time>2011-09-04T08:42:38Z</time>
      </trkpt>
      <trkpt lat="47.38892" lon="-0.45805">
        <ele>40.9934082</ele>
        <time>2011-09-04T08:42:42Z</time>
      </trkpt>
      <trkpt lat="47.38912" lon="-0.45855">
        <ele>42.4354248</ele>
        <time>2011-09-04T08:42:51Z</time>
      </trkpt>
      <trkpt lat="47.38915" lon="-0.4586">
        <ele>42.4354248</ele>
        <time>2011-09-04T08:42:52Z</time>
      </trkpt>
      <trkpt lat="47.38939" lon="-0.45923">
        <ele>41.9547119</ele>
        <time>2011-09-04T08:43:02Z</time>
      </trkpt>
      <trkpt lat="47.38955" lon="-0.45962">
        <ele>41.473999</ele>
        <time>2011-09-04T08:43:08Z</time>
      </trkpt>
      <trkpt lat="47.38966" lon="-0.45996">
        <ele>41.473999</ele>
        <time>2011-09-04T08:43:13Z</time>
      </trkpt>
      <trkpt lat="47.38986" lon="-0.46069">
        <ele>40.0321045</ele>
        <time>2011-09-04T08:43:23Z</time>
      </trkpt>
      <trkpt lat="47.38996" lon="-0.46108">
        <ele>39.5512695</ele>
        <time>2011-09-04T08:43:28Z</time>
      </trkpt>
      <trkpt lat="47.39005" lon="-0.46127">
        <ele>38.5900879</ele>
        <time>2011-09-04T08:43:32Z</time>
      </trkpt>
      <trkpt lat="47.39011" lon="-0.46126">
        <ele>38.5900879</ele>
        <time>2011-09-04T08:43:35Z</time>
      </trkpt>
      <trkpt lat="47.39032" lon="-0.46113">
        <ele>37.6286621</ele>
        <time>2011-09-04T08:43:40Z</time>
      </trkpt>
      <trkpt lat="47.39048" lon="-0.46107">
        <ele>37.6286621</ele>
        <time>2011-09-04T08:43:43Z</time>
      </trkpt>
      <trkpt lat="47.39062" lon="-0.46131">
        <ele>36.6674805</ele>
        <time>2011-09-04T08:43:47Z</time>
      </trkpt>
      <trkpt lat="47.3908" lon="-0.46204">
        <ele>34.744873</ele>
        <time>2011-09-04T08:43:55Z</time>
      </trkpt>
      <trkpt lat="47.39096" lon="-0.46261">
        <ele>34.2641602</ele>
        <time>2011-09-04T08:44:01Z</time>
      </trkpt>
      <trkpt lat="47.39104" lon="-0.46295">
        <ele>33.7834473</ele>
        <time>2011-09-04T08:44:05Z</time>
      </trkpt>
      <trkpt lat="47.3911" lon="-0.46328">
        <ele>32.8222656</ele>
        <time>2011-09-04T08:44:09Z</time>
      </trkpt>
      <trkpt lat="47.39121" lon="-0.46396">
        <ele>31.8607178</ele>
        <time>2011-09-04T08:44:17Z</time>
      </trkpt>
      <trkpt lat="47.39138" lon="-0.46412">
        <ele>30.8995361</ele>
        <time>2011-09-04T08:44:21Z</time>
      </trkpt>
      <trkpt lat="47.39144" lon="-0.46411">
        <ele>30.4188232</ele>
        <time>2011-09-04T08:44:22Z</time>
      </trkpt>
      <trkpt lat="47.39202" lon="-0.46385">
        <ele>29.4575195</ele>
        <time>2011-09-04T08:44:32Z</time>
      </trkpt>
      <trkpt lat="47.39251" lon="-0.46364">
        <ele>28.4962158</ele>
        <time>2011-09-04T08:44:40Z</time>
      </trkpt>
      <trkpt lat="47.39293" lon="-0.46347">
        <ele>27.5349121</ele>
        <time>2011-09-04T08:44:47Z</time>
      </trkpt>
      <trkpt lat="47.39328" lon="-0.46331">
        <ele>28.0155029</ele>
        <time>2011-09-04T08:44:53Z</time>
      </trkpt>
      <trkpt lat="47.39382" lon="-0.46311">
        <ele>28.0155029</ele>
        <time>2011-09-04T08:45:02Z</time>
      </trkpt>
      <trkpt lat="47.39436" lon="-0.46291">
        <ele>27.5349121</ele>
        <time>2011-09-04T08:45:11Z</time>
      </trkpt>
      <trkpt lat="47.39502" lon="-0.46265">
        <ele>26.5736084</ele>
        <time>2011-09-04T08:45:22Z</time>
      </trkpt>
      <trkpt lat="47.3953" lon="-0.46254">
        <ele>25.6123047</ele>
        <time>2011-09-04T08:45:27Z</time>
      </trkpt>
      <trkpt lat="47.39541" lon="-0.46264">
        <ele>25.1317139</ele>
        <time>2011-09-04T08:45:31Z</time>
      </trkpt>
      <trkpt lat="47.39538" lon="-0.46281">
        <ele>24.651001</ele>
        <time>2011-09-04T08:45:34Z</time>
      </trkpt>
      <trkpt lat="47.39528" lon="-0.46339">
        <ele>24.1702881</ele>
        <time>2011-09-04T08:45:42Z</time>
      </trkpt>
      <trkpt lat="47.39525" lon="-0.46361">
        <ele>24.651001</ele>
        <time>2011-09-04T08:45:45Z</time>
      </trkpt>
      <trkpt lat="47.39514" lon="-0.46412">
        <ele>25.1317139</ele>
        <time>2011-09-04T08:45:52Z</time>
      </trkpt>
      <trkpt lat="47.39501" lon="-0.46453">
        <ele>25.6123047</ele>
        <time>2011-09-04T08:45:58Z</time>
      </trkpt>
      <trkpt lat="47.39485" lon="-0.4649">
        <ele>28.0155029</ele>
        <time>2011-09-04T08:46:04Z</time>
      </trkpt>
      <trkpt lat="47.39473" lon="-0.46521">
        <ele>28.4962158</ele>
        <time>2011-09-04T08:46:09Z</time>
      </trkpt>
      <trkpt lat="47.39463" lon="-0.46563">
        <ele>29.4575195</ele>
        <time>2011-09-04T08:46:16Z</time>
      </trkpt>
      <trkpt lat="47.39458" lon="-0.46604">
        <ele>30.8995361</ele>
        <time>2011-09-04T08:46:23Z</time>
      </trkpt>
      <trkpt lat="47.39459" lon="-0.46644">
        <ele>30.8995361</ele>
        <time>2011-09-04T08:46:30Z</time>
      </trkpt>
      <trkpt lat="47.39459" lon="-0.46679">
        <ele>32.8222656</ele>
        <time>2011-09-04T08:46:36Z</time>
      </trkpt>
      <trkpt lat="47.39457" lon="-0.4672">
        <ele>34.2641602</ele>
        <time>2011-09-04T08:46:43Z</time>
      </trkpt>
      <trkpt lat="47.39457" lon="-0.46749">
        <ele>34.744873</ele>
        <time>2011-09-04T08:46:49Z</time>
      </trkpt>
      <trkpt lat="47.39459" lon="-0.46778">
        <ele>35.2254639</ele>
        <time>2011-09-04T08:46:56Z</time>
      </trkpt>
      <trkpt lat="47.39461" lon="-0.46815">
        <ele>34.2641602</ele>
        <time>2011-09-04T08:47:04Z</time>
      </trkpt>
      <trkpt lat="47.39462" lon="-0.46858">
        <ele>34.2641602</ele>
        <time>2011-09-04T08:47:13Z</time>
      </trkpt>
      <trkpt lat="47.39465" lon="-0.46893">
        <ele>34.2641602</ele>
        <time>2011-09-04T08:47:20Z</time>
      </trkpt>
      <trkpt lat="47.39467" lon="-0.46921">
        <ele>34.2641602</ele>
        <time>2011-09-04T08:47:26Z</time>
      </trkpt>
      <trkpt lat="47.39471" lon="-0.46951">
        <ele>34.2641602</ele>
        <time>2011-09-04T08:47:33Z</time>
      </trkpt>
      <trkpt lat="47.39472" lon="-0.46959">
        <ele>33.7834473</ele>
        <time>2011-09-04T08:47:35Z</time>
      </trkpt>
      <trkpt lat="47.39463" lon="-0.46965">
        <ele>33.7834473</ele>
        <time>2011-09-04T08:47:40Z</time>
      </trkpt>
      <trkpt lat="47.39457" lon="-0.46965">
        <ele>33.7834473</ele>
        <time>2011-09-04T08:47:42Z</time>
      </trkpt>
      <trkpt lat="47.39425" lon="-0.46961">
        <ele>31.8607178</ele>
        <time>2011-09-04T08:47:51Z</time>
      </trkpt>
      <trkpt lat="47.39388" lon="-0.46958">
        <ele>30.4188232</ele>
        <time>2011-09-04T08:48:00Z</time>
      </trkpt>
      <trkpt lat="47.3935" lon="-0.46958">
        <ele>31.380127</ele>
        <time>2011-09-04T08:48:09Z</time>
      </trkpt>
      <trkpt lat="47.39316" lon="-0.46958">
        <ele>31.8607178</ele>
        <time>2011-09-04T08:48:17Z</time>
      </trkpt>
      <trkpt lat="47.39285" lon="-0.46956">
        <ele>31.380127</ele>
        <time>2011-09-04T08:48:24Z</time>
      </trkpt>
      <trkpt lat="47.39281" lon="-0.46956">
        <ele>31.380127</ele>
        <time>2011-09-04T08:48:25Z</time>
      </trkpt>
      <trkpt lat="47.39239" lon="-0.46955">
        <ele>30.8995361</ele>
        <time>2011-09-04T08:48:34Z</time>
      </trkpt>
      <trkpt lat="47.3923" lon="-0.46956">
        <ele>30.8995361</ele>
        <time>2011-09-04T08:48:36Z</time>
      </trkpt>
      <trkpt lat="47.39178" lon="-0.4697">
        <ele>34.2641602</ele>
        <time>2011-09-04T08:48:47Z</time>
      </trkpt>
      <trkpt lat="47.39147" lon="-0.46976">
        <ele>34.744873</ele>
        <time>2011-09-04T08:48:54Z</time>
      </trkpt>
      <trkpt lat="47.39117" lon="-0.4698">
        <ele>34.744873</ele>
        <time>2011-09-04T08:49:01Z</time>
      </trkpt>
      <trkpt lat="47.39071" lon="-0.46983">
        <ele>35.2254639</ele>
        <time>2011-09-04T08:49:11Z</time>
      </trkpt>
      <trkpt lat="47.39042" lon="-0.46974">
        <ele>36.6674805</ele>
        <time>2011-09-04T08:49:18Z</time>
      </trkpt>
      <trkpt lat="47.39005" lon="-0.46968">
        <ele>36.6674805</ele>
        <time>2011-09-04T08:49:28Z</time>
      </trkpt>
      <trkpt lat="47.38988" lon="-0.46969">
        <ele>37.1480713</ele>
        <time>2011-09-04T08:49:33Z</time>
      </trkpt>
      <trkpt lat="47.38957" lon="-0.46974">
        <ele>36.6674805</ele>
        <time>2011-09-04T08:49:41Z</time>
      </trkpt>
      <trkpt lat="47.38921" lon="-0.46973">
        <ele>35.7060547</ele>
        <time>2011-09-04T08:49:50Z</time>
      </trkpt>
      <trkpt lat="47.38917" lon="-0.46973">
        <ele>35.7060547</ele>
        <time>2011-09-04T08:49:51Z</time>
      </trkpt>
      <trkpt lat="47.389" lon="-0.46967">
        <ele>36.1867676</ele>
        <time>2011-09-04T08:49:55Z</time>
      </trkpt>
      <trkpt lat="47.38882" lon="-0.4696">
        <ele>35.7060547</ele>
        <time>2011-09-04T08:49:59Z</time>
      </trkpt>
      <trkpt lat="47.38858" lon="-0.4695">
        <ele>34.744873</ele>
        <time>2011-09-04T08:50:05Z</time>
      </trkpt>
      <trkpt lat="47.38842" lon="-0.46949">
        <ele>34.744873</ele>
        <time>2011-09-04T08:50:09Z</time>
      </trkpt>
      <trkpt lat="47.38811" lon="-0.46948">
        <ele>35.7060547</ele>
        <time>2011-09-04T08:50:16Z</time>
      </trkpt>
      <trkpt lat="47.38769" lon="-0.46948">
        <ele>36.1867676</ele>
        <time>2011-09-04T08:50:25Z</time>
      </trkpt>
      <trkpt lat="47.3874" lon="-0.46959">
        <ele>36.6674805</ele>
        <time>2011-09-04T08:50:31Z</time>
      </trkpt>
      <trkpt lat="47.38703" lon="-0.46975">
        <ele>37.6286621</ele>
        <time>2011-09-04T08:50:38Z</time>
      </trkpt>
      <trkpt lat="47.38675" lon="-0.46985">
        <ele>36.6674805</ele>
        <time>2011-09-04T08:50:44Z</time>
      </trkpt>
      <trkpt lat="47.38653" lon="-0.46989">
        <ele>37.1480713</ele>
        <time>2011-09-04T08:50:50Z</time>
      </trkpt>
      <trkpt lat="47.38636" lon="-0.46992">
        <ele>37.1480713</ele>
        <time>2011-09-04T08:50:56Z</time>
      </trkpt>
      <trkpt lat="47.38617" lon="-0.46993">
        <ele>38.5900879</ele>
        <time>2011-09-04T08:51:02Z</time>
      </trkpt>
      <trkpt lat="47.38591" lon="-0.46993">
        <ele>41.473999</ele>
        <time>2011-09-04T08:51:08Z</time>
      </trkpt>
      <trkpt lat="47.38568" lon="-0.46991">
        <ele>43.8773193</ele>
        <time>2011-09-04T08:51:13Z</time>
      </trkpt>
      <trkpt lat="47.38532" lon="-0.46987">
        <ele>44.838623</ele>
        <time>2011-09-04T08:51:21Z</time>
      </trkpt>
      <trkpt lat="47.38497" lon="-0.46984">
        <ele>44.3580322</ele>
        <time>2011-09-04T08:51:29Z</time>
      </trkpt>
      <trkpt lat="47.38459" lon="-0.4698">
        <ele>43.3966064</ele>
        <time>2011-09-04T08:51:38Z</time>
      </trkpt>
      <trkpt lat="47.38427" lon="-0.46976">
        <ele>42.9160156</ele>
        <time>2011-09-04T08:51:46Z</time>
      </trkpt>
      <trkpt lat="47.38397" lon="-0.46971">
        <ele>42.9160156</ele>
        <time>2011-09-04T08:51:54Z</time>
      </trkpt>
      <trkpt lat="47.38375" lon="-0.46968">
        <ele>42.4354248</ele>
        <time>2011-09-04T08:52:00Z</time>
      </trkpt>
      <trkpt lat="47.38348" lon="-0.46962">
        <ele>42.4354248</ele>
        <time>2011-09-04T08:52:07Z</time>
      </trkpt>
      <trkpt lat="47.38308" lon="-0.46951">
        <ele>42.9160156</ele>
        <time>2011-09-04T08:52:17Z</time>
      </trkpt>
      <trkpt lat="47.38271" lon="-0.4694">
        <ele>42.9160156</ele>
        <time>2011-09-04T08:52:26Z</time>
      </trkpt>
      <trkpt lat="47.38232" lon="-0.4693">
        <ele>42.9160156</ele>
        <time>2011-09-04T08:52:36Z</time>
      </trkpt>
      <trkpt lat="47.38204" lon="-0.46916">
        <ele>42.9160156</ele>
        <time>2011-09-04T08:52:44Z</time>
      </trkpt>
      <trkpt lat="47.38195" lon="-0.46896">
        <ele>42.9160156</ele>
        <time>2011-09-04T08:52:48Z</time>
      </trkpt>
      <trkpt lat="47.38179" lon="-0.46857">
        <ele>42.9160156</ele>
        <time>2011-09-04T08:52:55Z</time>
      </trkpt>
      <trkpt lat="47.3816" lon="-0.46811">
        <ele>42.9160156</ele>
        <time>2011-09-04T08:53:03Z</time>
      </trkpt>
      <trkpt lat="47.38145" lon="-0.46774">
        <ele>42.9160156</ele>
        <time>2011-09-04T08:53:10Z</time>
      </trkpt>
      <trkpt lat="47.38135" lon="-0.46767">
        <ele>43.3966064</ele>
        <time>2011-09-04T08:53:14Z</time>
      </trkpt>
      <trkpt lat="47.3813" lon="-0.46771">
        <ele>42.9160156</ele>
        <time>2011-09-04T08:53:16Z</time>
      </trkpt>
      <trkpt lat="47.38114" lon="-0.46788">
        <ele>41.9547119</ele>
        <time>2011-09-04T08:53:23Z</time>
      </trkpt>
      <trkpt lat="47.38105" lon="-0.46796">
        <ele>41.473999</ele>
        <time>2011-09-04T08:53:27Z</time>
      </trkpt>
      <trkpt lat="47.38097" lon="-0.46788">
        <ele>41.9547119</ele>
        <time>2011-09-04T08:53:31Z</time>
      </trkpt>
      <trkpt lat="47.38082" lon="-0.46762">
        <ele>41.9547119</ele>
        <time>2011-09-04T08:53:39Z</time>
      </trkpt>
      <trkpt lat="47.38068" lon="-0.46738">
        <ele>42.4354248</ele>
        <time>2011-09-04T08:53:45Z</time>
      </trkpt>
      <trkpt lat="47.38046" lon="-0.467">
        <ele>43.3966064</ele>
        <time>2011-09-04T08:53:54Z</time>
      </trkpt>
      <trkpt lat="47.38027" lon="-0.46663">
        <ele>43.8773193</ele>
        <time>2011-09-04T08:54:02Z</time>
      </trkpt>
      <trkpt lat="47.38005" lon="-0.46625">
        <ele>44.3580322</ele>
        <time>2011-09-04T08:54:10Z</time>
      </trkpt>
      <trkpt lat="47.37983" lon="-0.46586">
        <ele>43.8773193</ele>
        <time>2011-09-04T08:54:18Z</time>
      </trkpt>
      <trkpt lat="47.37962" lon="-0.4655">
        <ele>43.8773193</ele>
        <time>2011-09-04T08:54:26Z</time>
      </trkpt>
      <trkpt lat="47.37939" lon="-0.46508">
        <ele>44.3580322</ele>
        <time>2011-09-04T08:54:35Z</time>
      </trkpt>
      <trkpt lat="47.37918" lon="-0.46471">
        <ele>44.3580322</ele>
        <time>2011-09-04T08:54:44Z</time>
      </trkpt>
      <trkpt lat="47.37898" lon="-0.46433">
        <ele>43.3966064</ele>
        <time>2011-09-04T08:54:52Z</time>
      </trkpt>
      <trkpt lat="47.37876" lon="-0.46393">
        <ele>43.8773193</ele>
        <time>2011-09-04T08:55:00Z</time>
      </trkpt>
      <trkpt lat="47.37854" lon="-0.46352">
        <ele>43.3966064</ele>
        <time>2011-09-04T08:55:08Z</time>
      </trkpt>
      <trkpt lat="47.37821" lon="-0.46294">
        <ele>45.3192139</ele>
        <time>2011-09-04T08:55:19Z</time>
      </trkpt>
      <trkpt lat="47.37818" lon="-0.4629">
        <ele>45.3192139</ele>
        <time>2011-09-04T08:55:20Z</time>
      </trkpt>
      <trkpt lat="47.37806" lon="-0.46269">
        <ele>45.7999268</ele>
        <time>2011-09-04T08:55:25Z</time>
      </trkpt>
      <trkpt lat="47.37795" lon="-0.46251">
        <ele>45.7999268</ele>
        <time>2011-09-04T08:55:31Z</time>
      </trkpt>
      <trkpt lat="47.37781" lon="-0.4623">
        <ele>47.2418213</ele>
        <time>2011-09-04T08:55:37Z</time>
      </trkpt>
      <trkpt lat="47.37759" lon="-0.462">
        <ele>47.7225342</ele>
        <time>2011-09-04T08:55:45Z</time>
      </trkpt>
      <trkpt lat="47.37731" lon="-0.46164">
        <ele>48.2033691</ele>
        <time>2011-09-04T08:55:54Z</time>
      </trkpt>
      <trkpt lat="47.37711" lon="-0.46141">
        <ele>48.68396</ele>
        <time>2011-09-04T08:56:00Z</time>
      </trkpt>
      <trkpt lat="47.37681" lon="-0.46108">
        <ele>48.68396</ele>
        <time>2011-09-04T08:56:09Z</time>
      </trkpt>
      <trkpt lat="47.37642" lon="-0.46072">
        <ele>49.1645508</ele>
        <time>2011-09-04T08:56:20Z</time>
      </trkpt>
      <trkpt lat="47.37613" lon="-0.46047">
        <ele>49.6452637</ele>
        <time>2011-09-04T08:56:28Z</time>
      </trkpt>
      <trkpt lat="47.37592" lon="-0.46029">
        <ele>49.6452637</ele>
        <time>2011-09-04T08:56:35Z</time>
      </trkpt>
      <trkpt lat="47.37579" lon="-0.46026">
        <ele>49.6452637</ele>
        <time>2011-09-04T08:56:39Z</time>
      </trkpt>
      <trkpt lat="47.37563" lon="-0.46037">
        <ele>48.2033691</ele>
        <time>2011-09-04T08:56:44Z</time>
      </trkpt>
      <trkpt lat="47.37545" lon="-0.46047">
        <ele>46.7612305</ele>
        <time>2011-09-04T08:56:49Z</time>
      </trkpt>
      <trkpt lat="47.3752" lon="-0.46061">
        <ele>46.2806396</ele>
        <time>2011-09-04T08:56:56Z</time>
      </trkpt>
      <trkpt lat="47.37489" lon="-0.46079">
        <ele>46.2806396</ele>
        <time>2011-09-04T08:57:04Z</time>
      </trkpt>
      <trkpt lat="47.37462" lon="-0.46094">
        <ele>46.7612305</ele>
        <time>2011-09-04T08:57:11Z</time>
      </trkpt>
      <trkpt lat="47.3745" lon="-0.46097">
        <ele>46.7612305</ele>
        <time>2011-09-04T08:57:14Z</time>
      </trkpt>
      <trkpt lat="47.37432" lon="-0.46112">
        <ele>46.7612305</ele>
        <time>2011-09-04T08:57:19Z</time>
      </trkpt>
      <trkpt lat="47.37417" lon="-0.46127">
        <ele>47.2418213</ele>
        <time>2011-09-04T08:57:25Z</time>
      </trkpt>
      <trkpt lat="47.37416" lon="-0.46129">
        <ele>48.2033691</ele>
        <time>2011-09-04T08:57:30Z</time>
      </trkpt>
      <trkpt lat="47.37417" lon="-0.46128">
        <ele>48.68396</ele>
        <time>2011-09-04T08:57:37Z</time>
      </trkpt>
      <trkpt lat="47.37417" lon="-0.46128">
        <ele>48.68396</ele>
        <time>2011-09-04T08:57:46Z</time>
      </trkpt>
      <trkpt lat="47.37416" lon="-0.46129">
        <ele>49.1645508</ele>
        <time>2011-09-04T08:57:51Z</time>
      </trkpt>
      <trkpt lat="47.37416" lon="-0.46129">
        <ele>50.6065674</ele>
        <time>2011-09-04T08:57:59Z</time>
      </trkpt>
      <trkpt lat="47.37415" lon="-0.46129">
        <ele>52.048584</ele>
        <time>2011-09-04T08:58:09Z</time>
      </trkpt>
      <trkpt lat="47.37405" lon="-0.46135">
        <ele>52.048584</ele>
        <time>2011-09-04T08:58:14Z</time>
      </trkpt>
      <trkpt lat="47.37388" lon="-0.46143">
        <ele>52.048584</ele>
        <time>2011-09-04T08:58:18Z</time>
      </trkpt>
      <trkpt lat="47.37374" lon="-0.4615">
        <ele>52.048584</ele>
        <time>2011-09-04T08:58:22Z</time>
      </trkpt>
      <trkpt lat="47.3736" lon="-0.46156">
        <ele>51.5678711</ele>
        <time>2011-09-04T08:58:29Z</time>
      </trkpt>
      <trkpt lat="47.37338" lon="-0.46165">
        <ele>51.5678711</ele>
        <time>2011-09-04T08:58:38Z</time>
      </trkpt>
      <trkpt lat="47.3733" lon="-0.46169">
        <ele>51.5678711</ele>
        <time>2011-09-04T08:58:42Z</time>
      </trkpt>
      <trkpt lat="47.37321" lon="-0.46183">
        <ele>50.6065674</ele>
        <time>2011-09-04T08:58:47Z</time>
      </trkpt>
      <trkpt lat="47.37318" lon="-0.46217">
        <ele>47.2418213</ele>
        <time>2011-09-04T08:58:55Z</time>
      </trkpt>
      <trkpt lat="47.37324" lon="-0.46244">
        <ele>46.7612305</ele>
        <time>2011-09-04T08:59:01Z</time>
      </trkpt>
      <trkpt lat="47.37334" lon="-0.46271">
        <ele>46.2806396</ele>
        <time>2011-09-04T08:59:07Z</time>
      </trkpt>
      <trkpt lat="47.37351" lon="-0.46303">
        <ele>46.2806396</ele>
        <time>2011-09-04T08:59:15Z</time>
      </trkpt>
      <trkpt lat="47.37367" lon="-0.46311">
        <ele>46.7612305</ele>
        <time>2011-09-04T08:59:20Z</time>
      </trkpt>
      <trkpt lat="47.37384" lon="-0.46315">
        <ele>45.7999268</ele>
        <time>2011-09-04T08:59:27Z</time>
      </trkpt>
      <trkpt lat="47.37387" lon="-0.46313">
        <ele>45.7999268</ele>
        <time>2011-09-04T08:59:30Z</time>
      </trkpt>
      <trkpt lat="47.37389" lon="-0.46303">
        <ele>45.3192139</ele>
        <time>2011-09-04T08:59:36Z</time>
      </trkpt>
      <trkpt lat="47.37387" lon="-0.463">
        <ele>45.3192139</ele>
        <time>2011-09-04T08:59:37Z</time>
      </trkpt>
      <trkpt lat="47.37384" lon="-0.46279">
        <ele>44.838623</ele>
        <time>2011-09-04T08:59:44Z</time>
      </trkpt>
      <trkpt lat="47.37387" lon="-0.4627">
        <ele>45.3192139</ele>
        <time>2011-09-04T08:59:48Z</time>
      </trkpt>
      <trkpt lat="47.37389" lon="-0.46263">
        <ele>44.3580322</ele>
        <time>2011-09-04T08:59:53Z</time>
      </trkpt>
      <trkpt lat="47.37389" lon="-0.46264">
        <ele>44.838623</ele>
        <time>2011-09-04T08:59:59Z</time>
      </trkpt>
      <trkpt lat="47.3739" lon="-0.46264">
        <ele>45.7999268</ele>
        <time>2011-09-04T09:00:05Z</time>
      </trkpt>
      <trkpt lat="47.3739" lon="-0.46265">
        <ele>48.2033691</ele>
        <time>2011-09-04T09:00:11Z</time>
      </trkpt>
      <trkpt lat="47.37389" lon="-0.46265">
        <ele>50.6065674</ele>
        <time>2011-09-04T09:00:17Z</time>
      </trkpt>
      <trkpt lat="47.37391" lon="-0.46267">
        <ele>50.6065674</ele>
        <time>2011-09-04T09:00:23Z</time>
      </trkpt>
      <trkpt lat="47.37391" lon="-0.46269">
        <ele>51.0871582</ele>
        <time>2011-09-04T09:00:29Z</time>
      </trkpt>
      <trkpt lat="47.37392" lon="-0.46266">
        <ele>52.5291748</ele>
        <time>2011-09-04T09:00:47Z</time>
      </trkpt>
      <trkpt lat="47.37393" lon="-0.46265">
        <ele>53.4904785</ele>
        <time>2011-09-04T09:00:58Z</time>
      </trkpt>
      <trkpt lat="47.37393" lon="-0.46265">
        <ele>52.5291748</ele>
        <time>2011-09-04T09:01:02Z</time>
      </trkpt>
      <trkpt lat="47.37395" lon="-0.46269">
        <ele>52.5291748</ele>
        <time>2011-09-04T09:01:09Z</time>
      </trkpt>
      <trkpt lat="47.37398" lon="-0.46274">
        <ele>52.5291748</ele>
        <time>2011-09-04T09:01:16Z</time>
      </trkpt>
      <trkpt lat="47.374" lon="-0.46276">
        <ele>54.4517822</ele>
        <time>2011-09-04T09:01:22Z</time>
      </trkpt>
      <trkpt lat="47.374" lon="-0.46277">
        <ele>54.932373</ele>
        <time>2011-09-04T09:01:26Z</time>
      </trkpt>
      <trkpt lat="47.374" lon="-0.46279">
        <ele>60.2197266</ele>
        <time>2011-09-04T09:01:33Z</time>
      </trkpt>
      <trkpt lat="47.37398" lon="-0.46282">
        <ele>61.1810303</ele>
        <time>2011-09-04T09:01:36Z</time>
      </trkpt>
      <trkpt lat="47.37395" lon="-0.46283">
        <ele>52.048584</ele>
        <time>2011-09-04T09:01:43Z</time>
      </trkpt>
      <trkpt lat="47.37396" lon="-0.4628">
        <ele>46.7612305</ele>
        <time>2011-09-04T09:01:47Z</time>
      </trkpt>
      <trkpt lat="47.37402" lon="-0.46282">
        <ele>46.7612305</ele>
        <time>2011-09-04T09:01:54Z</time>
      </trkpt>
      <trkpt lat="47.37409" lon="-0.46286">
        <ele>43.3966064</ele>
        <time>2011-09-04T09:01:59Z</time>
      </trkpt>
      <trkpt lat="47.37411" lon="-0.46284">
        <ele>52.048584</ele>
        <time>2011-09-04T09:02:07Z</time>
      </trkpt>
      <trkpt lat="47.37414" lon="-0.46285">
        <ele>57.3358154</ele>
        <time>2011-09-04T09:02:12Z</time>
      </trkpt>
      <trkpt lat="47.37419" lon="-0.46291">
        <ele>57.8165283</ele>
        <time>2011-09-04T09:02:17Z</time>
      </trkpt>
      <trkpt lat="47.37418" lon="-0.46292">
        <ele>60.7003174</ele>
        <time>2011-09-04T09:02:24Z</time>
      </trkpt>
      <trkpt lat="47.37416" lon="-0.46299">
        <ele>61.1810303</ele>
        <time>2011-09-04T09:02:28Z</time>
      </trkpt>
      <trkpt lat="47.37421" lon="-0.46296">
        <ele>70.7941895</ele>
        <time>2011-09-04T09:02:39Z</time>
      </trkpt>
      <trkpt lat="47.37426" lon="-0.463">
        <ele>75.1202393</ele>
        <time>2011-09-04T09:02:43Z</time>
      </trkpt>
      <trkpt lat="47.37429" lon="-0.46301">
        <ele>76.5621338</ele>
        <time>2011-09-04T09:02:50Z</time>
      </trkpt>
      <trkpt lat="47.37423" lon="-0.46295">
        <ele>69.8328857</ele>
        <time>2011-09-04T09:02:54Z</time>
      </trkpt>
      <trkpt lat="47.37417" lon="-0.4629">
        <ele>64.5456543</ele>
        <time>2011-09-04T09:02:59Z</time>
      </trkpt>
      <trkpt lat="47.37414" lon="-0.46291">
        <ele>53.9711914</ele>
        <time>2011-09-04T09:03:04Z</time>
      </trkpt>
      <trkpt lat="47.37414" lon="-0.46292">
        <ele>48.2033691</ele>
        <time>2011-09-04T09:03:10Z</time>
      </trkpt>
      <trkpt lat="47.37413" lon="-0.4629">
        <ele>45.3192139</ele>
        <time>2011-09-04T09:03:18Z</time>
      </trkpt>
      <trkpt lat="47.37409" lon="-0.46288">
        <ele>42.4354248</ele>
        <time>2011-09-04T09:03:20Z</time>
      </trkpt>
      <trkpt lat="47.37409" lon="-0.46287">
        <ele>42.9160156</ele>
        <time>2011-09-04T09:03:21Z</time>
      </trkpt>
      <trkpt lat="47.3741" lon="-0.46288">
        <ele>46.2806396</ele>
        <time>2011-09-04T09:03:25Z</time>
      </trkpt>
      <trkpt lat="47.37402" lon="-0.46282">
        <ele>42.9160156</ele>
        <time>2011-09-04T09:03:40Z</time>
      </trkpt>
      <trkpt lat="47.37406" lon="-0.46284">
        <ele>43.8773193</ele>
        <time>2011-09-04T09:03:46Z</time>
      </trkpt>
      <trkpt lat="47.37406" lon="-0.46284">
        <ele>45.7999268</ele>
        <time>2011-09-04T09:03:52Z</time>
      </trkpt>
      <trkpt lat="47.37399" lon="-0.46276">
        <ele>41.9547119</ele>
        <time>2011-09-04T09:03:59Z</time>
      </trkpt>
      <trkpt lat="47.37408" lon="-0.46286">
        <ele>45.7999268</ele>
        <time>2011-09-04T09:04:05Z</time>
      </trkpt>
      <trkpt lat="47.37391" lon="-0.46268">
        <ele>30.8995361</ele>
        <time>2011-09-04T09:04:18Z</time>
      </trkpt>
      <trkpt lat="47.37393" lon="-0.46271">
        <ele>29.4575195</ele>
        <time>2011-09-04T09:04:23Z</time>
      </trkpt>
      <trkpt lat="47.37399" lon="-0.46279">
        <ele>42.4354248</ele>
        <time>2011-09-04T09:04:42Z</time>
      </trkpt>
      <trkpt lat="47.37405" lon="-0.46285">
        <ele>46.7612305</ele>
        <time>2011-09-04T09:04:53Z</time>
      </trkpt>
      <trkpt lat="47.37409" lon="-0.46279">
        <ele>51.0871582</ele>
        <time>2011-09-04T09:05:00Z</time>
      </trkpt>
      <trkpt lat="47.37413" lon="-0.46284">
        <ele>54.4517822</ele>
        <time>2011-09-04T09:05:06Z</time>
      </trkpt>
      <trkpt lat="47.3741" lon="-0.46288">
        <ele>44.3580322</ele>
        <time>2011-09-04T09:05:12Z</time>
      </trkpt>
      <trkpt lat="47.3741" lon="-0.46288">
        <ele>36.6674805</ele>
        <time>2011-09-04T09:05:19Z</time>
      </trkpt>
      <trkpt lat="47.37421" lon="-0.46295">
        <ele>40.5128174</ele>
        <time>2011-09-04T09:05:30Z</time>
      </trkpt>
      <trkpt lat="47.37428" lon="-0.46293">
        <ele>54.932373</ele>
        <time>2011-09-04T09:05:36Z</time>
      </trkpt>
      <trkpt lat="47.37425" lon="-0.46287">
        <ele>55.4130859</ele>
        <time>2011-09-04T09:05:49Z</time>
      </trkpt>
      <trkpt lat="47.37425" lon="-0.46278">
        <ele>64.0650635</ele>
        <time>2011-09-04T09:05:57Z</time>
      </trkpt>
      <trkpt lat="47.37426" lon="-0.46277">
        <ele>62.6229248</ele>
        <time>2011-09-04T09:06:05Z</time>
      </trkpt>
      <trkpt lat="47.37424" lon="-0.46279">
        <ele>67.4296875</ele>
        <time>2011-09-04T09:06:10Z</time>
      </trkpt>
      <trkpt lat="47.37422" lon="-0.46281">
        <ele>66.9489746</ele>
        <time>2011-09-04T09:06:15Z</time>
      </trkpt>
      <trkpt lat="47.37418" lon="-0.46282">
        <ele>63.1036377</ele>
        <time>2011-09-04T09:06:18Z</time>
      </trkpt>
      <trkpt lat="47.37413" lon="-0.46284">
        <ele>57.8165283</ele>
        <time>2011-09-04T09:06:30Z</time>
      </trkpt>
      <trkpt lat="47.37415" lon="-0.46289">
        <ele>57.3358154</ele>
        <time>2011-09-04T09:06:34Z</time>
      </trkpt>
      <trkpt lat="47.37404" lon="-0.46285">
        <ele>48.68396</ele>
        <time>2011-09-04T09:07:00Z</time>
      </trkpt>
      <trkpt lat="47.37409" lon="-0.46286">
        <ele>49.1645508</ele>
        <time>2011-09-04T09:07:08Z</time>
      </trkpt>
      <trkpt lat="47.37404" lon="-0.46284">
        <ele>43.3966064</ele>
        <time>2011-09-04T09:07:57Z</time>
      </trkpt>
      <trkpt lat="47.3741" lon="-0.46284">
        <ele>53.9711914</ele>
        <time>2011-09-04T09:08:03Z</time>
      </trkpt>
      <trkpt lat="47.37406" lon="-0.46289">
        <ele>56.3745117</ele>
        <time>2011-09-04T09:08:07Z</time>
      </trkpt>
      <trkpt lat="47.37408" lon="-0.46294">
        <ele>58.2971191</ele>
        <time>2011-09-04T09:08:17Z</time>
      </trkpt>
      <trkpt lat="47.37403" lon="-0.4629">
        <ele>55.4130859</ele>
        <time>2011-09-04T09:08:24Z</time>
      </trkpt>
      <trkpt lat="47.37413" lon="-0.46284">
        <ele>61.6617432</ele>
        <time>2011-09-04T09:08:37Z</time>
      </trkpt>
      <trkpt lat="47.37417" lon="-0.46285">
        <ele>65.9876709</ele>
        <time>2011-09-04T09:08:40Z</time>
      </trkpt>
      <trkpt lat="47.37415" lon="-0.4629">
        <ele>68.3908691</ele>
        <time>2011-09-04T09:08:46Z</time>
      </trkpt>
      <trkpt lat="47.37412" lon="-0.46296">
        <ele>65.0263672</ele>
        <time>2011-09-04T09:08:51Z</time>
      </trkpt>
      <trkpt lat="47.37406" lon="-0.46287">
        <ele>56.8551025</ele>
        <time>2011-09-04T09:08:58Z</time>
      </trkpt>
      <trkpt lat="47.37408" lon="-0.46288">
        <ele>50.6065674</ele>
        <time>2011-09-04T09:09:10Z</time>
      </trkpt>
      <trkpt lat="47.37412" lon="-0.4629">
        <ele>53.0097656</ele>
        <time>2011-09-04T09:09:14Z</time>
      </trkpt>
      <trkpt lat="47.37415" lon="-0.46292">
        <ele>53.9711914</ele>
        <time>2011-09-04T09:09:46Z</time>
      </trkpt>
      <trkpt lat="47.3741" lon="-0.46294">
        <ele>53.4904785</ele>
        <time>2011-09-04T09:10:36Z</time>
      </trkpt>
      <trkpt lat="47.37412" lon="-0.46294">
        <ele>57.3358154</ele>
        <time>2011-09-04T09:10:42Z</time>
      </trkpt>
      <trkpt lat="47.37413" lon="-0.46296">
        <ele>53.0097656</ele>
        <time>2011-09-04T09:10:47Z</time>
      </trkpt>
      <trkpt lat="47.37418" lon="-0.46296">
        <ele>52.5291748</ele>
        <time>2011-09-04T09:10:56Z</time>
      </trkpt>
      <trkpt lat="47.37416" lon="-0.46295">
        <ele>51.5678711</ele>
        <time>2011-09-04T09:11:04Z</time>
      </trkpt>
      <trkpt lat="47.37415" lon="-0.46296">
        <ele>42.9160156</ele>
        <time>2011-09-04T09:11:11Z</time>
      </trkpt>
      <trkpt lat="47.37416" lon="-0.46299">
        <ele>35.7060547</ele>
        <time>2011-09-04T09:11:17Z</time>
      </trkpt>
      <trkpt lat="47.37414" lon="-0.46298">
        <ele>25.1317139</ele>
        <time>2011-09-04T09:11:24Z</time>
      </trkpt>
      <trkpt lat="47.37412" lon="-0.46304">
        <ele>16.4797363</ele>
        <time>2011-09-04T09:11:29Z</time>
      </trkpt>
      <trkpt lat="47.37413" lon="-0.46306">
        <ele>19.8443604</ele>
        <time>2011-09-04T09:11:38Z</time>
      </trkpt>
      <trkpt lat="47.37412" lon="-0.46305">
        <ele>20.3249512</ele>
        <time>2011-09-04T09:11:41Z</time>
      </trkpt>
      <trkpt lat="47.37409" lon="-0.46301">
        <ele>34.2641602</ele>
        <time>2011-09-04T09:11:49Z</time>
      </trkpt>
      <trkpt lat="47.37405" lon="-0.46301">
        <ele>33.7834473</ele>
        <time>2011-09-04T09:11:55Z</time>
      </trkpt>
      <trkpt lat="47.37409" lon="-0.46299">
        <ele>37.6286621</ele>
        <time>2011-09-04T09:12:06Z</time>
      </trkpt>
      <trkpt lat="47.37407" lon="-0.46299">
        <ele>32.8222656</ele>
        <time>2011-09-04T09:12:12Z</time>
      </trkpt>
      <trkpt lat="47.37408" lon="-0.463">
        <ele>29.9381104</ele>
        <time>2011-09-04T09:12:18Z</time>
      </trkpt>
      <trkpt lat="47.37404" lon="-0.46292">
        <ele>30.8995361</ele>
        <time>2011-09-04T09:12:32Z</time>
      </trkpt>
      <trkpt lat="47.37404" lon="-0.46296">
        <ele>32.3415527</ele>
        <time>2011-09-04T09:12:38Z</time>
      </trkpt>
      <trkpt lat="47.37398" lon="-0.46295">
        <ele>27.5349121</ele>
        <time>2011-09-04T09:12:43Z</time>
      </trkpt>
      <trkpt lat="47.37398" lon="-0.46288">
        <ele>22.7282715</ele>
        <time>2011-09-04T09:12:47Z</time>
      </trkpt>
      <trkpt lat="47.37399" lon="-0.46288">
        <ele>15.5184326</ele>
        <time>2011-09-04T09:12:57Z</time>
      </trkpt>
      <trkpt lat="47.37392" lon="-0.46283">
        <ele>26.0928955</ele>
        <time>2011-09-04T09:13:03Z</time>
      </trkpt>
      <trkpt lat="47.3739" lon="-0.46288">
        <ele>32.3415527</ele>
        <time>2011-09-04T09:13:07Z</time>
      </trkpt>
      <trkpt lat="47.37397" lon="-0.46296">
        <ele>39.5512695</ele>
        <time>2011-09-04T09:13:13Z</time>
      </trkpt>
      <trkpt lat="47.37392" lon="-0.46291">
        <ele>35.7060547</ele>
        <time>2011-09-04T09:13:17Z</time>
      </trkpt>
      <trkpt lat="47.37391" lon="-0.4629">
        <ele>38.5900879</ele>
        <time>2011-09-04T09:13:19Z</time>
      </trkpt>
      <trkpt lat="47.37387" lon="-0.46295">
        <ele>48.68396</ele>
        <time>2011-09-04T09:13:26Z</time>
      </trkpt>
      <trkpt lat="47.37391" lon="-0.46306">
        <ele>59.2584229</ele>
        <time>2011-09-04T09:13:31Z</time>
      </trkpt>
      <trkpt lat="47.37395" lon="-0.46299">
        <ele>58.2971191</ele>
        <time>2011-09-04T09:13:52Z</time>
      </trkpt>
      <trkpt lat="47.37391" lon="-0.46285">
        <ele>40.0321045</ele>
        <time>2011-09-04T09:14:23Z</time>
      </trkpt>
      <trkpt lat="47.37399" lon="-0.46292">
        <ele>45.7999268</ele>
        <time>2011-09-04T09:14:32Z</time>
      </trkpt>
      <trkpt lat="47.37407" lon="-0.46295">
        <ele>55.8937988</ele>
        <time>2011-09-04T09:14:40Z</time>
      </trkpt>
      <trkpt lat="47.37413" lon="-0.463">
        <ele>60.7003174</ele>
        <time>2011-09-04T09:14:48Z</time>
      </trkpt>
      <trkpt lat="47.37421" lon="-0.46295">
        <ele>75.1202393</ele>
        <time>2011-09-04T09:14:55Z</time>
      </trkpt>
      <trkpt lat="47.37424" lon="-0.46298">
        <ele>80.4074707</ele>
        <time>2011-09-04T09:15:00Z</time>
      </trkpt>
      <trkpt lat="47.37418" lon="-0.46294">
        <ele>84.2526855</ele>
        <time>2011-09-04T09:15:06Z</time>
      </trkpt>
      <trkpt lat="47.37413" lon="-0.46292">
        <ele>85.2139893</ele>
        <time>2011-09-04T09:15:10Z</time>
      </trkpt>
      <trkpt lat="47.37406" lon="-0.46293">
        <ele>85.2139893</ele>
        <time>2011-09-04T09:15:16Z</time>
      </trkpt>
      <trkpt lat="47.37404" lon="-0.4629">
        <ele>70.3134766</ele>
        <time>2011-09-04T09:15:30Z</time>
      </trkpt>
      <trkpt lat="47.37406" lon="-0.46298">
        <ele>66.9489746</ele>
        <time>2011-09-04T09:15:36Z</time>
      </trkpt>
      <trkpt lat="47.37408" lon="-0.46297">
        <ele>68.871582</ele>
        <time>2011-09-04T09:15:43Z</time>
      </trkpt>
      <trkpt lat="47.37406" lon="-0.46291">
        <ele>58.77771</ele>
        <time>2011-09-04T09:16:04Z</time>
      </trkpt>
      <trkpt lat="47.37401" lon="-0.46288">
        <ele>56.3745117</ele>
        <time>2011-09-04T09:16:19Z</time>
      </trkpt>
      <trkpt lat="47.37419" lon="-0.46288">
        <ele>68.871582</ele>
        <time>2011-09-04T09:17:04Z</time>
      </trkpt>
      <trkpt lat="47.37423" lon="-0.46288">
        <ele>73.6782227</ele>
        <time>2011-09-04T09:17:20Z</time>
      </trkpt>
      <trkpt lat="47.37419" lon="-0.46288">
        <ele>67.4296875</ele>
        <time>2011-09-04T09:17:27Z</time>
      </trkpt>
      <trkpt lat="47.37412" lon="-0.46293">
        <ele>47.7225342</ele>
        <time>2011-09-04T09:17:47Z</time>
      </trkpt>
      <trkpt lat="47.37416" lon="-0.46295">
        <ele>47.7225342</ele>
        <time>2011-09-04T09:18:01Z</time>
      </trkpt>
      <trkpt lat="47.37419" lon="-0.46293">
        <ele>51.5678711</ele>
        <time>2011-09-04T09:18:09Z</time>
      </trkpt>
      <trkpt lat="47.37412" lon="-0.46289">
        <ele>53.4904785</ele>
        <time>2011-09-04T09:18:20Z</time>
      </trkpt>
      <trkpt lat="47.37416" lon="-0.46291">
        <ele>47.2418213</ele>
        <time>2011-09-04T09:18:25Z</time>
      </trkpt>
      <trkpt lat="47.3741" lon="-0.46285">
        <ele>48.68396</ele>
        <time>2011-09-04T09:18:32Z</time>
      </trkpt>
      <trkpt lat="47.37416" lon="-0.46291">
        <ele>53.9711914</ele>
        <time>2011-09-04T09:18:58Z</time>
      </trkpt>
      <trkpt lat="47.37412" lon="-0.46285">
        <ele>53.4904785</ele>
        <time>2011-09-04T09:19:23Z</time>
      </trkpt>
      <trkpt lat="47.37402" lon="-0.46281">
        <ele>44.3580322</ele>
        <time>2011-09-04T09:19:29Z</time>
      </trkpt>
      <trkpt lat="47.37397" lon="-0.4628">
        <ele>39.0706787</ele>
        <time>2011-09-04T09:19:35Z</time>
      </trkpt>
      <trkpt lat="47.37411" lon="-0.46284">
        <ele>62.142334</ele>
        <time>2011-09-04T09:19:47Z</time>
      </trkpt>
      <trkpt lat="47.3742" lon="-0.46291">
        <ele>70.3134766</ele>
        <time>2011-09-04T09:19:51Z</time>
      </trkpt>
      <trkpt lat="47.37424" lon="-0.46293">
        <ele>78.0040283</ele>
        <time>2011-09-04T09:19:56Z</time>
      </trkpt>
      <trkpt lat="47.37424" lon="-0.46291">
        <ele>85.6945801</ele>
        <time>2011-09-04T09:20:01Z</time>
      </trkpt>
      <trkpt lat="47.37427" lon="-0.46292">
        <ele>93.8658447</ele>
        <time>2011-09-04T09:20:04Z</time>
      </trkpt>
      <trkpt lat="47.3743" lon="-0.46286">
        <ele>98.6724854</ele>
        <time>2011-09-04T09:20:12Z</time>
      </trkpt>
      <trkpt lat="47.37435" lon="-0.46286">
        <ele>101.5563965</ele>
        <time>2011-09-04T09:20:19Z</time>
      </trkpt>
      <trkpt lat="47.37438" lon="-0.46288">
        <ele>104.4404297</ele>
        <time>2011-09-04T09:20:23Z</time>
      </trkpt>
      <trkpt lat="47.37434" lon="-0.46286">
        <ele>105.4017334</ele>
        <time>2011-09-04T09:20:30Z</time>
      </trkpt>
      <trkpt lat="47.37438" lon="-0.46286">
        <ele>107.3243408</ele>
        <time>2011-09-04T09:20:36Z</time>
      </trkpt>
      <trkpt lat="47.3743" lon="-0.46284">
        <ele>101.0756836</ele>
        <time>2011-09-04T09:20:47Z</time>
      </trkpt>
      <trkpt lat="47.3742" lon="-0.4628">
        <ele>99.6337891</ele>
        <time>2011-09-04T09:21:06Z</time>
      </trkpt>
      <trkpt lat="47.37415" lon="-0.46285">
        <ele>92.904541</ele>
        <time>2011-09-04T09:21:14Z</time>
      </trkpt>
      <trkpt lat="47.37415" lon="-0.46287">
        <ele>93.3851318</ele>
        <time>2011-09-04T09:21:15Z</time>
      </trkpt>
      <trkpt lat="47.37412" lon="-0.46289">
        <ele>89.0593262</ele>
        <time>2011-09-04T09:21:17Z</time>
      </trkpt>
      <trkpt lat="47.37409" lon="-0.46291">
        <ele>84.7333984</ele>
        <time>2011-09-04T09:21:22Z</time>
      </trkpt>
      <trkpt lat="47.37406" lon="-0.46287">
        <ele>66.9489746</ele>
        <time>2011-09-04T09:21:32Z</time>
      </trkpt>
      <trkpt lat="47.37405" lon="-0.46286">
        <ele>71.7554932</ele>
        <time>2011-09-04T09:22:14Z</time>
      </trkpt>
      <trkpt lat="47.37409" lon="-0.46278">
        <ele>68.871582</ele>
        <time>2011-09-04T09:22:20Z</time>
      </trkpt>
      <trkpt lat="47.37412" lon="-0.46272">
        <ele>66.4682617</ele>
        <time>2011-09-04T09:22:26Z</time>
      </trkpt>
      <trkpt lat="47.37414" lon="-0.46284">
        <ele>61.6617432</ele>
        <time>2011-09-04T09:22:38Z</time>
      </trkpt>
      <trkpt lat="47.37417" lon="-0.46286">
        <ele>64.0650635</ele>
        <time>2011-09-04T09:22:46Z</time>
      </trkpt>
      <trkpt lat="47.37415" lon="-0.46294">
        <ele>53.9711914</ele>
        <time>2011-09-04T09:23:27Z</time>
      </trkpt>
      <trkpt lat="47.37412" lon="-0.46291">
        <ele>48.2033691</ele>
        <time>2011-09-04T09:23:31Z</time>
      </trkpt>
      <trkpt lat="47.37411" lon="-0.46289">
        <ele>47.7225342</ele>
        <time>2011-09-04T09:23:33Z</time>
      </trkpt>
      <trkpt lat="47.37412" lon="-0.46285">
        <ele>53.9711914</ele>
        <time>2011-09-04T09:23:36Z</time>
      </trkpt>
      <trkpt lat="47.37412" lon="-0.46278">
        <ele>53.9711914</ele>
        <time>2011-09-04T09:23:44Z</time>
      </trkpt>
      <trkpt lat="47.37413" lon="-0.46274">
        <ele>57.3358154</ele>
        <time>2011-09-04T09:23:49Z</time>
      </trkpt>
      <trkpt lat="47.37409" lon="-0.46273">
        <ele>53.0097656</ele>
        <time>2011-09-04T09:23:57Z</time>
      </trkpt>
      <trkpt lat="47.37404" lon="-0.46272">
        <ele>51.0871582</ele>
        <time>2011-09-04T09:24:03Z</time>
      </trkpt>
      <trkpt lat="47.37401" lon="-0.4627">
        <ele>50.6065674</ele>
        <time>2011-09-04T09:24:08Z</time>
      </trkpt>
      <trkpt lat="47.374" lon="-0.46269">
        <ele>51.0871582</ele>
        <time>2011-09-04T09:24:09Z</time>
      </trkpt>
      <trkpt lat="47.37393" lon="-0.46266">
        <ele>50.6065674</ele>
        <time>2011-09-04T09:24:14Z</time>
      </trkpt>
      <trkpt lat="47.3739" lon="-0.46265">
        <ele>49.6452637</ele>
        <time>2011-09-04T09:24:19Z</time>
      </trkpt>
      <trkpt lat="47.3739" lon="-0.46265">
        <ele>50.1259766</ele>
        <time>2011-09-04T09:24:25Z</time>
      </trkpt>
      <trkpt lat="47.3739" lon="-0.46263">
        <ele>50.6065674</ele>
        <time>2011-09-04T09:24:32Z</time>
      </trkpt>
      <trkpt lat="47.37389" lon="-0.46268">
        <ele>50.6065674</ele>
        <time>2011-09-04T09:24:38Z</time>
      </trkpt>
      <trkpt lat="47.37388" lon="-0.46269">
        <ele>51.0871582</ele>
        <time>2011-09-04T09:24:46Z</time>
      </trkpt>
      <trkpt lat="47.37387" lon="-0.46269">
        <ele>50.6065674</ele>
        <time>2011-09-04T09:24:49Z</time>
      </trkpt>
      <trkpt lat="47.37387" lon="-0.4627">
        <ele>50.1259766</ele>
        <time>2011-09-04T09:24:50Z</time>
      </trkpt>
      <trkpt lat="47.37386" lon="-0.46271">
        <ele>49.6452637</ele>
        <time>2011-09-04T09:24:54Z</time>
      </trkpt>
      <trkpt lat="47.37386" lon="-0.46273">
        <ele>50.1259766</ele>
        <time>2011-09-04T09:25:00Z</time>
      </trkpt>
      <trkpt lat="47.37386" lon="-0.46273">
        <ele>50.6065674</ele>
        <time>2011-09-04T09:25:04Z</time>
      </trkpt>
      <trkpt lat="47.37386" lon="-0.46276">
        <ele>50.6065674</ele>
        <time>2011-09-04T09:25:16Z</time>
      </trkpt>
      <trkpt lat="47.37385" lon="-0.46275">
        <ele>50.1259766</ele>
        <time>2011-09-04T09:25:30Z</time>
      </trkpt>
      <trkpt lat="47.37384" lon="-0.46275">
        <ele>50.6065674</ele>
        <time>2011-09-04T09:25:35Z</time>
      </trkpt>
      <trkpt lat="47.37383" lon="-0.4628">
        <ele>50.6065674</ele>
        <time>2011-09-04T09:25:41Z</time>
      </trkpt>
      <trkpt lat="47.37384" lon="-0.46281">
        <ele>50.1259766</ele>
        <time>2011-09-04T09:25:42Z</time>
      </trkpt>
      <trkpt lat="47.37383" lon="-0.46288">
        <ele>49.6452637</ele>
        <time>2011-09-04T09:25:45Z</time>
      </trkpt>
      <trkpt lat="47.37388" lon="-0.46302">
        <ele>49.1645508</ele>
        <time>2011-09-04T09:25:49Z</time>
      </trkpt>
      <trkpt lat="47.37389" lon="-0.46305">
        <ele>49.6452637</ele>
        <time>2011-09-04T09:25:50Z</time>
      </trkpt>
      <trkpt lat="47.37387" lon="-0.46313">
        <ele>49.6452637</ele>
        <time>2011-09-04T09:25:53Z</time>
      </trkpt>
      <trkpt lat="47.3738" lon="-0.46314">
        <ele>49.6452637</ele>
        <time>2011-09-04T09:25:56Z</time>
      </trkpt>
      <trkpt lat="47.37366" lon="-0.46312">
        <ele>49.1645508</ele>
        <time>2011-09-04T09:26:01Z</time>
      </trkpt>
      <trkpt lat="47.37364" lon="-0.46331">
        <ele>49.1645508</ele>
        <time>2011-09-04T09:26:05Z</time>
      </trkpt>
      <trkpt lat="47.37376" lon="-0.46364">
        <ele>48.68396</ele>
        <time>2011-09-04T09:26:10Z</time>
      </trkpt>
      <trkpt lat="47.37387" lon="-0.464">
        <ele>48.2033691</ele>
        <time>2011-09-04T09:26:15Z</time>
      </trkpt>
      <trkpt lat="47.37378" lon="-0.46419">
        <ele>48.2033691</ele>
        <time>2011-09-04T09:26:18Z</time>
      </trkpt>
      <trkpt lat="47.3737" lon="-0.4643">
        <ele>48.2033691</ele>
        <time>2011-09-04T09:26:20Z</time>
      </trkpt>
      <trkpt lat="47.37363" lon="-0.46441">
        <ele>48.2033691</ele>
        <time>2011-09-04T09:26:22Z</time>
      </trkpt>
      <trkpt lat="47.37335" lon="-0.46464">
        <ele>48.68396</ele>
        <time>2011-09-04T09:26:28Z</time>
      </trkpt>
      <trkpt lat="47.37321" lon="-0.46471">
        <ele>46.7612305</ele>
        <time>2011-09-04T09:26:31Z</time>
      </trkpt>
      <trkpt lat="47.3729" lon="-0.46486">
        <ele>45.7999268</ele>
        <time>2011-09-04T09:26:37Z</time>
      </trkpt>
      <trkpt lat="47.37279" lon="-0.46508">
        <ele>45.7999268</ele>
        <time>2011-09-04T09:26:41Z</time>
      </trkpt>
      <trkpt lat="47.37266" lon="-0.46516">
        <ele>46.2806396</ele>
        <time>2011-09-04T09:26:44Z</time>
      </trkpt>
      <trkpt lat="47.37253" lon="-0.46506">
        <ele>46.7612305</ele>
        <time>2011-09-04T09:26:47Z</time>
      </trkpt>
      <trkpt lat="47.37244" lon="-0.46505">
        <ele>47.2418213</ele>
        <time>2011-09-04T09:26:49Z</time>
      </trkpt>
      <trkpt lat="47.37227" lon="-0.46506">
        <ele>47.2418213</ele>
        <time>2011-09-04T09:26:53Z</time>
      </trkpt>
      <trkpt lat="47.37216" lon="-0.46508">
        <ele>47.7225342</ele>
        <time>2011-09-04T09:26:56Z</time>
      </trkpt>
      <trkpt lat="47.37194" lon="-0.46519">
        <ele>49.1645508</ele>
        <time>2011-09-04T09:27:03Z</time>
      </trkpt>
      <trkpt lat="47.37171" lon="-0.46537">
        <ele>50.6065674</ele>
        <time>2011-09-04T09:27:10Z</time>
      </trkpt>
      <trkpt lat="47.37155" lon="-0.4655">
        <ele>52.048584</ele>
        <time>2011-09-04T09:27:15Z</time>
      </trkpt>
      <trkpt lat="47.37138" lon="-0.46562">
        <ele>53.0097656</ele>
        <time>2011-09-04T09:27:21Z</time>
      </trkpt>
      <trkpt lat="47.37125" lon="-0.46573">
        <ele>53.0097656</ele>
        <time>2011-09-04T09:27:26Z</time>
      </trkpt>
      <trkpt lat="47.37106" lon="-0.46589">
        <ele>52.5291748</ele>
        <time>2011-09-04T09:27:33Z</time>
      </trkpt>
      <trkpt lat="47.37085" lon="-0.46606">
        <ele>52.048584</ele>
        <time>2011-09-04T09:27:41Z</time>
      </trkpt>
      <trkpt lat="47.37064" lon="-0.46622">
        <ele>53.9711914</ele>
        <time>2011-09-04T09:27:49Z</time>
      </trkpt>
      <trkpt lat="47.37048" lon="-0.46636">
        <ele>54.4517822</ele>
        <time>2011-09-04T09:27:55Z</time>
      </trkpt>
      <trkpt lat="47.3703" lon="-0.46646">
        <ele>54.932373</ele>
        <time>2011-09-04T09:28:01Z</time>
      </trkpt>
      <trkpt lat="47.37011" lon="-0.46669">
        <ele>55.4130859</ele>
        <time>2011-09-04T09:28:10Z</time>
      </trkpt>
      <trkpt lat="47.37016" lon="-0.46683">
        <ele>56.3745117</ele>
        <time>2011-09-04T09:28:16Z</time>
      </trkpt>
      <trkpt lat="47.37019" lon="-0.46697">
        <ele>55.4130859</ele>
        <time>2011-09-04T09:28:22Z</time>
      </trkpt>
      <trkpt lat="47.37021" lon="-0.467">
        <ele>55.8937988</ele>
        <time>2011-09-04T09:28:27Z</time>
      </trkpt>
      <trkpt lat="47.37021" lon="-0.46701">
        <ele>56.8551025</ele>
        <time>2011-09-04T09:28:30Z</time>
      </trkpt>
      <trkpt lat="47.37021" lon="-0.46701">
        <ele>55.8937988</ele>
        <time>2011-09-04T09:28:31Z</time>
      </trkpt>
      <trkpt lat="47.37023" lon="-0.46702">
        <ele>56.8551025</ele>
        <time>2011-09-04T09:28:41Z</time>
      </trkpt>
      <trkpt lat="47.37024" lon="-0.46702">
        <ele>55.8937988</ele>
        <time>2011-09-04T09:28:45Z</time>
      </trkpt>
      <trkpt lat="47.37025" lon="-0.46701">
        <ele>55.4130859</ele>
        <time>2011-09-04T09:28:50Z</time>
      </trkpt>
      <trkpt lat="47.37027" lon="-0.46699">
        <ele>55.8937988</ele>
        <time>2011-09-04T09:28:56Z</time>
      </trkpt>
      <trkpt lat="47.37026" lon="-0.46699">
        <ele>56.3745117</ele>
        <time>2011-09-04T09:28:59Z</time>
      </trkpt>
      <trkpt lat="47.37026" lon="-0.46698">
        <ele>56.8551025</ele>
        <time>2011-09-04T09:29:01Z</time>
      </trkpt>
      <trkpt lat="47.37024" lon="-0.46695">
        <ele>60.2197266</ele>
        <time>2011-09-04T09:29:04Z</time>
      </trkpt>
      <trkpt lat="47.37024" lon="-0.46692">
        <ele>61.6617432</ele>
        <time>2011-09-04T09:29:08Z</time>
      </trkpt>
      <trkpt lat="47.37021" lon="-0.46692">
        <ele>64.0650635</ele>
        <time>2011-09-04T09:29:13Z</time>
      </trkpt>
      <trkpt lat="47.37021" lon="-0.46695">
        <ele>64.0650635</ele>
        <time>2011-09-04T09:29:16Z</time>
      </trkpt>
      <trkpt lat="47.37022" lon="-0.46698">
        <ele>66.4682617</ele>
        <time>2011-09-04T09:29:25Z</time>
      </trkpt>
      <trkpt lat="47.37021" lon="-0.46693">
        <ele>66.9489746</ele>
        <time>2011-09-04T09:29:31Z</time>
      </trkpt>
      <trkpt lat="47.37022" lon="-0.46684">
        <ele>65.9876709</ele>
        <time>2011-09-04T09:29:36Z</time>
      </trkpt>
      <trkpt lat="47.37024" lon="-0.46681">
        <ele>65.5070801</ele>
        <time>2011-09-04T09:29:44Z</time>
      </trkpt>
      <trkpt lat="47.37024" lon="-0.46677">
        <ele>61.6617432</ele>
        <time>2011-09-04T09:30:02Z</time>
      </trkpt>
      <trkpt lat="47.37023" lon="-0.46676">
        <ele>63.5843506</ele>
        <time>2011-09-04T09:30:11Z</time>
      </trkpt>
      <trkpt lat="47.37027" lon="-0.46677">
        <ele>62.142334</ele>
        <time>2011-09-04T09:30:23Z</time>
      </trkpt>
      <trkpt lat="47.37029" lon="-0.46675">
        <ele>64.0650635</ele>
        <time>2011-09-04T09:30:30Z</time>
      </trkpt>
      <trkpt lat="47.37031" lon="-0.4668">
        <ele>65.0263672</ele>
        <time>2011-09-04T09:30:55Z</time>
      </trkpt>
      <trkpt lat="47.3703" lon="-0.46682">
        <ele>66.9489746</ele>
        <time>2011-09-04T09:30:58Z</time>
      </trkpt>
      <trkpt lat="47.37027" lon="-0.46677">
        <ele>65.0263672</ele>
        <time>2011-09-04T09:31:06Z</time>
      </trkpt>
      <trkpt lat="47.37021" lon="-0.46678">
        <ele>59.2584229</ele>
        <time>2011-09-04T09:31:22Z</time>
      </trkpt>
      <trkpt lat="47.37019" lon="-0.4668">
        <ele>60.7003174</ele>
        <time>2011-09-04T09:31:34Z</time>
      </trkpt>
      <trkpt lat="47.37024" lon="-0.46686">
        <ele>59.2584229</ele>
        <time>2011-09-04T09:31:41Z</time>
      </trkpt>
      <trkpt lat="47.37024" lon="-0.46687">
        <ele>59.7391357</ele>
        <time>2011-09-04T09:31:42Z</time>
      </trkpt>
      <trkpt lat="47.37024" lon="-0.46691">
        <ele>63.5843506</ele>
        <time>2011-09-04T09:31:49Z</time>
      </trkpt>
      <trkpt lat="47.37027" lon="-0.4669">
        <ele>61.6617432</ele>
        <time>2011-09-04T09:31:55Z</time>
      </trkpt>
      <trkpt lat="47.37026" lon="-0.46697">
        <ele>64.0650635</ele>
        <time>2011-09-04T09:32:03Z</time>
      </trkpt>
      <trkpt lat="47.37029" lon="-0.46704">
        <ele>65.0263672</ele>
        <time>2011-09-04T09:32:09Z</time>
      </trkpt>
      <trkpt lat="47.37027" lon="-0.46703">
        <ele>62.6229248</ele>
        <time>2011-09-04T09:32:19Z</time>
      </trkpt>
      <trkpt lat="47.37022" lon="-0.46706">
        <ele>61.6617432</ele>
        <time>2011-09-04T09:32:25Z</time>
      </trkpt>
      <trkpt lat="47.37019" lon="-0.4671">
        <ele>67.4296875</ele>
        <time>2011-09-04T09:32:32Z</time>
      </trkpt>
      <trkpt lat="47.37018" lon="-0.46717">
        <ele>69.3522949</ele>
        <time>2011-09-04T09:32:39Z</time>
      </trkpt>
      <trkpt lat="47.3701" lon="-0.46723">
        <ele>71.7554932</ele>
        <time>2011-09-04T09:33:02Z</time>
      </trkpt>
      <trkpt lat="47.37013" lon="-0.46727">
        <ele>68.871582</ele>
        <time>2011-09-04T09:33:06Z</time>
      </trkpt>
      <trkpt lat="47.37014" lon="-0.4673">
        <ele>68.3908691</ele>
        <time>2011-09-04T09:33:10Z</time>
      </trkpt>
      <trkpt lat="47.37026" lon="-0.46724">
        <ele>56.3745117</ele>
        <time>2011-09-04T09:33:26Z</time>
      </trkpt>
      <trkpt lat="47.3703" lon="-0.46723">
        <ele>49.6452637</ele>
        <time>2011-09-04T09:33:31Z</time>
      </trkpt>
      <trkpt lat="47.37038" lon="-0.46719">
        <ele>36.6674805</ele>
        <time>2011-09-04T09:33:35Z</time>
      </trkpt>
      <trkpt lat="47.37038" lon="-0.46716">
        <ele>33.3028564</ele>
        <time>2011-09-04T09:33:40Z</time>
      </trkpt>
      <trkpt lat="47.37022" lon="-0.46735">
        <ele>55.4130859</ele>
        <time>2011-09-04T09:33:55Z</time>
      </trkpt>
      <trkpt lat="47.37024" lon="-0.4674">
        <ele>58.77771</ele>
        <time>2011-09-04T09:34:00Z</time>
      </trkpt>
      <trkpt lat="47.37025" lon="-0.46743">
        <ele>60.2197266</ele>
        <time>2011-09-04T09:34:05Z</time>
      </trkpt>
      <trkpt lat="47.37027" lon="-0.46743">
        <ele>61.6617432</ele>
        <time>2011-09-04T09:34:08Z</time>
      </trkpt>
      <trkpt lat="47.37022" lon="-0.46751">
        <ele>67.9102783</ele>
        <time>2011-09-04T09:34:23Z</time>
      </trkpt>
      <trkpt lat="47.37026" lon="-0.46757">
        <ele>63.1036377</ele>
        <time>2011-09-04T09:34:33Z</time>
      </trkpt>
      <trkpt lat="47.37029" lon="-0.46755">
        <ele>58.77771</ele>
        <time>2011-09-04T09:34:36Z</time>
      </trkpt>
      <trkpt lat="47.37028" lon="-0.46749">
        <ele>57.8165283</ele>
        <time>2011-09-04T09:34:43Z</time>
      </trkpt>
      <trkpt lat="47.37018" lon="-0.46748">
        <ele>68.3908691</ele>
        <time>2011-09-04T09:34:54Z</time>
      </trkpt>
      <trkpt lat="47.37012" lon="-0.46757">
        <ele>76.0814209</ele>
        <time>2011-09-04T09:35:09Z</time>
      </trkpt>
      <trkpt lat="47.37011" lon="-0.46757">
        <ele>77.5234375</ele>
        <time>2011-09-04T09:35:17Z</time>
      </trkpt>
      <trkpt lat="47.37006" lon="-0.46753">
        <ele>84.2526855</ele>
        <time>2011-09-04T09:35:36Z</time>
      </trkpt>
      <trkpt lat="47.37007" lon="-0.46751">
        <ele>78.9654541</ele>
        <time>2011-09-04T09:35:42Z</time>
      </trkpt>
      <trkpt lat="47.37008" lon="-0.46745">
        <ele>76.5621338</ele>
        <time>2011-09-04T09:35:54Z</time>
      </trkpt>
      <trkpt lat="47.37017" lon="-0.46746">
        <ele>70.7941895</ele>
        <time>2011-09-04T09:36:01Z</time>
      </trkpt>
      <trkpt lat="47.3702" lon="-0.46746">
        <ele>68.3908691</ele>
        <time>2011-09-04T09:36:04Z</time>
      </trkpt>
      <trkpt lat="47.37021" lon="-0.46742">
        <ele>69.8328857</ele>
        <time>2011-09-04T09:36:10Z</time>
      </trkpt>
      <trkpt lat="47.37021" lon="-0.46737">
        <ele>68.3908691</ele>
        <time>2011-09-04T09:36:16Z</time>
      </trkpt>
      <trkpt lat="47.37021" lon="-0.46731">
        <ele>64.0650635</ele>
        <time>2011-09-04T09:36:22Z</time>
      </trkpt>
      <trkpt lat="47.37018" lon="-0.46726">
        <ele>61.6617432</ele>
        <time>2011-09-04T09:36:27Z</time>
      </trkpt>
      <trkpt lat="47.37018" lon="-0.46722">
        <ele>61.6617432</ele>
        <time>2011-09-04T09:36:31Z</time>
      </trkpt>
      <trkpt lat="47.37017" lon="-0.46717">
        <ele>61.1810303</ele>
        <time>2011-09-04T09:36:36Z</time>
      </trkpt>
      <trkpt lat="47.37014" lon="-0.46712">
        <ele>59.2584229</ele>
        <time>2011-09-04T09:36:42Z</time>
      </trkpt>
      <trkpt lat="47.37009" lon="-0.46713">
        <ele>58.2971191</ele>
        <time>2011-09-04T09:36:47Z</time>
      </trkpt>
      <trkpt lat="47.37006" lon="-0.46718">
        <ele>56.3745117</ele>
        <time>2011-09-04T09:36:51Z</time>
      </trkpt>
      <trkpt lat="47.37002" lon="-0.46721">
        <ele>58.2971191</ele>
        <time>2011-09-04T09:36:56Z</time>
      </trkpt>
      <trkpt lat="47.37003" lon="-0.46731">
        <ele>62.142334</ele>
        <time>2011-09-04T09:37:12Z</time>
      </trkpt>
      <trkpt lat="47.37002" lon="-0.46732">
        <ele>64.5456543</ele>
        <time>2011-09-04T09:37:17Z</time>
      </trkpt>
      <trkpt lat="47.36999" lon="-0.46733">
        <ele>65.9876709</ele>
        <time>2011-09-04T09:37:22Z</time>
      </trkpt>
      <trkpt lat="47.37" lon="-0.46732">
        <ele>64.5456543</ele>
        <time>2011-09-04T09:37:23Z</time>
      </trkpt>
      <trkpt lat="47.37" lon="-0.46735">
        <ele>64.5456543</ele>
        <time>2011-09-04T09:37:26Z</time>
      </trkpt>
      <trkpt lat="47.36997" lon="-0.46733">
        <ele>62.142334</ele>
        <time>2011-09-04T09:37:30Z</time>
      </trkpt>
      <trkpt lat="47.36984" lon="-0.46727">
        <ele>60.7003174</ele>
        <time>2011-09-04T09:37:40Z</time>
      </trkpt>
      <trkpt lat="47.36979" lon="-0.46724">
        <ele>60.2197266</ele>
        <time>2011-09-04T09:37:44Z</time>
      </trkpt>
      <trkpt lat="47.36977" lon="-0.46723">
        <ele>60.2197266</ele>
        <time>2011-09-04T09:37:46Z</time>
      </trkpt>
      <trkpt lat="47.36966" lon="-0.46717">
        <ele>59.2584229</ele>
        <time>2011-09-04T09:37:55Z</time>
      </trkpt>
      <trkpt lat="47.36983" lon="-0.46755">
        <ele>66.4682617</ele>
        <time>2011-09-04T09:38:01Z</time>
      </trkpt>
      <trkpt lat="47.3698" lon="-0.46757">
        <ele>62.6229248</ele>
        <time>2011-09-04T09:38:07Z</time>
      </trkpt>
      <trkpt lat="47.36981" lon="-0.46759">
        <ele>68.3908691</ele>
        <time>2011-09-04T09:38:12Z</time>
      </trkpt>
      <trkpt lat="47.36977" lon="-0.46765">
        <ele>75.6008301</ele>
        <time>2011-09-04T09:38:16Z</time>
      </trkpt>
      <trkpt lat="47.36976" lon="-0.46765">
        <ele>78.0040283</ele>
        <time>2011-09-04T09:38:20Z</time>
      </trkpt>
      <trkpt lat="47.36974" lon="-0.46765">
        <ele>70.7941895</ele>
        <time>2011-09-04T09:38:25Z</time>
      </trkpt>
      <trkpt lat="47.36982" lon="-0.4676">
        <ele>63.5843506</ele>
        <time>2011-09-04T09:38:30Z</time>
      </trkpt>
      <trkpt lat="47.36994" lon="-0.46757">
        <ele>61.1810303</ele>
        <time>2011-09-04T09:38:36Z</time>
      </trkpt>
      <trkpt lat="47.37001" lon="-0.46763">
        <ele>54.4517822</ele>
        <time>2011-09-04T09:38:43Z</time>
      </trkpt>
      <trkpt lat="47.37006" lon="-0.46768">
        <ele>50.1259766</ele>
        <time>2011-09-04T09:38:49Z</time>
      </trkpt>
      <trkpt lat="47.36991" lon="-0.46752">
        <ele>49.6452637</ele>
        <time>2011-09-04T09:46:35Z</time>
      </trkpt>
      <trkpt lat="47.3697" lon="-0.46759">
        <ele>85.2139893</ele>
        <time>2011-09-04T09:46:40Z</time>
      </trkpt>
      <trkpt lat="47.36971" lon="-0.46759">
        <ele>80.4074707</ele>
        <time>2011-09-04T09:46:41Z</time>
      </trkpt>
      <trkpt lat="47.36973" lon="-0.46757">
        <ele>72.2362061</ele>
        <time>2011-09-04T09:46:44Z</time>
      </trkpt>
      <trkpt lat="47.36975" lon="-0.46748">
        <ele>66.4682617</ele>
        <time>2011-09-04T09:46:50Z</time>
      </trkpt>
      <trkpt lat="47.36974" lon="-0.46746">
        <ele>69.8328857</ele>
        <time>2011-09-04T09:46:55Z</time>
      </trkpt>
      <trkpt lat="47.36981" lon="-0.46736">
        <ele>65.9876709</ele>
        <time>2011-09-04T09:46:59Z</time>
      </trkpt>
      <trkpt lat="47.36987" lon="-0.4673">
        <ele>64.0650635</ele>
        <time>2011-09-04T09:47:05Z</time>
      </trkpt>
      <trkpt lat="47.36989" lon="-0.46728">
        <ele>64.5456543</ele>
        <time>2011-09-04T09:47:11Z</time>
      </trkpt>
      <trkpt lat="47.36989" lon="-0.46727">
        <ele>64.0650635</ele>
        <time>2011-09-04T09:47:16Z</time>
      </trkpt>
      <trkpt lat="47.36989" lon="-0.46727">
        <ele>64.0650635</ele>
        <time>2011-09-04T09:47:19Z</time>
      </trkpt>
      <trkpt lat="47.36998" lon="-0.46727">
        <ele>59.2584229</ele>
        <time>2011-09-04T09:47:41Z</time>
      </trkpt>
      <trkpt lat="47.36998" lon="-0.46721">
        <ele>62.142334</ele>
        <time>2011-09-04T09:47:46Z</time>
      </trkpt>
      <trkpt lat="47.37004" lon="-0.46716">
        <ele>63.1036377</ele>
        <time>2011-09-04T09:47:53Z</time>
      </trkpt>
      <trkpt lat="47.37007" lon="-0.46713">
        <ele>64.0650635</ele>
        <time>2011-09-04T09:47:59Z</time>
      </trkpt>
      <trkpt lat="47.37012" lon="-0.46709">
        <ele>65.0263672</ele>
        <time>2011-09-04T09:48:03Z</time>
      </trkpt>
      <trkpt lat="47.37016" lon="-0.46705">
        <ele>65.9876709</ele>
        <time>2011-09-04T09:48:06Z</time>
      </trkpt>
      <trkpt lat="47.37017" lon="-0.46705">
        <ele>66.4682617</ele>
        <time>2011-09-04T09:48:08Z</time>
      </trkpt>
      <trkpt lat="47.37017" lon="-0.46703">
        <ele>63.1036377</ele>
        <time>2011-09-04T09:48:15Z</time>
      </trkpt>
      <trkpt lat="47.37016" lon="-0.46697">
        <ele>59.7391357</ele>
        <time>2011-09-04T09:48:21Z</time>
      </trkpt>
      <trkpt lat="47.37014" lon="-0.46674">
        <ele>55.4130859</ele>
        <time>2011-09-04T09:48:26Z</time>
      </trkpt>
      <trkpt lat="47.37013" lon="-0.46669">
        <ele>54.4517822</ele>
        <time>2011-09-04T09:48:27Z</time>
      </trkpt>
      <trkpt lat="47.37021" lon="-0.46656">
        <ele>56.8551025</ele>
        <time>2011-09-04T09:48:31Z</time>
      </trkpt>
      <trkpt lat="47.37032" lon="-0.4666">
        <ele>57.8165283</ele>
        <time>2011-09-04T09:48:35Z</time>
      </trkpt>
      <trkpt lat="47.37042" lon="-0.46682">
        <ele>58.2971191</ele>
        <time>2011-09-04T09:48:42Z</time>
      </trkpt>
      <trkpt lat="47.37049" lon="-0.46708">
        <ele>59.7391357</ele>
        <time>2011-09-04T09:48:50Z</time>
      </trkpt>
      <trkpt lat="47.37056" lon="-0.46741">
        <ele>61.1810303</ele>
        <time>2011-09-04T09:48:59Z</time>
      </trkpt>
      <trkpt lat="47.3705" lon="-0.46757">
        <ele>61.1810303</ele>
        <time>2011-09-04T09:49:04Z</time>
      </trkpt>
      <trkpt lat="47.37051" lon="-0.46776">
        <ele>61.6617432</ele>
        <time>2011-09-04T09:49:10Z</time>
      </trkpt>
      <trkpt lat="47.37057" lon="-0.46792">
        <ele>61.1810303</ele>
        <time>2011-09-04T09:49:17Z</time>
      </trkpt>
      <trkpt lat="47.37063" lon="-0.46811">
        <ele>61.6617432</ele>
        <time>2011-09-04T09:49:23Z</time>
      </trkpt>
      <trkpt lat="47.3706" lon="-0.46823">
        <ele>62.142334</ele>
        <time>2011-09-04T09:49:28Z</time>
      </trkpt>
      <trkpt lat="47.37056" lon="-0.46845">
        <ele>62.142334</ele>
        <time>2011-09-04T09:49:35Z</time>
      </trkpt>
      <trkpt lat="47.37061" lon="-0.46868">
        <ele>62.6229248</ele>
        <time>2011-09-04T09:49:41Z</time>
      </trkpt>
      <trkpt lat="47.3707" lon="-0.46906">
        <ele>62.6229248</ele>
        <time>2011-09-04T09:49:50Z</time>
      </trkpt>
      <trkpt lat="47.37075" lon="-0.46925">
        <ele>62.6229248</ele>
        <time>2011-09-04T09:49:56Z</time>
      </trkpt>
      <trkpt lat="47.37081" lon="-0.46949">
        <ele>61.6617432</ele>
        <time>2011-09-04T09:50:03Z</time>
      </trkpt>
      <trkpt lat="47.37089" lon="-0.46978">
        <ele>60.2197266</ele>
        <time>2011-09-04T09:50:09Z</time>
      </trkpt>
      <trkpt lat="47.37092" lon="-0.46995">
        <ele>59.2584229</ele>
        <time>2011-09-04T09:50:12Z</time>
      </trkpt>
      <trkpt lat="47.3708" lon="-0.4701">
        <ele>58.77771</ele>
        <time>2011-09-04T09:50:16Z</time>
      </trkpt>
      <trkpt lat="47.37064" lon="-0.47016">
        <ele>57.3358154</ele>
        <time>2011-09-04T09:50:20Z</time>
      </trkpt>
      <trkpt lat="47.37032" lon="-0.47033">
        <ele>54.4517822</ele>
        <time>2011-09-04T09:50:26Z</time>
      </trkpt>
      <trkpt lat="47.37029" lon="-0.47036">
        <ele>53.4904785</ele>
        <time>2011-09-04T09:50:27Z</time>
      </trkpt>
      <trkpt lat="47.37023" lon="-0.47054">
        <ele>52.048584</ele>
        <time>2011-09-04T09:50:31Z</time>
      </trkpt>
      <trkpt lat="47.37031" lon="-0.47078">
        <ele>51.0871582</ele>
        <time>2011-09-04T09:50:35Z</time>
      </trkpt>
      <trkpt lat="47.37037" lon="-0.47093">
        <ele>50.6065674</ele>
        <time>2011-09-04T09:50:38Z</time>
      </trkpt>
      <trkpt lat="47.37047" lon="-0.47117">
        <ele>50.1259766</ele>
        <time>2011-09-04T09:50:42Z</time>
      </trkpt>
      <trkpt lat="47.37061" lon="-0.47143">
        <ele>49.1645508</ele>
        <time>2011-09-04T09:50:47Z</time>
      </trkpt>
      <trkpt lat="47.3707" lon="-0.47175">
        <ele>48.2033691</ele>
        <time>2011-09-04T09:50:52Z</time>
      </trkpt>
      <trkpt lat="47.37071" lon="-0.47178">
        <ele>48.2033691</ele>
        <time>2011-09-04T09:50:53Z</time>
      </trkpt>
      <trkpt lat="47.37067" lon="-0.4719">
        <ele>48.2033691</ele>
        <time>2011-09-04T09:50:58Z</time>
      </trkpt>
      <trkpt lat="47.37062" lon="-0.47194">
        <ele>48.2033691</ele>
        <time>2011-09-04T09:51:00Z</time>
      </trkpt>
      <trkpt lat="47.37042" lon="-0.47209">
        <ele>48.68396</ele>
        <time>2011-09-04T09:51:07Z</time>
      </trkpt>
      <trkpt lat="47.37036" lon="-0.47213">
        <ele>48.2033691</ele>
        <time>2011-09-04T09:51:09Z</time>
      </trkpt>
      <trkpt lat="47.37016" lon="-0.47229">
        <ele>45.3192139</ele>
        <time>2011-09-04T09:51:17Z</time>
      </trkpt>
      <trkpt lat="47.37" lon="-0.47241">
        <ele>44.3580322</ele>
        <time>2011-09-04T09:51:22Z</time>
      </trkpt>
      <trkpt lat="47.3698" lon="-0.47253">
        <ele>44.3580322</ele>
        <time>2011-09-04T09:51:27Z</time>
      </trkpt>
      <trkpt lat="47.36957" lon="-0.47267">
        <ele>44.3580322</ele>
        <time>2011-09-04T09:51:33Z</time>
      </trkpt>
      <trkpt lat="47.36927" lon="-0.47279">
        <ele>43.8773193</ele>
        <time>2011-09-04T09:51:40Z</time>
      </trkpt>
      <trkpt lat="47.36886" lon="-0.47292">
        <ele>43.3966064</ele>
        <time>2011-09-04T09:51:49Z</time>
      </trkpt>
      <trkpt lat="47.36842" lon="-0.47303">
        <ele>43.3966064</ele>
        <time>2011-09-04T09:51:59Z</time>
      </trkpt>
      <trkpt lat="47.36807" lon="-0.4731">
        <ele>43.3966064</ele>
        <time>2011-09-04T09:52:07Z</time>
      </trkpt>
      <trkpt lat="47.36775" lon="-0.47318">
        <ele>43.3966064</ele>
        <time>2011-09-04T09:52:15Z</time>
      </trkpt>
      <trkpt lat="47.36751" lon="-0.47333">
        <ele>43.8773193</ele>
        <time>2011-09-04T09:52:23Z</time>
      </trkpt>
      <trkpt lat="47.36732" lon="-0.47344">
        <ele>43.3966064</ele>
        <time>2011-09-04T09:52:29Z</time>
      </trkpt>
      <trkpt lat="47.36691" lon="-0.47364">
        <ele>42.4354248</ele>
        <time>2011-09-04T09:52:39Z</time>
      </trkpt>
      <trkpt lat="47.3666" lon="-0.47376">
        <ele>41.473999</ele>
        <time>2011-09-04T09:52:46Z</time>
      </trkpt>
      <trkpt lat="47.36627" lon="-0.4739">
        <ele>40.0321045</ele>
        <time>2011-09-04T09:52:53Z</time>
      </trkpt>
      <trkpt lat="47.3659" lon="-0.47405">
        <ele>38.5900879</ele>
        <time>2011-09-04T09:53:00Z</time>
      </trkpt>
      <trkpt lat="47.36549" lon="-0.47421">
        <ele>38.109375</ele>
        <time>2011-09-04T09:53:08Z</time>
      </trkpt>
      <trkpt lat="47.365" lon="-0.47448">
        <ele>36.6674805</ele>
        <time>2011-09-04T09:53:19Z</time>
      </trkpt>
      <trkpt lat="47.36484" lon="-0.47461">
        <ele>35.7060547</ele>
        <time>2011-09-04T09:53:23Z</time>
      </trkpt>
      <trkpt lat="47.36451" lon="-0.47501">
        <ele>34.744873</ele>
        <time>2011-09-04T09:53:33Z</time>
      </trkpt>
      <trkpt lat="47.3642" lon="-0.47534">
        <ele>32.3415527</ele>
        <time>2011-09-04T09:53:41Z</time>
      </trkpt>
      <trkpt lat="47.36416" lon="-0.47539">
        <ele>32.3415527</ele>
        <time>2011-09-04T09:53:42Z</time>
      </trkpt>
      <trkpt lat="47.36387" lon="-0.47551">
        <ele>29.9381104</ele>
        <time>2011-09-04T09:53:47Z</time>
      </trkpt>
      <trkpt lat="47.3636" lon="-0.47543">
        <ele>29.4575195</ele>
        <time>2011-09-04T09:53:51Z</time>
      </trkpt>
      <trkpt lat="47.36347" lon="-0.47521">
        <ele>28.4962158</ele>
        <time>2011-09-04T09:53:54Z</time>
      </trkpt>
      <trkpt lat="47.36331" lon="-0.47491">
        <ele>28.9769287</ele>
        <time>2011-09-04T09:53:59Z</time>
      </trkpt>
      <trkpt lat="47.3631" lon="-0.47471">
        <ele>30.4188232</ele>
        <time>2011-09-04T09:54:05Z</time>
      </trkpt>
      <trkpt lat="47.36307" lon="-0.47469">
        <ele>30.8995361</ele>
        <time>2011-09-04T09:54:06Z</time>
      </trkpt>
      <trkpt lat="47.36286" lon="-0.47461">
        <ele>36.1867676</ele>
        <time>2011-09-04T09:54:12Z</time>
      </trkpt>
      <trkpt lat="47.36272" lon="-0.47458">
        <ele>37.6286621</ele>
        <time>2011-09-04T09:54:16Z</time>
      </trkpt>
      <trkpt lat="47.36263" lon="-0.47454">
        <ele>36.6674805</ele>
        <time>2011-09-04T09:54:19Z</time>
      </trkpt>
      <trkpt lat="47.3626" lon="-0.47453">
        <ele>36.6674805</ele>
        <time>2011-09-04T09:54:20Z</time>
      </trkpt>
      <trkpt lat="47.36257" lon="-0.47452">
        <ele>36.1867676</ele>
        <time>2011-09-04T09:54:21Z</time>
      </trkpt>
      <trkpt lat="47.36234" lon="-0.47447">
        <ele>38.109375</ele>
        <time>2011-09-04T09:54:27Z</time>
      </trkpt>
      <trkpt lat="47.36222" lon="-0.47447">
        <ele>40.0321045</ele>
        <time>2011-09-04T09:54:30Z</time>
      </trkpt>
      <trkpt lat="47.36214" lon="-0.47458">
        <ele>39.5512695</ele>
        <time>2011-09-04T09:54:34Z</time>
      </trkpt>
      <trkpt lat="47.36214" lon="-0.47466">
        <ele>38.5900879</ele>
        <time>2011-09-04T09:54:36Z</time>
      </trkpt>
      <trkpt lat="47.36212" lon="-0.47505">
        <ele>38.5900879</ele>
        <time>2011-09-04T09:54:42Z</time>
      </trkpt>
      <trkpt lat="47.36208" lon="-0.47554">
        <ele>37.1480713</ele>
        <time>2011-09-04T09:54:48Z</time>
      </trkpt>
      <trkpt lat="47.36202" lon="-0.47628">
        <ele>33.7834473</ele>
        <time>2011-09-04T09:54:57Z</time>
      </trkpt>
      <trkpt lat="47.36202" lon="-0.47651">
        <ele>32.3415527</ele>
        <time>2011-09-04T09:55:00Z</time>
      </trkpt>
      <trkpt lat="47.36199" lon="-0.47665">
        <ele>32.3415527</ele>
        <time>2011-09-04T09:55:02Z</time>
      </trkpt>
      <trkpt lat="47.36195" lon="-0.4767">
        <ele>31.8607178</ele>
        <time>2011-09-04T09:55:03Z</time>
      </trkpt>
      <trkpt lat="47.36185" lon="-0.47676">
        <ele>31.8607178</ele>
        <time>2011-09-04T09:55:05Z</time>
      </trkpt>
      <trkpt lat="47.3615" lon="-0.47687">
        <ele>33.3028564</ele>
        <time>2011-09-04T09:55:12Z</time>
      </trkpt>
      <trkpt lat="47.36131" lon="-0.47705">
        <ele>32.8222656</ele>
        <time>2011-09-04T09:55:17Z</time>
      </trkpt>
      <trkpt lat="47.36128" lon="-0.4771">
        <ele>32.8222656</ele>
        <time>2011-09-04T09:55:18Z</time>
      </trkpt>
      <trkpt lat="47.36123" lon="-0.47739">
        <ele>32.3415527</ele>
        <time>2011-09-04T09:55:24Z</time>
      </trkpt>
      <trkpt lat="47.36125" lon="-0.47755">
        <ele>32.8222656</ele>
        <time>2011-09-04T09:55:28Z</time>
      </trkpt>
      <trkpt lat="47.36131" lon="-0.47782">
        <ele>33.7834473</ele>
        <time>2011-09-04T09:55:35Z</time>
      </trkpt>
      <trkpt lat="47.36138" lon="-0.47797">
        <ele>32.8222656</ele>
        <time>2011-09-04T09:55:39Z</time>
      </trkpt>
      <trkpt lat="47.36144" lon="-0.47815">
        <ele>31.8607178</ele>
        <time>2011-09-04T09:55:44Z</time>
      </trkpt>
      <trkpt lat="47.36146" lon="-0.47837">
        <ele>32.8222656</ele>
        <time>2011-09-04T09:55:50Z</time>
      </trkpt>
      <trkpt lat="47.36145" lon="-0.47864">
        <ele>35.2254639</ele>
        <time>2011-09-04T09:55:58Z</time>
      </trkpt>
      <trkpt lat="47.36146" lon="-0.4787">
        <ele>35.2254639</ele>
        <time>2011-09-04T09:56:00Z</time>
      </trkpt>
      <trkpt lat="47.36145" lon="-0.47888">
        <ele>37.6286621</ele>
        <time>2011-09-04T09:56:06Z</time>
      </trkpt>
      <trkpt lat="47.36145" lon="-0.47906">
        <ele>39.0706787</ele>
        <time>2011-09-04T09:56:12Z</time>
      </trkpt>
      <trkpt lat="47.36134" lon="-0.47912">
        <ele>40.0321045</ele>
        <time>2011-09-04T09:56:17Z</time>
      </trkpt>
      <trkpt lat="47.36131" lon="-0.47913">
        <ele>40.5128174</ele>
        <time>2011-09-04T09:56:18Z</time>
      </trkpt>
      <trkpt lat="47.3611" lon="-0.47913">
        <ele>40.9934082</ele>
        <time>2011-09-04T09:56:26Z</time>
      </trkpt>
      <trkpt lat="47.36089" lon="-0.47914">
        <ele>40.9934082</ele>
        <time>2011-09-04T09:56:33Z</time>
      </trkpt>
      <trkpt lat="47.36063" lon="-0.47915">
        <ele>40.9934082</ele>
        <time>2011-09-04T09:56:41Z</time>
      </trkpt>
      <trkpt lat="47.36036" lon="-0.4791">
        <ele>41.473999</ele>
        <time>2011-09-04T09:56:49Z</time>
      </trkpt>
      <trkpt lat="47.36021" lon="-0.47897">
        <ele>40.9934082</ele>
        <time>2011-09-04T09:56:54Z</time>
      </trkpt>
      <trkpt lat="47.35997" lon="-0.47896">
        <ele>42.9160156</ele>
        <time>2011-09-04T09:57:01Z</time>
      </trkpt>
      <trkpt lat="47.35966" lon="-0.47895">
        <ele>45.3192139</ele>
        <time>2011-09-04T09:57:11Z</time>
      </trkpt>
      <trkpt lat="47.35944" lon="-0.47893">
        <ele>45.3192139</ele>
        <time>2011-09-04T09:57:19Z</time>
      </trkpt>
      <trkpt lat="47.35919" lon="-0.47894">
        <ele>45.3192139</ele>
        <time>2011-09-04T09:57:28Z</time>
      </trkpt>
      <trkpt lat="47.35917" lon="-0.47909">
        <ele>45.3192139</ele>
        <time>2011-09-04T09:57:33Z</time>
      </trkpt>
      <trkpt lat="47.35918" lon="-0.47935">
        <ele>44.838623</ele>
        <time>2011-09-04T09:57:39Z</time>
      </trkpt>
      <trkpt lat="47.35918" lon="-0.47968">
        <ele>44.3580322</ele>
        <time>2011-09-04T09:57:45Z</time>
      </trkpt>
      <trkpt lat="47.35919" lon="-0.48009">
        <ele>43.3966064</ele>
        <time>2011-09-04T09:57:52Z</time>
      </trkpt>
      <trkpt lat="47.35919" lon="-0.48048">
        <ele>42.4354248</ele>
        <time>2011-09-04T09:58:00Z</time>
      </trkpt>
      <trkpt lat="47.35918" lon="-0.48092">
        <ele>42.4354248</ele>
        <time>2011-09-04T09:58:08Z</time>
      </trkpt>
      <trkpt lat="47.35916" lon="-0.48135">
        <ele>42.9160156</ele>
        <time>2011-09-04T09:58:16Z</time>
      </trkpt>
      <trkpt lat="47.35903" lon="-0.48145">
        <ele>43.8773193</ele>
        <time>2011-09-04T09:58:20Z</time>
      </trkpt>
      <trkpt lat="47.35877" lon="-0.48152">
        <ele>44.838623</ele>
        <time>2011-09-04T09:58:27Z</time>
      </trkpt>
      <trkpt lat="47.35845" lon="-0.48155">
        <ele>46.2806396</ele>
        <time>2011-09-04T09:58:35Z</time>
      </trkpt>
      <trkpt lat="47.35804" lon="-0.48156">
        <ele>47.7225342</ele>
        <time>2011-09-04T09:58:45Z</time>
      </trkpt>
      <trkpt lat="47.35774" lon="-0.48158">
        <ele>48.2033691</ele>
        <time>2011-09-04T09:58:53Z</time>
      </trkpt>
      <trkpt lat="47.3576" lon="-0.4816">
        <ele>48.68396</ele>
        <time>2011-09-04T09:58:58Z</time>
      </trkpt>
      <trkpt lat="47.35735" lon="-0.48157">
        <ele>48.2033691</ele>
        <time>2011-09-04T09:59:05Z</time>
      </trkpt>
      <trkpt lat="47.35701" lon="-0.48153">
        <ele>45.7999268</ele>
        <time>2011-09-04T09:59:14Z</time>
      </trkpt>
      <trkpt lat="47.3565" lon="-0.48158">
        <ele>46.2806396</ele>
        <time>2011-09-04T09:59:27Z</time>
      </trkpt>
      <trkpt lat="47.35619" lon="-0.48171">
        <ele>46.2806396</ele>
        <time>2011-09-04T09:59:35Z</time>
      </trkpt>
      <trkpt lat="47.35585" lon="-0.482">
        <ele>46.2806396</ele>
        <time>2011-09-04T09:59:44Z</time>
      </trkpt>
      <trkpt lat="47.35563" lon="-0.48219">
        <ele>46.2806396</ele>
        <time>2011-09-04T09:59:50Z</time>
      </trkpt>
      <trkpt lat="47.35527" lon="-0.48247">
        <ele>46.7612305</ele>
        <time>2011-09-04T09:59:59Z</time>
      </trkpt>
      <trkpt lat="47.35498" lon="-0.48271">
        <ele>47.2418213</ele>
        <time>2011-09-04T10:00:07Z</time>
      </trkpt>
      <trkpt lat="47.35475" lon="-0.48286">
        <ele>48.2033691</ele>
        <time>2011-09-04T10:00:15Z</time>
      </trkpt>
      <trkpt lat="47.35449" lon="-0.48301">
        <ele>49.6452637</ele>
        <time>2011-09-04T10:00:23Z</time>
      </trkpt>
      <trkpt lat="47.35416" lon="-0.48313">
        <ele>50.1259766</ele>
        <time>2011-09-04T10:00:32Z</time>
      </trkpt>
      <trkpt lat="47.35385" lon="-0.48318">
        <ele>52.048584</ele>
        <time>2011-09-04T10:00:40Z</time>
      </trkpt>
      <trkpt lat="47.35354" lon="-0.48323">
        <ele>54.932373</ele>
        <time>2011-09-04T10:00:48Z</time>
      </trkpt>
      <trkpt lat="47.35336" lon="-0.4832">
        <ele>55.8937988</ele>
        <time>2011-09-04T10:00:53Z</time>
      </trkpt>
      <trkpt lat="47.35316" lon="-0.48316">
        <ele>56.3745117</ele>
        <time>2011-09-04T10:00:59Z</time>
      </trkpt>
      <trkpt lat="47.3529" lon="-0.48314">
        <ele>56.3745117</ele>
        <time>2011-09-04T10:01:07Z</time>
      </trkpt>
      <trkpt lat="47.35275" lon="-0.48312">
        <ele>55.4130859</ele>
        <time>2011-09-04T10:01:12Z</time>
      </trkpt>
      <trkpt lat="47.35256" lon="-0.48309">
        <ele>55.8937988</ele>
        <time>2011-09-04T10:01:17Z</time>
      </trkpt>
      <trkpt lat="47.35242" lon="-0.48307">
        <ele>56.3745117</ele>
        <time>2011-09-04T10:01:21Z</time>
      </trkpt>
      <trkpt lat="47.35211" lon="-0.48297">
        <ele>55.4130859</ele>
        <time>2011-09-04T10:01:30Z</time>
      </trkpt>
      <trkpt lat="47.35179" lon="-0.48285">
        <ele>53.9711914</ele>
        <time>2011-09-04T10:01:39Z</time>
      </trkpt>
      <trkpt lat="47.35156" lon="-0.48275">
        <ele>52.5291748</ele>
        <time>2011-09-04T10:01:46Z</time>
      </trkpt>
      <trkpt lat="47.3514" lon="-0.48293">
        <ele>51.5678711</ele>
        <time>2011-09-04T10:01:52Z</time>
      </trkpt>
      <trkpt lat="47.35112" lon="-0.48329">
        <ele>52.048584</ele>
        <time>2011-09-04T10:02:00Z</time>
      </trkpt>
      <trkpt lat="47.35095" lon="-0.4835">
        <ele>53.9711914</ele>
        <time>2011-09-04T10:02:04Z</time>
      </trkpt>
      <trkpt lat="47.35071" lon="-0.48381">
        <ele>55.4130859</ele>
        <time>2011-09-04T10:02:09Z</time>
      </trkpt>
      <trkpt lat="47.35051" lon="-0.48403">
        <ele>57.3358154</ele>
        <time>2011-09-04T10:02:13Z</time>
      </trkpt>
      <trkpt lat="47.35012" lon="-0.48423">
        <ele>60.2197266</ele>
        <time>2011-09-04T10:02:20Z</time>
      </trkpt>
      <trkpt lat="47.35007" lon="-0.48426">
        <ele>60.2197266</ele>
        <time>2011-09-04T10:02:21Z</time>
      </trkpt>
      <trkpt lat="47.34996" lon="-0.48433">
        <ele>60.7003174</ele>
        <time>2011-09-04T10:02:23Z</time>
      </trkpt>
      <trkpt lat="47.34982" lon="-0.48447">
        <ele>62.6229248</ele>
        <time>2011-09-04T10:02:26Z</time>
      </trkpt>
      <trkpt lat="47.34961" lon="-0.48483">
        <ele>62.142334</ele>
        <time>2011-09-04T10:02:32Z</time>
      </trkpt>
      <trkpt lat="47.34949" lon="-0.4853">
        <ele>63.1036377</ele>
        <time>2011-09-04T10:02:39Z</time>
      </trkpt>
      <trkpt lat="47.34942" lon="-0.48588">
        <ele>64.5456543</ele>
        <time>2011-09-04T10:02:47Z</time>
      </trkpt>
      <trkpt lat="47.3494" lon="-0.48603">
        <ele>65.0263672</ele>
        <time>2011-09-04T10:02:49Z</time>
      </trkpt>
      <trkpt lat="47.3493" lon="-0.48652">
        <ele>67.4296875</ele>
        <time>2011-09-04T10:02:56Z</time>
      </trkpt>
      <trkpt lat="47.34921" lon="-0.48689">
        <ele>69.3522949</ele>
        <time>2011-09-04T10:03:02Z</time>
      </trkpt>
      <trkpt lat="47.34914" lon="-0.4872">
        <ele>70.7941895</ele>
        <time>2011-09-04T10:03:08Z</time>
      </trkpt>
      <trkpt lat="47.3491" lon="-0.4874">
        <ele>70.3134766</ele>
        <time>2011-09-04T10:03:14Z</time>
      </trkpt>
      <trkpt lat="47.34905" lon="-0.48758">
        <ele>69.8328857</ele>
        <time>2011-09-04T10:03:21Z</time>
      </trkpt>
      <trkpt lat="47.34903" lon="-0.48771">
        <ele>70.3134766</ele>
        <time>2011-09-04T10:03:29Z</time>
      </trkpt>
      <trkpt lat="47.34903" lon="-0.48772">
        <ele>70.3134766</ele>
        <time>2011-09-04T10:03:30Z</time>
      </trkpt>
      <trkpt lat="47.34902" lon="-0.48773">
        <ele>70.7941895</ele>
        <time>2011-09-04T10:03:36Z</time>
      </trkpt>
      <trkpt lat="47.34903" lon="-0.48773">
        <ele>71.7554932</ele>
        <time>2011-09-04T10:03:42Z</time>
      </trkpt>
      <trkpt lat="47.34903" lon="-0.48773">
        <ele>72.2362061</ele>
        <time>2011-09-04T10:03:49Z</time>
      </trkpt>
      <trkpt lat="47.34904" lon="-0.48774">
        <ele>73.6782227</ele>
        <time>2011-09-04T10:03:54Z</time>
      </trkpt>
      <trkpt lat="47.34904" lon="-0.48775">
        <ele>75.1202393</ele>
        <time>2011-09-04T10:04:01Z</time>
      </trkpt>
      <trkpt lat="47.34904" lon="-0.48774">
        <ele>75.1202393</ele>
        <time>2011-09-04T10:04:10Z</time>
      </trkpt>
      <trkpt lat="47.34904" lon="-0.48779">
        <ele>77.5234375</ele>
        <time>2011-09-04T10:04:21Z</time>
      </trkpt>
      <trkpt lat="47.34903" lon="-0.48781">
        <ele>77.5234375</ele>
        <time>2011-09-04T10:04:22Z</time>
      </trkpt>
      <trkpt lat="47.34884" lon="-0.48782">
        <ele>77.0428467</ele>
        <time>2011-09-04T10:04:29Z</time>
      </trkpt>
      <trkpt lat="47.34862" lon="-0.48778">
        <ele>72.7169189</ele>
        <time>2011-09-04T10:04:35Z</time>
      </trkpt>
      <trkpt lat="47.3484" lon="-0.48776">
        <ele>70.3134766</ele>
        <time>2011-09-04T10:04:40Z</time>
      </trkpt>
      <trkpt lat="47.34836" lon="-0.48776">
        <ele>69.8328857</ele>
        <time>2011-09-04T10:04:41Z</time>
      </trkpt>
      <trkpt lat="47.34809" lon="-0.48771">
        <ele>71.2749023</ele>
        <time>2011-09-04T10:04:48Z</time>
      </trkpt>
      <trkpt lat="47.3479" lon="-0.48764">
        <ele>70.7941895</ele>
        <time>2011-09-04T10:04:53Z</time>
      </trkpt>
      <trkpt lat="47.34759" lon="-0.48753">
        <ele>70.3134766</ele>
        <time>2011-09-04T10:05:00Z</time>
      </trkpt>
      <trkpt lat="47.34728" lon="-0.48741">
        <ele>70.3134766</ele>
        <time>2011-09-04T10:05:07Z</time>
      </trkpt>
      <trkpt lat="47.34694" lon="-0.48728">
        <ele>71.7554932</ele>
        <time>2011-09-04T10:05:15Z</time>
      </trkpt>
      <trkpt lat="47.34687" lon="-0.48725">
        <ele>71.7554932</ele>
        <time>2011-09-04T10:05:17Z</time>
      </trkpt>
      <trkpt lat="47.34671" lon="-0.48719">
        <ele>71.2749023</ele>
        <time>2011-09-04T10:05:23Z</time>
      </trkpt>
      <trkpt lat="47.34665" lon="-0.48729">
        <ele>69.8328857</ele>
        <time>2011-09-04T10:05:27Z</time>
      </trkpt>
      <trkpt lat="47.34659" lon="-0.48771">
        <ele>68.3908691</ele>
        <time>2011-09-04T10:05:36Z</time>
      </trkpt>
      <trkpt lat="47.34656" lon="-0.48805">
        <ele>66.4682617</ele>
        <time>2011-09-04T10:05:42Z</time>
      </trkpt>
      <trkpt lat="47.34651" lon="-0.48839">
        <ele>65.5070801</ele>
        <time>2011-09-04T10:05:47Z</time>
      </trkpt>
      <trkpt lat="47.34649" lon="-0.48864">
        <ele>64.5456543</ele>
        <time>2011-09-04T10:05:50Z</time>
      </trkpt>
      <trkpt lat="47.34648" lon="-0.48881">
        <ele>64.0650635</ele>
        <time>2011-09-04T10:05:52Z</time>
      </trkpt>
      <trkpt lat="47.34642" lon="-0.48893">
        <ele>63.5843506</ele>
        <time>2011-09-04T10:05:56Z</time>
      </trkpt>
      <trkpt lat="47.34642" lon="-0.48895">
        <ele>64.0650635</ele>
        <time>2011-09-04T10:05:57Z</time>
      </trkpt>
      <trkpt lat="47.34642" lon="-0.48897">
        <ele>65.5070801</ele>
        <time>2011-09-04T10:06:05Z</time>
      </trkpt>
      <trkpt lat="47.34644" lon="-0.48897">
        <ele>67.9102783</ele>
        <time>2011-09-04T10:06:13Z</time>
      </trkpt>
      <trkpt lat="47.34644" lon="-0.48896">
        <ele>68.3908691</ele>
        <time>2011-09-04T10:06:19Z</time>
      </trkpt>
    </trkseg>
  </trk>
</gpx>